<?xml version="1.0" encoding="UTF-8" standalone="no" ?>
<gpx xmlns="http://www.topografix.com/GPX/1/1" xmlns:xsi="http://www.w3.org/2001/XMLSchema-instance" xsi:schemaLocation="http://www.topografix.com/GPX/1/1 http://www.topografix.com/GPX/1/1/gpx.xsd" version="1.1" creator="VisuGPX - https://www.visugpx.com">
  <metadata>
    <name>2021-03-31 depuis le Platzer vers le Markstein</name>
  </metadata>
  <trk>
    <name><![CDATA[2021-03-31 depuis le Platzer vers le Markstein]]></name>
    <extensions>
      <line xmlns="http://www.topografix.com/GPX/gpx_style/0/2">
        <color>0000FF</color>
        <opacity>0.59</opacity>
        <width>6.0</width>
      </line>
    </extensions>
    <trkseg>
      <trkpt lat="47.96958" lon="7.04386">
        <ele>1183</ele>
        <time>2021-03-31T08:11:16.000Z</time>
      </trkpt>
      <trkpt lat="47.96985" lon="7.04445">
        <ele>1172.9</ele>
        <time>2021-03-31T08:11:21.000Z</time>
      </trkpt>
      <trkpt lat="47.96974" lon="7.04419">
        <ele>1178.6</ele>
        <time>2021-03-31T08:11:26.000Z</time>
      </trkpt>
      <trkpt lat="47.96963" lon="7.04381">
        <ele>1184.1</ele>
        <time>2021-03-31T08:11:31.000Z</time>
      </trkpt>
      <trkpt lat="47.96962" lon="7.04411">
        <ele>1179.1</ele>
        <time>2021-03-31T08:11:44.000Z</time>
      </trkpt>
      <trkpt lat="47.96957" lon="7.04388">
        <ele>1182.6</ele>
        <time>2021-03-31T08:11:49.000Z</time>
      </trkpt>
      <trkpt lat="47.96949" lon="7.04373">
        <ele>1184.6</ele>
        <time>2021-03-31T08:11:54.000Z</time>
      </trkpt>
      <trkpt lat="47.96935" lon="7.04345">
        <ele>1188.7</ele>
        <time>2021-03-31T08:11:59.000Z</time>
      </trkpt>
      <trkpt lat="47.96926" lon="7.04341">
        <ele>1189.1</ele>
        <time>2021-03-31T08:12:16.000Z</time>
      </trkpt>
      <trkpt lat="47.96914" lon="7.04322">
        <ele>1190.6</ele>
        <time>2021-03-31T08:12:21.000Z</time>
      </trkpt>
      <trkpt lat="47.96901" lon="7.04318">
        <ele>1191.1</ele>
        <time>2021-03-31T08:12:26.000Z</time>
      </trkpt>
      <trkpt lat="47.96891" lon="7.04319">
        <ele>1191.3</ele>
        <time>2021-03-31T08:12:32.000Z</time>
      </trkpt>
      <trkpt lat="47.96882" lon="7.04317">
        <ele>1191.6</ele>
        <time>2021-03-31T08:12:42.000Z</time>
      </trkpt>
      <trkpt lat="47.96878" lon="7.04304">
        <ele>1192.3</ele>
        <time>2021-03-31T08:12:55.000Z</time>
      </trkpt>
      <trkpt lat="47.9687" lon="7.04295">
        <ele>1193</ele>
        <time>2021-03-31T08:13:04.000Z</time>
      </trkpt>
      <trkpt lat="47.96858" lon="7.04284">
        <ele>1193.8</ele>
        <time>2021-03-31T08:13:09.000Z</time>
      </trkpt>
      <trkpt lat="47.96878" lon="7.04273">
        <ele>1193.8</ele>
        <time>2021-03-31T08:13:14.000Z</time>
      </trkpt>
      <trkpt lat="47.96892" lon="7.04271">
        <ele>1193.6</ele>
        <time>2021-03-31T08:13:19.000Z</time>
      </trkpt>
      <trkpt lat="47.96932" lon="7.04326">
        <ele>1190.9</ele>
        <time>2021-03-31T08:13:24.000Z</time>
      </trkpt>
      <trkpt lat="47.96941" lon="7.04318">
        <ele>1191.5</ele>
        <time>2021-03-31T08:13:44.000Z</time>
      </trkpt>
      <trkpt lat="47.96942" lon="7.04302">
        <ele>1192.2</ele>
        <time>2021-03-31T08:14:09.000Z</time>
      </trkpt>
      <trkpt lat="47.96932" lon="7.04303">
        <ele>1191.9</ele>
        <time>2021-03-31T08:14:25.000Z</time>
      </trkpt>
      <trkpt lat="47.96925" lon="7.04291">
        <ele>1192.2</ele>
        <time>2021-03-31T08:14:32.000Z</time>
      </trkpt>
      <trkpt lat="47.96917" lon="7.04279">
        <ele>1192.6</ele>
        <time>2021-03-31T08:14:37.000Z</time>
      </trkpt>
      <trkpt lat="47.96917" lon="7.04265">
        <ele>1193.3</ele>
        <time>2021-03-31T08:15:13.000Z</time>
      </trkpt>
      <trkpt lat="47.96911" lon="7.04254">
        <ele>1193.9</ele>
        <time>2021-03-31T08:15:24.000Z</time>
      </trkpt>
      <trkpt lat="47.96904" lon="7.04246">
        <ele>1193.9</ele>
        <time>2021-03-31T08:15:37.000Z</time>
      </trkpt>
      <trkpt lat="47.96895" lon="7.04244">
        <ele>1194</ele>
        <time>2021-03-31T08:15:48.000Z</time>
      </trkpt>
      <trkpt lat="47.96885" lon="7.04245">
        <ele>1194.4</ele>
        <time>2021-03-31T08:16:00.000Z</time>
      </trkpt>
      <trkpt lat="47.96876" lon="7.04244">
        <ele>1194.5</ele>
        <time>2021-03-31T08:16:13.000Z</time>
      </trkpt>
      <trkpt lat="47.96867" lon="7.0424">
        <ele>1194.5</ele>
        <time>2021-03-31T08:16:21.000Z</time>
      </trkpt>
      <trkpt lat="47.96858" lon="7.04241">
        <ele>1194.8</ele>
        <time>2021-03-31T08:16:32.000Z</time>
      </trkpt>
      <trkpt lat="47.96849" lon="7.04237">
        <ele>1194.9</ele>
        <time>2021-03-31T08:16:41.000Z</time>
      </trkpt>
      <trkpt lat="47.9684" lon="7.04229">
        <ele>1194.8</ele>
        <time>2021-03-31T08:16:49.000Z</time>
      </trkpt>
      <trkpt lat="47.96832" lon="7.04222">
        <ele>1194.5</ele>
        <time>2021-03-31T08:16:59.000Z</time>
      </trkpt>
      <trkpt lat="47.96822" lon="7.0422">
        <ele>1193.9</ele>
        <time>2021-03-31T08:17:08.000Z</time>
      </trkpt>
      <trkpt lat="47.96812" lon="7.0422">
        <ele>1193.3</ele>
        <time>2021-03-31T08:17:19.000Z</time>
      </trkpt>
      <trkpt lat="47.96802" lon="7.04218">
        <ele>1192.8</ele>
        <time>2021-03-31T08:17:28.000Z</time>
      </trkpt>
      <trkpt lat="47.96793" lon="7.04213">
        <ele>1192.3</ele>
        <time>2021-03-31T08:17:37.000Z</time>
      </trkpt>
      <trkpt lat="47.96784" lon="7.04208">
        <ele>1191.9</ele>
        <time>2021-03-31T08:17:46.000Z</time>
      </trkpt>
      <trkpt lat="47.96774" lon="7.04206">
        <ele>1191.6</ele>
        <time>2021-03-31T08:17:55.000Z</time>
      </trkpt>
      <trkpt lat="47.96766" lon="7.042">
        <ele>1191.5</ele>
        <time>2021-03-31T08:18:04.000Z</time>
      </trkpt>
      <trkpt lat="47.96758" lon="7.04193">
        <ele>1191.6</ele>
        <time>2021-03-31T08:18:16.000Z</time>
      </trkpt>
      <trkpt lat="47.96749" lon="7.04185">
        <ele>1192</ele>
        <time>2021-03-31T08:18:30.000Z</time>
      </trkpt>
      <trkpt lat="47.9674" lon="7.04178">
        <ele>1193.3</ele>
        <time>2021-03-31T08:18:40.000Z</time>
      </trkpt>
      <trkpt lat="47.96732" lon="7.04171">
        <ele>1194.8</ele>
        <time>2021-03-31T08:18:50.000Z</time>
      </trkpt>
      <trkpt lat="47.96723" lon="7.04164">
        <ele>1196.3</ele>
        <time>2021-03-31T08:19:05.000Z</time>
      </trkpt>
      <trkpt lat="47.96716" lon="7.04157">
        <ele>1197.4</ele>
        <time>2021-03-31T08:19:15.000Z</time>
      </trkpt>
      <trkpt lat="47.96709" lon="7.04147">
        <ele>1198.4</ele>
        <time>2021-03-31T08:19:47.000Z</time>
      </trkpt>
      <trkpt lat="47.96701" lon="7.04139">
        <ele>1199.6</ele>
        <time>2021-03-31T08:20:00.000Z</time>
      </trkpt>
      <trkpt lat="47.96692" lon="7.04134">
        <ele>1200.8</ele>
        <time>2021-03-31T08:20:11.000Z</time>
      </trkpt>
      <trkpt lat="47.96686" lon="7.04124">
        <ele>1201.7</ele>
        <time>2021-03-31T08:20:24.000Z</time>
      </trkpt>
      <trkpt lat="47.96677" lon="7.0412">
        <ele>1202.9</ele>
        <time>2021-03-31T08:20:40.000Z</time>
      </trkpt>
      <trkpt lat="47.96668" lon="7.04113">
        <ele>1204.1</ele>
        <time>2021-03-31T08:20:55.000Z</time>
      </trkpt>
      <trkpt lat="47.9666" lon="7.04107">
        <ele>1204.9</ele>
        <time>2021-03-31T08:21:09.000Z</time>
      </trkpt>
      <trkpt lat="47.96652" lon="7.04099">
        <ele>1205.8</ele>
        <time>2021-03-31T08:21:23.000Z</time>
      </trkpt>
      <trkpt lat="47.96643" lon="7.04096">
        <ele>1206.6</ele>
        <time>2021-03-31T08:21:37.000Z</time>
      </trkpt>
      <trkpt lat="47.96634" lon="7.04091">
        <ele>1207.5</ele>
        <time>2021-03-31T08:21:53.000Z</time>
      </trkpt>
      <trkpt lat="47.96626" lon="7.04085">
        <ele>1208.3</ele>
        <time>2021-03-31T08:22:11.000Z</time>
      </trkpt>
      <trkpt lat="47.96618" lon="7.04078">
        <ele>1209.8</ele>
        <time>2021-03-31T08:22:24.000Z</time>
      </trkpt>
      <trkpt lat="47.96609" lon="7.04072">
        <ele>1211.3</ele>
        <time>2021-03-31T08:22:39.000Z</time>
      </trkpt>
      <trkpt lat="47.96601" lon="7.04064">
        <ele>1213.2</ele>
        <time>2021-03-31T08:23:05.000Z</time>
      </trkpt>
      <trkpt lat="47.96592" lon="7.04061">
        <ele>1214.5</ele>
        <time>2021-03-31T08:23:33.000Z</time>
      </trkpt>
      <trkpt lat="47.96584" lon="7.04054">
        <ele>1216.2</ele>
        <time>2021-03-31T08:23:45.000Z</time>
      </trkpt>
      <trkpt lat="47.96576" lon="7.04047">
        <ele>1218</ele>
        <time>2021-03-31T08:23:59.000Z</time>
      </trkpt>
      <trkpt lat="47.96569" lon="7.04036">
        <ele>1220.3</ele>
        <time>2021-03-31T08:24:15.000Z</time>
      </trkpt>
      <trkpt lat="47.96562" lon="7.04027">
        <ele>1222.5</ele>
        <time>2021-03-31T08:24:29.000Z</time>
      </trkpt>
      <trkpt lat="47.96554" lon="7.0402">
        <ele>1224.3</ele>
        <time>2021-03-31T08:24:44.000Z</time>
      </trkpt>
      <trkpt lat="47.96547" lon="7.04013">
        <ele>1226.4</ele>
        <time>2021-03-31T08:25:01.000Z</time>
      </trkpt>
      <trkpt lat="47.96539" lon="7.04004">
        <ele>1228.6</ele>
        <time>2021-03-31T08:25:20.000Z</time>
      </trkpt>
      <trkpt lat="47.96532" lon="7.03997">
        <ele>1230.5</ele>
        <time>2021-03-31T08:25:34.000Z</time>
      </trkpt>
      <trkpt lat="47.96522" lon="7.03994">
        <ele>1231.8</ele>
        <time>2021-03-31T08:25:50.000Z</time>
      </trkpt>
      <trkpt lat="47.96513" lon="7.03997">
        <ele>1232.6</ele>
        <time>2021-03-31T08:26:02.000Z</time>
      </trkpt>
      <trkpt lat="47.96505" lon="7.03991">
        <ele>1234</ele>
        <time>2021-03-31T08:26:16.000Z</time>
      </trkpt>
      <trkpt lat="47.96497" lon="7.03984">
        <ele>1235.3</ele>
        <time>2021-03-31T08:26:35.000Z</time>
      </trkpt>
      <trkpt lat="47.96489" lon="7.03978">
        <ele>1236.2</ele>
        <time>2021-03-31T08:26:51.000Z</time>
      </trkpt>
      <trkpt lat="47.9648" lon="7.03972">
        <ele>1237.2</ele>
        <time>2021-03-31T08:27:03.000Z</time>
      </trkpt>
      <trkpt lat="47.96474" lon="7.03961">
        <ele>1238.4</ele>
        <time>2021-03-31T08:27:12.000Z</time>
      </trkpt>
      <trkpt lat="47.96465" lon="7.03955">
        <ele>1239.4</ele>
        <time>2021-03-31T08:27:23.000Z</time>
      </trkpt>
      <trkpt lat="47.96456" lon="7.03948">
        <ele>1240.5</ele>
        <time>2021-03-31T08:27:33.000Z</time>
      </trkpt>
      <trkpt lat="47.96448" lon="7.03941">
        <ele>1241.6</ele>
        <time>2021-03-31T08:27:42.000Z</time>
      </trkpt>
      <trkpt lat="47.96439" lon="7.03934">
        <ele>1242.8</ele>
        <time>2021-03-31T08:27:51.000Z</time>
      </trkpt>
      <trkpt lat="47.9643" lon="7.03931">
        <ele>1243.7</ele>
        <time>2021-03-31T08:28:01.000Z</time>
      </trkpt>
      <trkpt lat="47.96421" lon="7.03929">
        <ele>1244.5</ele>
        <time>2021-03-31T08:28:10.000Z</time>
      </trkpt>
      <trkpt lat="47.96411" lon="7.03928">
        <ele>1245.1</ele>
        <time>2021-03-31T08:28:20.000Z</time>
      </trkpt>
      <trkpt lat="47.96402" lon="7.03931">
        <ele>1244.9</ele>
        <time>2021-03-31T08:28:33.000Z</time>
      </trkpt>
      <trkpt lat="47.96394" lon="7.03938">
        <ele>1244.6</ele>
        <time>2021-03-31T08:28:42.000Z</time>
      </trkpt>
      <trkpt lat="47.96385" lon="7.03941">
        <ele>1244.6</ele>
        <time>2021-03-31T08:28:50.000Z</time>
      </trkpt>
      <trkpt lat="47.96376" lon="7.03943">
        <ele>1244.8</ele>
        <time>2021-03-31T08:28:57.000Z</time>
      </trkpt>
      <trkpt lat="47.96367" lon="7.0394">
        <ele>1245.2</ele>
        <time>2021-03-31T08:29:06.000Z</time>
      </trkpt>
      <trkpt lat="47.96358" lon="7.03936">
        <ele>1245.7</ele>
        <time>2021-03-31T08:29:13.000Z</time>
      </trkpt>
      <trkpt lat="47.96349" lon="7.03932">
        <ele>1246.1</ele>
        <time>2021-03-31T08:29:21.000Z</time>
      </trkpt>
      <trkpt lat="47.96339" lon="7.03928">
        <ele>1246.5</ele>
        <time>2021-03-31T08:29:30.000Z</time>
      </trkpt>
      <trkpt lat="47.9633" lon="7.03925">
        <ele>1247</ele>
        <time>2021-03-31T08:29:38.000Z</time>
      </trkpt>
      <trkpt lat="47.9632" lon="7.03923">
        <ele>1248.1</ele>
        <time>2021-03-31T08:29:47.000Z</time>
      </trkpt>
      <trkpt lat="47.9631" lon="7.03924">
        <ele>1249</ele>
        <time>2021-03-31T08:29:55.000Z</time>
      </trkpt>
      <trkpt lat="47.96301" lon="7.03924">
        <ele>1249.9</ele>
        <time>2021-03-31T08:30:03.000Z</time>
      </trkpt>
      <trkpt lat="47.96291" lon="7.03921">
        <ele>1251.1</ele>
        <time>2021-03-31T08:30:13.000Z</time>
      </trkpt>
      <trkpt lat="47.96282" lon="7.03918">
        <ele>1252.4</ele>
        <time>2021-03-31T08:30:22.000Z</time>
      </trkpt>
      <trkpt lat="47.96273" lon="7.03913">
        <ele>1253.4</ele>
        <time>2021-03-31T08:30:32.000Z</time>
      </trkpt>
      <trkpt lat="47.96264" lon="7.03907">
        <ele>1254</ele>
        <time>2021-03-31T08:30:50.000Z</time>
      </trkpt>
      <trkpt lat="47.96256" lon="7.03901">
        <ele>1254.7</ele>
        <time>2021-03-31T08:31:02.000Z</time>
      </trkpt>
      <trkpt lat="47.96247" lon="7.039">
        <ele>1255.2</ele>
        <time>2021-03-31T08:31:14.000Z</time>
      </trkpt>
      <trkpt lat="47.96238" lon="7.03894">
        <ele>1254.9</ele>
        <time>2021-03-31T08:31:25.000Z</time>
      </trkpt>
      <trkpt lat="47.9623" lon="7.03887">
        <ele>1254.6</ele>
        <time>2021-03-31T08:31:44.000Z</time>
      </trkpt>
      <trkpt lat="47.96221" lon="7.03886">
        <ele>1254.6</ele>
        <time>2021-03-31T08:33:22.000Z</time>
      </trkpt>
      <trkpt lat="47.96212" lon="7.03886">
        <ele>1254.6</ele>
        <time>2021-03-31T08:33:31.000Z</time>
      </trkpt>
      <trkpt lat="47.96202" lon="7.03887">
        <ele>1254.7</ele>
        <time>2021-03-31T08:33:39.000Z</time>
      </trkpt>
      <trkpt lat="47.96192" lon="7.03889">
        <ele>1254.7</ele>
        <time>2021-03-31T08:33:47.000Z</time>
      </trkpt>
      <trkpt lat="47.96182" lon="7.03891">
        <ele>1254.6</ele>
        <time>2021-03-31T08:33:55.000Z</time>
      </trkpt>
      <trkpt lat="47.96173" lon="7.03891">
        <ele>1254.6</ele>
        <time>2021-03-31T08:34:02.000Z</time>
      </trkpt>
      <trkpt lat="47.96163" lon="7.03892">
        <ele>1254.6</ele>
        <time>2021-03-31T08:34:16.000Z</time>
      </trkpt>
      <trkpt lat="47.96153" lon="7.03893">
        <ele>1254.6</ele>
        <time>2021-03-31T08:34:23.000Z</time>
      </trkpt>
      <trkpt lat="47.96144" lon="7.03893">
        <ele>1254.6</ele>
        <time>2021-03-31T08:34:31.000Z</time>
      </trkpt>
      <trkpt lat="47.96134" lon="7.03895">
        <ele>1254.5</ele>
        <time>2021-03-31T08:34:39.000Z</time>
      </trkpt>
      <trkpt lat="47.96125" lon="7.03896">
        <ele>1254.5</ele>
        <time>2021-03-31T08:34:50.000Z</time>
      </trkpt>
      <trkpt lat="47.96116" lon="7.03897">
        <ele>1254.5</ele>
        <time>2021-03-31T08:34:59.000Z</time>
      </trkpt>
      <trkpt lat="47.96106" lon="7.03898">
        <ele>1254.5</ele>
        <time>2021-03-31T08:35:07.000Z</time>
      </trkpt>
      <trkpt lat="47.96096" lon="7.03899">
        <ele>1254.4</ele>
        <time>2021-03-31T08:35:18.000Z</time>
      </trkpt>
      <trkpt lat="47.96087" lon="7.039">
        <ele>1254.4</ele>
        <time>2021-03-31T08:35:27.000Z</time>
      </trkpt>
      <trkpt lat="47.96078" lon="7.03902">
        <ele>1255</ele>
        <time>2021-03-31T08:35:37.000Z</time>
      </trkpt>
      <trkpt lat="47.96069" lon="7.03903">
        <ele>1255.9</ele>
        <time>2021-03-31T08:35:47.000Z</time>
      </trkpt>
      <trkpt lat="47.9606" lon="7.03905">
        <ele>1256.9</ele>
        <time>2021-03-31T08:35:57.000Z</time>
      </trkpt>
      <trkpt lat="47.9605" lon="7.03906">
        <ele>1257.9</ele>
        <time>2021-03-31T08:36:15.000Z</time>
      </trkpt>
      <trkpt lat="47.96041" lon="7.03908">
        <ele>1259</ele>
        <time>2021-03-31T08:36:23.000Z</time>
      </trkpt>
      <trkpt lat="47.96032" lon="7.03911">
        <ele>1260</ele>
        <time>2021-03-31T08:36:31.000Z</time>
      </trkpt>
      <trkpt lat="47.96023" lon="7.03914">
        <ele>1261.1</ele>
        <time>2021-03-31T08:36:42.000Z</time>
      </trkpt>
      <trkpt lat="47.96015" lon="7.03918">
        <ele>1262</ele>
        <time>2021-03-31T08:36:55.000Z</time>
      </trkpt>
      <trkpt lat="47.96006" lon="7.03921">
        <ele>1262.7</ele>
        <time>2021-03-31T08:37:04.000Z</time>
      </trkpt>
      <trkpt lat="47.95997" lon="7.03927">
        <ele>1263.1</ele>
        <time>2021-03-31T08:37:17.000Z</time>
      </trkpt>
      <trkpt lat="47.95989" lon="7.03932">
        <ele>1264.2</ele>
        <time>2021-03-31T08:37:30.000Z</time>
      </trkpt>
      <trkpt lat="47.9598" lon="7.03936">
        <ele>1265.6</ele>
        <time>2021-03-31T08:37:46.000Z</time>
      </trkpt>
      <trkpt lat="47.95971" lon="7.03941">
        <ele>1266.9</ele>
        <time>2021-03-31T08:38:04.000Z</time>
      </trkpt>
      <trkpt lat="47.95963" lon="7.03947">
        <ele>1268.3</ele>
        <time>2021-03-31T08:38:25.000Z</time>
      </trkpt>
      <trkpt lat="47.95953" lon="7.03949">
        <ele>1270.3</ele>
        <time>2021-03-31T08:38:44.000Z</time>
      </trkpt>
      <trkpt lat="47.95945" lon="7.03954">
        <ele>1272</ele>
        <time>2021-03-31T08:38:58.000Z</time>
      </trkpt>
      <trkpt lat="47.95936" lon="7.03959">
        <ele>1273.7</ele>
        <time>2021-03-31T08:39:14.000Z</time>
      </trkpt>
      <trkpt lat="47.95927" lon="7.03964">
        <ele>1275.6</ele>
        <time>2021-03-31T08:39:28.000Z</time>
      </trkpt>
      <trkpt lat="47.95919" lon="7.03969">
        <ele>1277.6</ele>
        <time>2021-03-31T08:39:44.000Z</time>
      </trkpt>
      <trkpt lat="47.9591" lon="7.03968">
        <ele>1279.2</ele>
        <time>2021-03-31T08:39:59.000Z</time>
      </trkpt>
      <trkpt lat="47.959" lon="7.0397">
        <ele>1280.5</ele>
        <time>2021-03-31T08:40:13.000Z</time>
      </trkpt>
      <trkpt lat="47.95891" lon="7.03975">
        <ele>1281.7</ele>
        <time>2021-03-31T08:40:24.000Z</time>
      </trkpt>
      <trkpt lat="47.95883" lon="7.0398">
        <ele>1282.9</ele>
        <time>2021-03-31T08:40:37.000Z</time>
      </trkpt>
      <trkpt lat="47.95872" lon="7.03982">
        <ele>1284.6</ele>
        <time>2021-03-31T08:40:58.000Z</time>
      </trkpt>
      <trkpt lat="47.95863" lon="7.03982">
        <ele>1286</ele>
        <time>2021-03-31T08:41:14.000Z</time>
      </trkpt>
      <trkpt lat="47.95854" lon="7.03984">
        <ele>1287.4</ele>
        <time>2021-03-31T08:41:47.000Z</time>
      </trkpt>
      <trkpt lat="47.95845" lon="7.03983">
        <ele>1288.8</ele>
        <time>2021-03-31T08:42:00.000Z</time>
      </trkpt>
      <trkpt lat="47.95836" lon="7.03985">
        <ele>1290.3</ele>
        <time>2021-03-31T08:42:16.000Z</time>
      </trkpt>
      <trkpt lat="47.95827" lon="7.03985">
        <ele>1291</ele>
        <time>2021-03-31T08:42:31.000Z</time>
      </trkpt>
      <trkpt lat="47.95817" lon="7.03987">
        <ele>1291.5</ele>
        <time>2021-03-31T08:42:44.000Z</time>
      </trkpt>
      <trkpt lat="47.95808" lon="7.0399">
        <ele>1292</ele>
        <time>2021-03-31T08:42:56.000Z</time>
      </trkpt>
      <trkpt lat="47.95799" lon="7.03988">
        <ele>1292.4</ele>
        <time>2021-03-31T08:43:08.000Z</time>
      </trkpt>
      <trkpt lat="47.95789" lon="7.03987">
        <ele>1292.8</ele>
        <time>2021-03-31T08:43:17.000Z</time>
      </trkpt>
      <trkpt lat="47.95779" lon="7.03989">
        <ele>1293.3</ele>
        <time>2021-03-31T08:43:26.000Z</time>
      </trkpt>
      <trkpt lat="47.9577" lon="7.03989">
        <ele>1293.8</ele>
        <time>2021-03-31T08:43:34.000Z</time>
      </trkpt>
      <trkpt lat="47.95761" lon="7.03988">
        <ele>1294.2</ele>
        <time>2021-03-31T08:43:43.000Z</time>
      </trkpt>
      <trkpt lat="47.95752" lon="7.03981">
        <ele>1294.4</ele>
        <time>2021-03-31T08:43:51.000Z</time>
      </trkpt>
      <trkpt lat="47.95744" lon="7.03976">
        <ele>1294.9</ele>
        <time>2021-03-31T08:44:01.000Z</time>
      </trkpt>
      <trkpt lat="47.95734" lon="7.03973">
        <ele>1295.7</ele>
        <time>2021-03-31T08:44:12.000Z</time>
      </trkpt>
      <trkpt lat="47.95727" lon="7.03965">
        <ele>1296.2</ele>
        <time>2021-03-31T08:46:29.000Z</time>
      </trkpt>
      <trkpt lat="47.95718" lon="7.03964">
        <ele>1297.1</ele>
        <time>2021-03-31T08:46:39.000Z</time>
      </trkpt>
      <trkpt lat="47.95709" lon="7.03967">
        <ele>1297.9</ele>
        <time>2021-03-31T08:46:49.000Z</time>
      </trkpt>
      <trkpt lat="47.95699" lon="7.03965">
        <ele>1298.7</ele>
        <time>2021-03-31T08:47:03.000Z</time>
      </trkpt>
      <trkpt lat="47.9569" lon="7.03963">
        <ele>1299.6</ele>
        <time>2021-03-31T08:47:15.000Z</time>
      </trkpt>
      <trkpt lat="47.9568" lon="7.0396">
        <ele>1300.6</ele>
        <time>2021-03-31T08:47:27.000Z</time>
      </trkpt>
      <trkpt lat="47.95672" lon="7.03957">
        <ele>1301.6</ele>
        <time>2021-03-31T08:47:38.000Z</time>
      </trkpt>
      <trkpt lat="47.95663" lon="7.03954">
        <ele>1302.2</ele>
        <time>2021-03-31T08:47:52.000Z</time>
      </trkpt>
      <trkpt lat="47.95654" lon="7.03951">
        <ele>1302.3</ele>
        <time>2021-03-31T08:48:08.000Z</time>
      </trkpt>
      <trkpt lat="47.95644" lon="7.03949">
        <ele>1302.4</ele>
        <time>2021-03-31T08:48:24.000Z</time>
      </trkpt>
      <trkpt lat="47.95635" lon="7.03948">
        <ele>1302.3</ele>
        <time>2021-03-31T08:48:36.000Z</time>
      </trkpt>
      <trkpt lat="47.95626" lon="7.03949">
        <ele>1302.2</ele>
        <time>2021-03-31T08:48:46.000Z</time>
      </trkpt>
      <trkpt lat="47.95618" lon="7.03936">
        <ele>1302.9</ele>
        <time>2021-03-31T08:50:37.000Z</time>
      </trkpt>
      <trkpt lat="47.95609" lon="7.03939">
        <ele>1302.7</ele>
        <time>2021-03-31T08:50:48.000Z</time>
      </trkpt>
      <trkpt lat="47.956" lon="7.03935">
        <ele>1303</ele>
        <time>2021-03-31T08:50:57.000Z</time>
      </trkpt>
      <trkpt lat="47.95591" lon="7.03929">
        <ele>1303.3</ele>
        <time>2021-03-31T08:51:08.000Z</time>
      </trkpt>
      <trkpt lat="47.95585" lon="7.03918">
        <ele>1303.9</ele>
        <time>2021-03-31T08:51:17.000Z</time>
      </trkpt>
      <trkpt lat="47.95581" lon="7.03905">
        <ele>1303.3</ele>
        <time>2021-03-31T08:51:24.000Z</time>
      </trkpt>
      <trkpt lat="47.95574" lon="7.03898">
        <ele>1302</ele>
        <time>2021-03-31T08:51:35.000Z</time>
      </trkpt>
      <trkpt lat="47.95565" lon="7.03892">
        <ele>1300.7</ele>
        <time>2021-03-31T08:51:54.000Z</time>
      </trkpt>
      <trkpt lat="47.95557" lon="7.03885">
        <ele>1299.5</ele>
        <time>2021-03-31T08:52:03.000Z</time>
      </trkpt>
      <trkpt lat="47.95552" lon="7.03874">
        <ele>1298.9</ele>
        <time>2021-03-31T08:52:51.000Z</time>
      </trkpt>
      <trkpt lat="47.95545" lon="7.03864">
        <ele>1298.2</ele>
        <time>2021-03-31T08:52:58.000Z</time>
      </trkpt>
      <trkpt lat="47.95538" lon="7.03855">
        <ele>1297.5</ele>
        <time>2021-03-31T08:53:04.000Z</time>
      </trkpt>
      <trkpt lat="47.9553" lon="7.03846">
        <ele>1296.9</ele>
        <time>2021-03-31T08:53:12.000Z</time>
      </trkpt>
      <trkpt lat="47.95523" lon="7.03838">
        <ele>1296.5</ele>
        <time>2021-03-31T08:53:21.000Z</time>
      </trkpt>
      <trkpt lat="47.95514" lon="7.03829">
        <ele>1295.7</ele>
        <time>2021-03-31T08:53:28.000Z</time>
      </trkpt>
      <trkpt lat="47.95505" lon="7.03826">
        <ele>1294.8</ele>
        <time>2021-03-31T08:53:44.000Z</time>
      </trkpt>
      <trkpt lat="47.95496" lon="7.03821">
        <ele>1293.5</ele>
        <time>2021-03-31T08:53:52.000Z</time>
      </trkpt>
      <trkpt lat="47.95487" lon="7.03815">
        <ele>1291.7</ele>
        <time>2021-03-31T08:54:00.000Z</time>
      </trkpt>
      <trkpt lat="47.95478" lon="7.03808">
        <ele>1290</ele>
        <time>2021-03-31T08:54:08.000Z</time>
      </trkpt>
      <trkpt lat="47.95469" lon="7.03806">
        <ele>1288.5</ele>
        <time>2021-03-31T08:54:15.000Z</time>
      </trkpt>
      <trkpt lat="47.95459" lon="7.03803">
        <ele>1286.9</ele>
        <time>2021-03-31T08:54:23.000Z</time>
      </trkpt>
      <trkpt lat="47.9545" lon="7.03802">
        <ele>1285.6</ele>
        <time>2021-03-31T08:54:31.000Z</time>
      </trkpt>
      <trkpt lat="47.9544" lon="7.03799">
        <ele>1284</ele>
        <time>2021-03-31T08:54:54.000Z</time>
      </trkpt>
      <trkpt lat="47.95431" lon="7.03803">
        <ele>1282.9</ele>
        <time>2021-03-31T08:55:01.000Z</time>
      </trkpt>
      <trkpt lat="47.95422" lon="7.03806">
        <ele>1281.8</ele>
        <time>2021-03-31T08:55:09.000Z</time>
      </trkpt>
      <trkpt lat="47.95413" lon="7.03811">
        <ele>1280.8</ele>
        <time>2021-03-31T08:55:24.000Z</time>
      </trkpt>
      <trkpt lat="47.95403" lon="7.03813">
        <ele>1279.9</ele>
        <time>2021-03-31T08:55:32.000Z</time>
      </trkpt>
      <trkpt lat="47.95395" lon="7.03807">
        <ele>1279</ele>
        <time>2021-03-31T08:56:00.000Z</time>
      </trkpt>
      <trkpt lat="47.95387" lon="7.03799">
        <ele>1278</ele>
        <time>2021-03-31T08:56:13.000Z</time>
      </trkpt>
      <trkpt lat="47.95383" lon="7.03786">
        <ele>1277.1</ele>
        <time>2021-03-31T08:56:20.000Z</time>
      </trkpt>
      <trkpt lat="47.95377" lon="7.03774">
        <ele>1276.1</ele>
        <time>2021-03-31T08:56:28.000Z</time>
      </trkpt>
      <trkpt lat="47.95371" lon="7.03765">
        <ele>1275.1</ele>
        <time>2021-03-31T08:56:37.000Z</time>
      </trkpt>
      <trkpt lat="47.95363" lon="7.03756">
        <ele>1274.1</ele>
        <time>2021-03-31T08:56:45.000Z</time>
      </trkpt>
      <trkpt lat="47.95355" lon="7.03747">
        <ele>1272.9</ele>
        <time>2021-03-31T08:56:54.000Z</time>
      </trkpt>
      <trkpt lat="47.95346" lon="7.03744">
        <ele>1271.9</ele>
        <time>2021-03-31T08:57:16.000Z</time>
      </trkpt>
      <trkpt lat="47.95336" lon="7.03739">
        <ele>1270.8</ele>
        <time>2021-03-31T08:58:47.000Z</time>
      </trkpt>
      <trkpt lat="47.95327" lon="7.03731">
        <ele>1270.1</ele>
        <time>2021-03-31T08:58:55.000Z</time>
      </trkpt>
      <trkpt lat="47.95319" lon="7.03723">
        <ele>1269.4</ele>
        <time>2021-03-31T08:59:03.000Z</time>
      </trkpt>
      <trkpt lat="47.95312" lon="7.03713">
        <ele>1268.7</ele>
        <time>2021-03-31T08:59:11.000Z</time>
      </trkpt>
      <trkpt lat="47.95305" lon="7.03702">
        <ele>1267.9</ele>
        <time>2021-03-31T08:59:20.000Z</time>
      </trkpt>
      <trkpt lat="47.95299" lon="7.03692">
        <ele>1267.1</ele>
        <time>2021-03-31T08:59:28.000Z</time>
      </trkpt>
      <trkpt lat="47.95292" lon="7.03683">
        <ele>1266.3</ele>
        <time>2021-03-31T08:59:36.000Z</time>
      </trkpt>
      <trkpt lat="47.95287" lon="7.03672">
        <ele>1265.5</ele>
        <time>2021-03-31T08:59:44.000Z</time>
      </trkpt>
      <trkpt lat="47.95281" lon="7.03661">
        <ele>1264.3</ele>
        <time>2021-03-31T08:59:52.000Z</time>
      </trkpt>
      <trkpt lat="47.95275" lon="7.0365">
        <ele>1263.1</ele>
        <time>2021-03-31T09:00:00.000Z</time>
      </trkpt>
      <trkpt lat="47.95269" lon="7.0364">
        <ele>1261.9</ele>
        <time>2021-03-31T09:00:08.000Z</time>
      </trkpt>
      <trkpt lat="47.95262" lon="7.0363">
        <ele>1260.6</ele>
        <time>2021-03-31T09:00:18.000Z</time>
      </trkpt>
      <trkpt lat="47.95256" lon="7.03619">
        <ele>1259.3</ele>
        <time>2021-03-31T09:00:26.000Z</time>
      </trkpt>
      <trkpt lat="47.95251" lon="7.03606">
        <ele>1257.9</ele>
        <time>2021-03-31T09:00:34.000Z</time>
      </trkpt>
      <trkpt lat="47.95246" lon="7.03593">
        <ele>1256.7</ele>
        <time>2021-03-31T09:00:42.000Z</time>
      </trkpt>
      <trkpt lat="47.9524" lon="7.03581">
        <ele>1255.7</ele>
        <time>2021-03-31T09:00:53.000Z</time>
      </trkpt>
      <trkpt lat="47.95238" lon="7.03568">
        <ele>1254.9</ele>
        <time>2021-03-31T09:01:03.000Z</time>
      </trkpt>
      <trkpt lat="47.95233" lon="7.03555">
        <ele>1254.2</ele>
        <time>2021-03-31T09:01:12.000Z</time>
      </trkpt>
      <trkpt lat="47.95228" lon="7.03543">
        <ele>1253.4</ele>
        <time>2021-03-31T09:01:21.000Z</time>
      </trkpt>
      <trkpt lat="47.95224" lon="7.03531">
        <ele>1252.6</ele>
        <time>2021-03-31T09:01:28.000Z</time>
      </trkpt>
      <trkpt lat="47.95218" lon="7.0352">
        <ele>1251.9</ele>
        <time>2021-03-31T09:01:37.000Z</time>
      </trkpt>
      <trkpt lat="47.95213" lon="7.03507">
        <ele>1251</ele>
        <time>2021-03-31T09:01:46.000Z</time>
      </trkpt>
      <trkpt lat="47.95209" lon="7.03494">
        <ele>1250.2</ele>
        <time>2021-03-31T09:01:56.000Z</time>
      </trkpt>
      <trkpt lat="47.95206" lon="7.03481">
        <ele>1249.5</ele>
        <time>2021-03-31T09:02:05.000Z</time>
      </trkpt>
      <trkpt lat="47.952" lon="7.03469">
        <ele>1248.9</ele>
        <time>2021-03-31T09:02:15.000Z</time>
      </trkpt>
      <trkpt lat="47.95195" lon="7.03458">
        <ele>1248.3</ele>
        <time>2021-03-31T09:02:30.000Z</time>
      </trkpt>
      <trkpt lat="47.95188" lon="7.03448">
        <ele>1247.9</ele>
        <time>2021-03-31T09:02:39.000Z</time>
      </trkpt>
      <trkpt lat="47.95181" lon="7.03439">
        <ele>1247.5</ele>
        <time>2021-03-31T09:02:59.000Z</time>
      </trkpt>
      <trkpt lat="47.95174" lon="7.03448">
        <ele>1247.8</ele>
        <time>2021-03-31T09:03:40.000Z</time>
      </trkpt>
      <trkpt lat="47.95168" lon="7.03459">
        <ele>1248</ele>
        <time>2021-03-31T09:03:49.000Z</time>
      </trkpt>
      <trkpt lat="47.95169" lon="7.03473">
        <ele>1248.4</ele>
        <time>2021-03-31T09:04:04.000Z</time>
      </trkpt>
      <trkpt lat="47.95162" lon="7.03486">
        <ele>1247.8</ele>
        <time>2021-03-31T09:05:50.000Z</time>
      </trkpt>
      <trkpt lat="47.9516" lon="7.035">
        <ele>1247.8</ele>
        <time>2021-03-31T09:05:59.000Z</time>
      </trkpt>
      <trkpt lat="47.95158" lon="7.03514">
        <ele>1248.3</ele>
        <time>2021-03-31T09:06:08.000Z</time>
      </trkpt>
      <trkpt lat="47.95155" lon="7.03527">
        <ele>1248.4</ele>
        <time>2021-03-31T09:06:18.000Z</time>
      </trkpt>
      <trkpt lat="47.95152" lon="7.0354">
        <ele>1248.6</ele>
        <time>2021-03-31T09:06:27.000Z</time>
      </trkpt>
      <trkpt lat="47.95149" lon="7.03553">
        <ele>1248.8</ele>
        <time>2021-03-31T09:06:39.000Z</time>
      </trkpt>
      <trkpt lat="47.95143" lon="7.03564">
        <ele>1248.3</ele>
        <time>2021-03-31T09:06:48.000Z</time>
      </trkpt>
      <trkpt lat="47.95138" lon="7.03575">
        <ele>1247.9</ele>
        <time>2021-03-31T09:06:58.000Z</time>
      </trkpt>
      <trkpt lat="47.95132" lon="7.03586">
        <ele>1247.5</ele>
        <time>2021-03-31T09:07:08.000Z</time>
      </trkpt>
      <trkpt lat="47.95127" lon="7.03597">
        <ele>1246.8</ele>
        <time>2021-03-31T09:07:17.000Z</time>
      </trkpt>
      <trkpt lat="47.95121" lon="7.0361">
        <ele>1246.2</ele>
        <time>2021-03-31T09:07:26.000Z</time>
      </trkpt>
      <trkpt lat="47.95117" lon="7.03621">
        <ele>1245.9</ele>
        <time>2021-03-31T09:07:33.000Z</time>
      </trkpt>
      <trkpt lat="47.95112" lon="7.03635">
        <ele>1245.6</ele>
        <time>2021-03-31T09:07:42.000Z</time>
      </trkpt>
      <trkpt lat="47.95107" lon="7.03646">
        <ele>1245.1</ele>
        <time>2021-03-31T09:07:51.000Z</time>
      </trkpt>
      <trkpt lat="47.95102" lon="7.03658">
        <ele>1244.7</ele>
        <time>2021-03-31T09:08:00.000Z</time>
      </trkpt>
      <trkpt lat="47.95096" lon="7.0367">
        <ele>1244.4</ele>
        <time>2021-03-31T09:08:09.000Z</time>
      </trkpt>
      <trkpt lat="47.9509" lon="7.03681">
        <ele>1244.4</ele>
        <time>2021-03-31T09:08:18.000Z</time>
      </trkpt>
      <trkpt lat="47.95084" lon="7.03692">
        <ele>1244.5</ele>
        <time>2021-03-31T09:08:26.000Z</time>
      </trkpt>
      <trkpt lat="47.95078" lon="7.03703">
        <ele>1244.8</ele>
        <time>2021-03-31T09:08:35.000Z</time>
      </trkpt>
      <trkpt lat="47.95073" lon="7.03716">
        <ele>1245.1</ele>
        <time>2021-03-31T09:08:44.000Z</time>
      </trkpt>
      <trkpt lat="47.95068" lon="7.03728">
        <ele>1245.7</ele>
        <time>2021-03-31T09:08:53.000Z</time>
      </trkpt>
      <trkpt lat="47.95063" lon="7.0374">
        <ele>1246.1</ele>
        <time>2021-03-31T09:09:04.000Z</time>
      </trkpt>
      <trkpt lat="47.95056" lon="7.03751">
        <ele>1246.2</ele>
        <time>2021-03-31T09:09:14.000Z</time>
      </trkpt>
      <trkpt lat="47.95052" lon="7.03763">
        <ele>1246.1</ele>
        <time>2021-03-31T09:09:25.000Z</time>
      </trkpt>
      <trkpt lat="47.95046" lon="7.03775">
        <ele>1245.9</ele>
        <time>2021-03-31T09:09:33.000Z</time>
      </trkpt>
      <trkpt lat="47.95041" lon="7.03787">
        <ele>1245.8</ele>
        <time>2021-03-31T09:09:42.000Z</time>
      </trkpt>
      <trkpt lat="47.95034" lon="7.03797">
        <ele>1245.5</ele>
        <time>2021-03-31T09:09:53.000Z</time>
      </trkpt>
      <trkpt lat="47.95028" lon="7.03809">
        <ele>1245.4</ele>
        <time>2021-03-31T09:10:04.000Z</time>
      </trkpt>
      <trkpt lat="47.95023" lon="7.03821">
        <ele>1245.3</ele>
        <time>2021-03-31T09:10:13.000Z</time>
      </trkpt>
      <trkpt lat="47.95018" lon="7.03833">
        <ele>1245.3</ele>
        <time>2021-03-31T09:10:24.000Z</time>
      </trkpt>
      <trkpt lat="47.95011" lon="7.03844">
        <ele>1245</ele>
        <time>2021-03-31T09:10:33.000Z</time>
      </trkpt>
      <trkpt lat="47.95004" lon="7.03855">
        <ele>1244.6</ele>
        <time>2021-03-31T09:10:41.000Z</time>
      </trkpt>
      <trkpt lat="47.94998" lon="7.03865">
        <ele>1244.2</ele>
        <time>2021-03-31T09:10:49.000Z</time>
      </trkpt>
      <trkpt lat="47.94992" lon="7.03876">
        <ele>1243.7</ele>
        <time>2021-03-31T09:10:58.000Z</time>
      </trkpt>
      <trkpt lat="47.94987" lon="7.03889">
        <ele>1243.4</ele>
        <time>2021-03-31T09:11:07.000Z</time>
      </trkpt>
      <trkpt lat="47.94981" lon="7.039">
        <ele>1242.9</ele>
        <time>2021-03-31T09:11:17.000Z</time>
      </trkpt>
      <trkpt lat="47.94974" lon="7.03911">
        <ele>1242.1</ele>
        <time>2021-03-31T09:11:25.000Z</time>
      </trkpt>
      <trkpt lat="47.9497" lon="7.03923">
        <ele>1241.5</ele>
        <time>2021-03-31T09:11:35.000Z</time>
      </trkpt>
      <trkpt lat="47.94964" lon="7.03934">
        <ele>1240.4</ele>
        <time>2021-03-31T09:11:44.000Z</time>
      </trkpt>
      <trkpt lat="47.9496" lon="7.03946">
        <ele>1239.6</ele>
        <time>2021-03-31T09:11:52.000Z</time>
      </trkpt>
      <trkpt lat="47.94954" lon="7.03958">
        <ele>1238.5</ele>
        <time>2021-03-31T09:12:01.000Z</time>
      </trkpt>
      <trkpt lat="47.94947" lon="7.03969">
        <ele>1237.3</ele>
        <time>2021-03-31T09:12:10.000Z</time>
      </trkpt>
      <trkpt lat="47.9494" lon="7.03979">
        <ele>1236</ele>
        <time>2021-03-31T09:12:22.000Z</time>
      </trkpt>
      <trkpt lat="47.94935" lon="7.03991">
        <ele>1235.1</ele>
        <time>2021-03-31T09:12:31.000Z</time>
      </trkpt>
      <trkpt lat="47.94931" lon="7.04004">
        <ele>1234.4</ele>
        <time>2021-03-31T09:12:39.000Z</time>
      </trkpt>
      <trkpt lat="47.94926" lon="7.04016">
        <ele>1233.9</ele>
        <time>2021-03-31T09:12:50.000Z</time>
      </trkpt>
      <trkpt lat="47.94922" lon="7.04028">
        <ele>1233.5</ele>
        <time>2021-03-31T09:12:59.000Z</time>
      </trkpt>
      <trkpt lat="47.9492" lon="7.04041">
        <ele>1233.4</ele>
        <time>2021-03-31T09:13:08.000Z</time>
      </trkpt>
      <trkpt lat="47.94916" lon="7.04055">
        <ele>1233.2</ele>
        <time>2021-03-31T09:13:18.000Z</time>
      </trkpt>
      <trkpt lat="47.94913" lon="7.04069">
        <ele>1232.9</ele>
        <time>2021-03-31T09:13:26.000Z</time>
      </trkpt>
      <trkpt lat="47.94911" lon="7.04082">
        <ele>1232.7</ele>
        <time>2021-03-31T09:13:34.000Z</time>
      </trkpt>
      <trkpt lat="47.94907" lon="7.04096">
        <ele>1231.5</ele>
        <time>2021-03-31T09:13:42.000Z</time>
      </trkpt>
      <trkpt lat="47.94903" lon="7.04109">
        <ele>1230.2</ele>
        <time>2021-03-31T09:13:51.000Z</time>
      </trkpt>
      <trkpt lat="47.94899" lon="7.04123">
        <ele>1228.9</ele>
        <time>2021-03-31T09:14:00.000Z</time>
      </trkpt>
      <trkpt lat="47.94895" lon="7.04136">
        <ele>1227.7</ele>
        <time>2021-03-31T09:14:09.000Z</time>
      </trkpt>
      <trkpt lat="47.94893" lon="7.04149">
        <ele>1226.9</ele>
        <time>2021-03-31T09:14:19.000Z</time>
      </trkpt>
      <trkpt lat="47.94891" lon="7.04163">
        <ele>1226.1</ele>
        <time>2021-03-31T09:14:27.000Z</time>
      </trkpt>
      <trkpt lat="47.94888" lon="7.04177">
        <ele>1225.1</ele>
        <time>2021-03-31T09:14:35.000Z</time>
      </trkpt>
      <trkpt lat="47.94886" lon="7.04191">
        <ele>1224</ele>
        <time>2021-03-31T09:14:44.000Z</time>
      </trkpt>
      <trkpt lat="47.94883" lon="7.04204">
        <ele>1223.1</ele>
        <time>2021-03-31T09:14:52.000Z</time>
      </trkpt>
      <trkpt lat="47.94879" lon="7.04217">
        <ele>1222.1</ele>
        <time>2021-03-31T09:15:01.000Z</time>
      </trkpt>
      <trkpt lat="47.94875" lon="7.04231">
        <ele>1221.2</ele>
        <time>2021-03-31T09:15:10.000Z</time>
      </trkpt>
      <trkpt lat="47.94873" lon="7.04245">
        <ele>1220.5</ele>
        <time>2021-03-31T09:15:20.000Z</time>
      </trkpt>
      <trkpt lat="47.94868" lon="7.04258">
        <ele>1219.4</ele>
        <time>2021-03-31T09:15:28.000Z</time>
      </trkpt>
      <trkpt lat="47.94865" lon="7.04271">
        <ele>1218.3</ele>
        <time>2021-03-31T09:15:36.000Z</time>
      </trkpt>
      <trkpt lat="47.94861" lon="7.04284">
        <ele>1217.3</ele>
        <time>2021-03-31T09:15:44.000Z</time>
      </trkpt>
      <trkpt lat="47.94859" lon="7.04298">
        <ele>1216.6</ele>
        <time>2021-03-31T09:15:51.000Z</time>
      </trkpt>
      <trkpt lat="47.94856" lon="7.04312">
        <ele>1215.9</ele>
        <time>2021-03-31T09:16:00.000Z</time>
      </trkpt>
      <trkpt lat="47.94852" lon="7.04325">
        <ele>1215.7</ele>
        <time>2021-03-31T09:16:09.000Z</time>
      </trkpt>
      <trkpt lat="47.94847" lon="7.04337">
        <ele>1215.7</ele>
        <time>2021-03-31T09:16:17.000Z</time>
      </trkpt>
      <trkpt lat="47.94845" lon="7.0435">
        <ele>1214.9</ele>
        <time>2021-03-31T09:16:25.000Z</time>
      </trkpt>
      <trkpt lat="47.94843" lon="7.04364">
        <ele>1214.3</ele>
        <time>2021-03-31T09:16:34.000Z</time>
      </trkpt>
      <trkpt lat="47.94839" lon="7.04377">
        <ele>1214.1</ele>
        <time>2021-03-31T09:16:42.000Z</time>
      </trkpt>
      <trkpt lat="47.94835" lon="7.0439">
        <ele>1214.1</ele>
        <time>2021-03-31T09:16:49.000Z</time>
      </trkpt>
      <trkpt lat="47.94831" lon="7.04403">
        <ele>1213.4</ele>
        <time>2021-03-31T09:16:57.000Z</time>
      </trkpt>
      <trkpt lat="47.94828" lon="7.04415">
        <ele>1212.2</ele>
        <time>2021-03-31T09:17:05.000Z</time>
      </trkpt>
      <trkpt lat="47.94825" lon="7.04429">
        <ele>1210.9</ele>
        <time>2021-03-31T09:17:12.000Z</time>
      </trkpt>
      <trkpt lat="47.94821" lon="7.04442">
        <ele>1209.5</ele>
        <time>2021-03-31T09:17:20.000Z</time>
      </trkpt>
      <trkpt lat="47.94818" lon="7.04455">
        <ele>1208.4</ele>
        <time>2021-03-31T09:17:27.000Z</time>
      </trkpt>
      <trkpt lat="47.94814" lon="7.04468">
        <ele>1207.1</ele>
        <time>2021-03-31T09:17:34.000Z</time>
      </trkpt>
      <trkpt lat="47.94808" lon="7.04479">
        <ele>1205.9</ele>
        <time>2021-03-31T09:17:41.000Z</time>
      </trkpt>
      <trkpt lat="47.94801" lon="7.04488">
        <ele>1204.8</ele>
        <time>2021-03-31T09:17:49.000Z</time>
      </trkpt>
      <trkpt lat="47.94794" lon="7.045">
        <ele>1203.7</ele>
        <time>2021-03-31T09:18:01.000Z</time>
      </trkpt>
      <trkpt lat="47.94787" lon="7.04511">
        <ele>1203.3</ele>
        <time>2021-03-31T09:18:08.000Z</time>
      </trkpt>
      <trkpt lat="47.9478" lon="7.04519">
        <ele>1203</ele>
        <time>2021-03-31T09:18:14.000Z</time>
      </trkpt>
      <trkpt lat="47.94778" lon="7.04533">
        <ele>1203.2</ele>
        <time>2021-03-31T09:19:10.000Z</time>
      </trkpt>
      <trkpt lat="47.9477" lon="7.04542">
        <ele>1203.2</ele>
        <time>2021-03-31T09:19:19.000Z</time>
      </trkpt>
      <trkpt lat="47.94762" lon="7.0455">
        <ele>1203.3</ele>
        <time>2021-03-31T09:19:34.000Z</time>
      </trkpt>
      <trkpt lat="47.94753" lon="7.04556">
        <ele>1203.4</ele>
        <time>2021-03-31T09:19:43.000Z</time>
      </trkpt>
      <trkpt lat="47.94745" lon="7.04548">
        <ele>1202</ele>
        <time>2021-03-31T09:19:51.000Z</time>
      </trkpt>
      <trkpt lat="47.94737" lon="7.04543">
        <ele>1200.1</ele>
        <time>2021-03-31T09:19:59.000Z</time>
      </trkpt>
      <trkpt lat="47.94726" lon="7.0454">
        <ele>1197.8</ele>
        <time>2021-03-31T09:20:04.000Z</time>
      </trkpt>
      <trkpt lat="47.94716" lon="7.04539">
        <ele>1195.8</ele>
        <time>2021-03-31T09:20:22.000Z</time>
      </trkpt>
      <trkpt lat="47.94707" lon="7.04534">
        <ele>1193.8</ele>
        <time>2021-03-31T09:20:32.000Z</time>
      </trkpt>
      <trkpt lat="47.94698" lon="7.04527">
        <ele>1191.3</ele>
        <time>2021-03-31T09:20:41.000Z</time>
      </trkpt>
      <trkpt lat="47.94689" lon="7.04521">
        <ele>1189</ele>
        <time>2021-03-31T09:20:49.000Z</time>
      </trkpt>
      <trkpt lat="47.9468" lon="7.04516">
        <ele>1186.7</ele>
        <time>2021-03-31T09:20:57.000Z</time>
      </trkpt>
      <trkpt lat="47.94673" lon="7.04508">
        <ele>1184.1</ele>
        <time>2021-03-31T09:21:05.000Z</time>
      </trkpt>
      <trkpt lat="47.94667" lon="7.04497">
        <ele>1182</ele>
        <time>2021-03-31T09:21:50.000Z</time>
      </trkpt>
      <trkpt lat="47.9466" lon="7.04487">
        <ele>1180.3</ele>
        <time>2021-03-31T09:21:58.000Z</time>
      </trkpt>
      <trkpt lat="47.94653" lon="7.04477">
        <ele>1178.5</ele>
        <time>2021-03-31T09:22:07.000Z</time>
      </trkpt>
      <trkpt lat="47.94647" lon="7.04467">
        <ele>1176.7</ele>
        <time>2021-03-31T09:22:16.000Z</time>
      </trkpt>
      <trkpt lat="47.94637" lon="7.04465">
        <ele>1174.8</ele>
        <time>2021-03-31T09:22:25.000Z</time>
      </trkpt>
      <trkpt lat="47.94628" lon="7.04463">
        <ele>1172.7</ele>
        <time>2021-03-31T09:22:35.000Z</time>
      </trkpt>
      <trkpt lat="47.94619" lon="7.04463">
        <ele>1170.9</ele>
        <time>2021-03-31T09:22:44.000Z</time>
      </trkpt>
      <trkpt lat="47.94609" lon="7.0446">
        <ele>1168.8</ele>
        <time>2021-03-31T09:22:52.000Z</time>
      </trkpt>
      <trkpt lat="47.946" lon="7.04455">
        <ele>1166.7</ele>
        <time>2021-03-31T09:23:00.000Z</time>
      </trkpt>
      <trkpt lat="47.9459" lon="7.04455">
        <ele>1164.7</ele>
        <time>2021-03-31T09:23:10.000Z</time>
      </trkpt>
      <trkpt lat="47.94581" lon="7.0446">
        <ele>1163.1</ele>
        <time>2021-03-31T09:23:19.000Z</time>
      </trkpt>
      <trkpt lat="47.94574" lon="7.04469">
        <ele>1162.1</ele>
        <time>2021-03-31T09:23:27.000Z</time>
      </trkpt>
      <trkpt lat="47.94564" lon="7.04469">
        <ele>1159.9</ele>
        <time>2021-03-31T09:23:42.000Z</time>
      </trkpt>
      <trkpt lat="47.94555" lon="7.04465">
        <ele>1157.7</ele>
        <time>2021-03-31T09:23:50.000Z</time>
      </trkpt>
      <trkpt lat="47.94546" lon="7.0446">
        <ele>1155.4</ele>
        <time>2021-03-31T09:23:58.000Z</time>
      </trkpt>
      <trkpt lat="47.94538" lon="7.04453">
        <ele>1152.9</ele>
        <time>2021-03-31T09:24:07.000Z</time>
      </trkpt>
      <trkpt lat="47.9453" lon="7.04446">
        <ele>1150.5</ele>
        <time>2021-03-31T09:24:14.000Z</time>
      </trkpt>
      <trkpt lat="47.94522" lon="7.04437">
        <ele>1148</ele>
        <time>2021-03-31T09:24:21.000Z</time>
      </trkpt>
      <trkpt lat="47.94515" lon="7.04427">
        <ele>1145.6</ele>
        <time>2021-03-31T09:24:29.000Z</time>
      </trkpt>
      <trkpt lat="47.94508" lon="7.04418">
        <ele>1143.1</ele>
        <time>2021-03-31T09:24:37.000Z</time>
      </trkpt>
      <trkpt lat="47.945" lon="7.0441">
        <ele>1140.7</ele>
        <time>2021-03-31T09:24:45.000Z</time>
      </trkpt>
      <trkpt lat="47.94492" lon="7.04403">
        <ele>1138.9</ele>
        <time>2021-03-31T09:24:56.000Z</time>
      </trkpt>
      <trkpt lat="47.94484" lon="7.04396">
        <ele>1137</ele>
        <time>2021-03-31T09:25:03.000Z</time>
      </trkpt>
      <trkpt lat="47.94475" lon="7.04393">
        <ele>1135.3</ele>
        <time>2021-03-31T09:25:10.000Z</time>
      </trkpt>
      <trkpt lat="47.94466" lon="7.04389">
        <ele>1133.5</ele>
        <time>2021-03-31T09:25:19.000Z</time>
      </trkpt>
      <trkpt lat="47.94457" lon="7.04389">
        <ele>1131.9</ele>
        <time>2021-03-31T09:25:26.000Z</time>
      </trkpt>
      <trkpt lat="47.94448" lon="7.04382">
        <ele>1129.9</ele>
        <time>2021-03-31T09:25:34.000Z</time>
      </trkpt>
      <trkpt lat="47.94439" lon="7.04378">
        <ele>1128.1</ele>
        <time>2021-03-31T09:25:44.000Z</time>
      </trkpt>
      <trkpt lat="47.9443" lon="7.04372">
        <ele>1126.2</ele>
        <time>2021-03-31T09:25:52.000Z</time>
      </trkpt>
      <trkpt lat="47.94422" lon="7.04365">
        <ele>1124.4</ele>
        <time>2021-03-31T09:26:01.000Z</time>
      </trkpt>
      <trkpt lat="47.94413" lon="7.0436">
        <ele>1122.6</ele>
        <time>2021-03-31T09:26:08.000Z</time>
      </trkpt>
      <trkpt lat="47.94404" lon="7.04356">
        <ele>1121</ele>
        <time>2021-03-31T09:26:15.000Z</time>
      </trkpt>
      <trkpt lat="47.94395" lon="7.04352">
        <ele>1119.3</ele>
        <time>2021-03-31T09:26:23.000Z</time>
      </trkpt>
      <trkpt lat="47.94385" lon="7.04346">
        <ele>1117.4</ele>
        <time>2021-03-31T09:26:31.000Z</time>
      </trkpt>
      <trkpt lat="47.94376" lon="7.04341">
        <ele>1115.6</ele>
        <time>2021-03-31T09:26:39.000Z</time>
      </trkpt>
      <trkpt lat="47.94367" lon="7.04334">
        <ele>1113.8</ele>
        <time>2021-03-31T09:26:46.000Z</time>
      </trkpt>
      <trkpt lat="47.94359" lon="7.04328">
        <ele>1112.1</ele>
        <time>2021-03-31T09:26:53.000Z</time>
      </trkpt>
      <trkpt lat="47.94349" lon="7.04325">
        <ele>1110.5</ele>
        <time>2021-03-31T09:27:00.000Z</time>
      </trkpt>
      <trkpt lat="47.94343" lon="7.04314">
        <ele>1109.4</ele>
        <time>2021-03-31T09:27:11.000Z</time>
      </trkpt>
      <trkpt lat="47.94346" lon="7.043">
        <ele>1109.6</ele>
        <time>2021-03-31T09:27:18.000Z</time>
      </trkpt>
      <trkpt lat="47.94352" lon="7.04289">
        <ele>1110.3</ele>
        <time>2021-03-31T09:27:31.000Z</time>
      </trkpt>
      <trkpt lat="47.94357" lon="7.04278">
        <ele>1111</ele>
        <time>2021-03-31T09:27:39.000Z</time>
      </trkpt>
      <trkpt lat="47.94363" lon="7.04267">
        <ele>1111.5</ele>
        <time>2021-03-31T09:27:47.000Z</time>
      </trkpt>
      <trkpt lat="47.94369" lon="7.04255">
        <ele>1112.2</ele>
        <time>2021-03-31T09:27:56.000Z</time>
      </trkpt>
      <trkpt lat="47.94375" lon="7.04244">
        <ele>1112.9</ele>
        <time>2021-03-31T09:28:05.000Z</time>
      </trkpt>
      <trkpt lat="47.94381" lon="7.04232">
        <ele>1113.4</ele>
        <time>2021-03-31T09:28:13.000Z</time>
      </trkpt>
      <trkpt lat="47.94385" lon="7.04218">
        <ele>1113.6</ele>
        <time>2021-03-31T09:28:21.000Z</time>
      </trkpt>
      <trkpt lat="47.94389" lon="7.04204">
        <ele>1113.9</ele>
        <time>2021-03-31T09:28:30.000Z</time>
      </trkpt>
      <trkpt lat="47.94395" lon="7.04193">
        <ele>1114.4</ele>
        <time>2021-03-31T09:28:38.000Z</time>
      </trkpt>
      <trkpt lat="47.94401" lon="7.04182">
        <ele>1115</ele>
        <time>2021-03-31T09:28:46.000Z</time>
      </trkpt>
      <trkpt lat="47.94406" lon="7.04171">
        <ele>1115.5</ele>
        <time>2021-03-31T09:28:54.000Z</time>
      </trkpt>
      <trkpt lat="47.94412" lon="7.04159">
        <ele>1116.2</ele>
        <time>2021-03-31T09:29:02.000Z</time>
      </trkpt>
      <trkpt lat="47.94414" lon="7.04145">
        <ele>1116.4</ele>
        <time>2021-03-31T09:29:10.000Z</time>
      </trkpt>
      <trkpt lat="47.94417" lon="7.04131">
        <ele>1116.7</ele>
        <time>2021-03-31T09:29:17.000Z</time>
      </trkpt>
      <trkpt lat="47.9442" lon="7.04117">
        <ele>1116.9</ele>
        <time>2021-03-31T09:29:25.000Z</time>
      </trkpt>
      <trkpt lat="47.9442" lon="7.04103">
        <ele>1116.9</ele>
        <time>2021-03-31T09:29:33.000Z</time>
      </trkpt>
      <trkpt lat="47.94424" lon="7.0409">
        <ele>1117.4</ele>
        <time>2021-03-31T09:29:41.000Z</time>
      </trkpt>
      <trkpt lat="47.94427" lon="7.04076">
        <ele>1117.7</ele>
        <time>2021-03-31T09:29:48.000Z</time>
      </trkpt>
      <trkpt lat="47.94429" lon="7.04063">
        <ele>1117.8</ele>
        <time>2021-03-31T09:29:55.000Z</time>
      </trkpt>
      <trkpt lat="47.94431" lon="7.0405">
        <ele>1118</ele>
        <time>2021-03-31T09:30:02.000Z</time>
      </trkpt>
      <trkpt lat="47.94433" lon="7.04035">
        <ele>1118.2</ele>
        <time>2021-03-31T09:30:10.000Z</time>
      </trkpt>
      <trkpt lat="47.94434" lon="7.04021">
        <ele>1118.4</ele>
        <time>2021-03-31T09:30:18.000Z</time>
      </trkpt>
      <trkpt lat="47.94438" lon="7.04007">
        <ele>1119.1</ele>
        <time>2021-03-31T09:30:26.000Z</time>
      </trkpt>
      <trkpt lat="47.94441" lon="7.03994">
        <ele>1119.8</ele>
        <time>2021-03-31T09:30:33.000Z</time>
      </trkpt>
      <trkpt lat="47.94442" lon="7.03979">
        <ele>1120.2</ele>
        <time>2021-03-31T09:30:41.000Z</time>
      </trkpt>
      <trkpt lat="47.94447" lon="7.03965">
        <ele>1121.5</ele>
        <time>2021-03-31T09:30:49.000Z</time>
      </trkpt>
      <trkpt lat="47.94451" lon="7.03952">
        <ele>1122.6</ele>
        <time>2021-03-31T09:30:57.000Z</time>
      </trkpt>
      <trkpt lat="47.94455" lon="7.03939">
        <ele>1123.6</ele>
        <time>2021-03-31T09:31:04.000Z</time>
      </trkpt>
      <trkpt lat="47.94462" lon="7.03928">
        <ele>1125.3</ele>
        <time>2021-03-31T09:31:12.000Z</time>
      </trkpt>
      <trkpt lat="47.94468" lon="7.03919">
        <ele>1126.8</ele>
        <time>2021-03-31T09:31:20.000Z</time>
      </trkpt>
      <trkpt lat="47.94473" lon="7.03906">
        <ele>1128.4</ele>
        <time>2021-03-31T09:31:27.000Z</time>
      </trkpt>
      <trkpt lat="47.94474" lon="7.03892">
        <ele>1129.7</ele>
        <time>2021-03-31T09:31:34.000Z</time>
      </trkpt>
      <trkpt lat="47.94472" lon="7.03878">
        <ele>1130.2</ele>
        <time>2021-03-31T09:31:43.000Z</time>
      </trkpt>
      <trkpt lat="47.94474" lon="7.03865">
        <ele>1131.4</ele>
        <time>2021-03-31T09:31:53.000Z</time>
      </trkpt>
      <trkpt lat="47.94469" lon="7.03852">
        <ele>1131.2</ele>
        <time>2021-03-31T09:32:10.000Z</time>
      </trkpt>
      <trkpt lat="47.94462" lon="7.03843">
        <ele>1130.8</ele>
        <time>2021-03-31T09:32:20.000Z</time>
      </trkpt>
      <trkpt lat="47.94458" lon="7.03831">
        <ele>1131.4</ele>
        <time>2021-03-31T09:32:31.000Z</time>
      </trkpt>
      <trkpt lat="47.94447" lon="7.03823">
        <ele>1131.2</ele>
        <time>2021-03-31T09:32:44.000Z</time>
      </trkpt>
      <trkpt lat="47.94438" lon="7.03821">
        <ele>1130.2</ele>
        <time>2021-03-31T09:32:54.000Z</time>
      </trkpt>
      <trkpt lat="47.94436" lon="7.03807">
        <ele>1132.2</ele>
        <time>2021-03-31T09:33:33.000Z</time>
      </trkpt>
      <trkpt lat="47.94429" lon="7.03819">
        <ele>1129.2</ele>
        <time>2021-03-31T09:34:10.000Z</time>
      </trkpt>
      <trkpt lat="47.9442" lon="7.03814">
        <ele>1128.7</ele>
        <time>2021-03-31T09:34:53.000Z</time>
      </trkpt>
      <trkpt lat="47.9441" lon="7.03809">
        <ele>1127.5</ele>
        <time>2021-03-31T09:34:59.000Z</time>
      </trkpt>
      <trkpt lat="47.94403" lon="7.038">
        <ele>1127.1</ele>
        <time>2021-03-31T09:35:06.000Z</time>
      </trkpt>
      <trkpt lat="47.94395" lon="7.03793">
        <ele>1126.1</ele>
        <time>2021-03-31T09:35:13.000Z</time>
      </trkpt>
      <trkpt lat="47.94387" lon="7.03786">
        <ele>1125.2</ele>
        <time>2021-03-31T09:35:20.000Z</time>
      </trkpt>
      <trkpt lat="47.9438" lon="7.03777">
        <ele>1124.8</ele>
        <time>2021-03-31T09:35:29.000Z</time>
      </trkpt>
      <trkpt lat="47.94377" lon="7.03763">
        <ele>1126.2</ele>
        <time>2021-03-31T09:35:39.000Z</time>
      </trkpt>
      <trkpt lat="47.94379" lon="7.03748">
        <ele>1128.8</ele>
        <time>2021-03-31T09:35:47.000Z</time>
      </trkpt>
      <trkpt lat="47.94377" lon="7.03734">
        <ele>1130.6</ele>
        <time>2021-03-31T09:35:55.000Z</time>
      </trkpt>
      <trkpt lat="47.94374" lon="7.0372">
        <ele>1132.1</ele>
        <time>2021-03-31T09:36:04.000Z</time>
      </trkpt>
      <trkpt lat="47.94372" lon="7.03707">
        <ele>1133.6</ele>
        <time>2021-03-31T09:36:12.000Z</time>
      </trkpt>
      <trkpt lat="47.9437" lon="7.03693">
        <ele>1135.2</ele>
        <time>2021-03-31T09:36:24.000Z</time>
      </trkpt>
      <trkpt lat="47.94365" lon="7.03681">
        <ele>1136</ele>
        <time>2021-03-31T09:36:33.000Z</time>
      </trkpt>
      <trkpt lat="47.94359" lon="7.03669">
        <ele>1136.4</ele>
        <time>2021-03-31T09:36:41.000Z</time>
      </trkpt>
      <trkpt lat="47.94354" lon="7.03657">
        <ele>1136.4</ele>
        <time>2021-03-31T09:36:51.000Z</time>
      </trkpt>
      <trkpt lat="47.94349" lon="7.03644">
        <ele>1136.9</ele>
        <time>2021-03-31T09:36:59.000Z</time>
      </trkpt>
      <trkpt lat="47.94346" lon="7.0363">
        <ele>1137.6</ele>
        <time>2021-03-31T09:37:06.000Z</time>
      </trkpt>
      <trkpt lat="47.94343" lon="7.03617">
        <ele>1138.4</ele>
        <time>2021-03-31T09:37:12.000Z</time>
      </trkpt>
      <trkpt lat="47.9434" lon="7.03604">
        <ele>1139.1</ele>
        <time>2021-03-31T09:37:20.000Z</time>
      </trkpt>
      <trkpt lat="47.94336" lon="7.0359">
        <ele>1140</ele>
        <time>2021-03-31T09:37:29.000Z</time>
      </trkpt>
      <trkpt lat="47.94334" lon="7.03576">
        <ele>1140.7</ele>
        <time>2021-03-31T09:37:36.000Z</time>
      </trkpt>
      <trkpt lat="47.94331" lon="7.03562">
        <ele>1141.1</ele>
        <time>2021-03-31T09:37:45.000Z</time>
      </trkpt>
      <trkpt lat="47.94326" lon="7.03549">
        <ele>1140.9</ele>
        <time>2021-03-31T09:37:54.000Z</time>
      </trkpt>
      <trkpt lat="47.94322" lon="7.03536">
        <ele>1140.7</ele>
        <time>2021-03-31T09:38:02.000Z</time>
      </trkpt>
      <trkpt lat="47.94318" lon="7.03523">
        <ele>1140.9</ele>
        <time>2021-03-31T09:38:11.000Z</time>
      </trkpt>
      <trkpt lat="47.94318" lon="7.03508">
        <ele>1141.9</ele>
        <time>2021-03-31T09:38:22.000Z</time>
      </trkpt>
      <trkpt lat="47.94316" lon="7.03494">
        <ele>1142.5</ele>
        <time>2021-03-31T09:38:31.000Z</time>
      </trkpt>
      <trkpt lat="47.94314" lon="7.03481">
        <ele>1142.5</ele>
        <time>2021-03-31T09:38:40.000Z</time>
      </trkpt>
      <trkpt lat="47.94312" lon="7.03466">
        <ele>1142.7</ele>
        <time>2021-03-31T09:38:48.000Z</time>
      </trkpt>
      <trkpt lat="47.94309" lon="7.03453">
        <ele>1142.3</ele>
        <time>2021-03-31T09:38:57.000Z</time>
      </trkpt>
      <trkpt lat="47.94308" lon="7.0344">
        <ele>1142.8</ele>
        <time>2021-03-31T09:39:07.000Z</time>
      </trkpt>
      <trkpt lat="47.94307" lon="7.03427">
        <ele>1142.8</ele>
        <time>2021-03-31T09:39:14.000Z</time>
      </trkpt>
      <trkpt lat="47.94306" lon="7.03412">
        <ele>1143.3</ele>
        <time>2021-03-31T09:39:22.000Z</time>
      </trkpt>
      <trkpt lat="47.94306" lon="7.03398">
        <ele>1143.9</ele>
        <time>2021-03-31T09:39:31.000Z</time>
      </trkpt>
      <trkpt lat="47.94306" lon="7.03384">
        <ele>1144.5</ele>
        <time>2021-03-31T09:39:40.000Z</time>
      </trkpt>
      <trkpt lat="47.94302" lon="7.03371">
        <ele>1144.1</ele>
        <time>2021-03-31T09:39:50.000Z</time>
      </trkpt>
      <trkpt lat="47.943" lon="7.03358">
        <ele>1144</ele>
        <time>2021-03-31T09:40:01.000Z</time>
      </trkpt>
      <trkpt lat="47.94301" lon="7.03344">
        <ele>1145.1</ele>
        <time>2021-03-31T09:40:17.000Z</time>
      </trkpt>
      <trkpt lat="47.94304" lon="7.03329">
        <ele>1146.3</ele>
        <time>2021-03-31T09:40:24.000Z</time>
      </trkpt>
      <trkpt lat="47.94308" lon="7.03316">
        <ele>1147.4</ele>
        <time>2021-03-31T09:40:31.000Z</time>
      </trkpt>
      <trkpt lat="47.94313" lon="7.03304">
        <ele>1148.7</ele>
        <time>2021-03-31T09:40:37.000Z</time>
      </trkpt>
      <trkpt lat="47.94316" lon="7.0329">
        <ele>1149.4</ele>
        <time>2021-03-31T09:40:45.000Z</time>
      </trkpt>
      <trkpt lat="47.94318" lon="7.03277">
        <ele>1149.8</ele>
        <time>2021-03-31T09:40:51.000Z</time>
      </trkpt>
      <trkpt lat="47.94315" lon="7.03264">
        <ele>1149.2</ele>
        <time>2021-03-31T09:40:56.000Z</time>
      </trkpt>
      <trkpt lat="47.94311" lon="7.03252">
        <ele>1148.3</ele>
        <time>2021-03-31T09:41:07.000Z</time>
      </trkpt>
      <trkpt lat="47.94306" lon="7.0324">
        <ele>1148.4</ele>
        <time>2021-03-31T09:41:16.000Z</time>
      </trkpt>
      <trkpt lat="47.94303" lon="7.03224">
        <ele>1149.3</ele>
        <time>2021-03-31T09:41:22.000Z</time>
      </trkpt>
      <trkpt lat="47.94299" lon="7.03213">
        <ele>1149.5</ele>
        <time>2021-03-31T09:41:29.000Z</time>
      </trkpt>
      <trkpt lat="47.94291" lon="7.03202">
        <ele>1149.1</ele>
        <time>2021-03-31T09:41:45.000Z</time>
      </trkpt>
      <trkpt lat="47.94289" lon="7.03189">
        <ele>1149.8</ele>
        <time>2021-03-31T09:41:53.000Z</time>
      </trkpt>
      <trkpt lat="47.94284" lon="7.03177">
        <ele>1149.9</ele>
        <time>2021-03-31T09:42:04.000Z</time>
      </trkpt>
      <trkpt lat="47.94285" lon="7.03163">
        <ele>1151.6</ele>
        <time>2021-03-31T09:42:13.000Z</time>
      </trkpt>
      <trkpt lat="47.94279" lon="7.03152">
        <ele>1152</ele>
        <time>2021-03-31T09:42:24.000Z</time>
      </trkpt>
      <trkpt lat="47.94269" lon="7.03149">
        <ele>1150.4</ele>
        <time>2021-03-31T09:42:35.000Z</time>
      </trkpt>
      <trkpt lat="47.94261" lon="7.03145">
        <ele>1149.3</ele>
        <time>2021-03-31T09:42:45.000Z</time>
      </trkpt>
      <trkpt lat="47.94252" lon="7.0314">
        <ele>1148.3</ele>
        <time>2021-03-31T09:43:00.000Z</time>
      </trkpt>
      <trkpt lat="47.94246" lon="7.03128">
        <ele>1149.9</ele>
        <time>2021-03-31T09:43:12.000Z</time>
      </trkpt>
      <trkpt lat="47.9424" lon="7.03117">
        <ele>1151.6</ele>
        <time>2021-03-31T09:43:21.000Z</time>
      </trkpt>
      <trkpt lat="47.94235" lon="7.03103">
        <ele>1153.7</ele>
        <time>2021-03-31T09:43:28.000Z</time>
      </trkpt>
      <trkpt lat="47.9423" lon="7.03091">
        <ele>1155.3</ele>
        <time>2021-03-31T09:43:36.000Z</time>
      </trkpt>
      <trkpt lat="47.94224" lon="7.03081">
        <ele>1156.6</ele>
        <time>2021-03-31T09:43:45.000Z</time>
      </trkpt>
      <trkpt lat="47.94217" lon="7.03072">
        <ele>1157.5</ele>
        <time>2021-03-31T09:43:56.000Z</time>
      </trkpt>
      <trkpt lat="47.94213" lon="7.03059">
        <ele>1158.8</ele>
        <time>2021-03-31T09:44:09.000Z</time>
      </trkpt>
      <trkpt lat="47.94211" lon="7.03044">
        <ele>1160.1</ele>
        <time>2021-03-31T09:44:17.000Z</time>
      </trkpt>
      <trkpt lat="47.94207" lon="7.0303">
        <ele>1161.2</ele>
        <time>2021-03-31T09:44:25.000Z</time>
      </trkpt>
      <trkpt lat="47.94203" lon="7.03017">
        <ele>1162.2</ele>
        <time>2021-03-31T09:44:33.000Z</time>
      </trkpt>
      <trkpt lat="47.94202" lon="7.03002">
        <ele>1163.4</ele>
        <time>2021-03-31T09:44:45.000Z</time>
      </trkpt>
      <trkpt lat="47.94196" lon="7.02993">
        <ele>1163.6</ele>
        <time>2021-03-31T09:44:53.000Z</time>
      </trkpt>
      <trkpt lat="47.94191" lon="7.02981">
        <ele>1164</ele>
        <time>2021-03-31T09:45:02.000Z</time>
      </trkpt>
      <trkpt lat="47.94181" lon="7.0298">
        <ele>1163.2</ele>
        <time>2021-03-31T09:45:16.000Z</time>
      </trkpt>
      <trkpt lat="47.94174" lon="7.0299">
        <ele>1162.1</ele>
        <time>2021-03-31T09:45:29.000Z</time>
      </trkpt>
      <trkpt lat="47.94176" lon="7.03004">
        <ele>1161.4</ele>
        <time>2021-03-31T09:45:39.000Z</time>
      </trkpt>
      <trkpt lat="47.94176" lon="7.03018">
        <ele>1160.7</ele>
        <time>2021-03-31T09:45:52.000Z</time>
      </trkpt>
      <trkpt lat="47.94175" lon="7.03031">
        <ele>1159.8</ele>
        <time>2021-03-31T09:46:03.000Z</time>
      </trkpt>
      <trkpt lat="47.94178" lon="7.03044">
        <ele>1159.2</ele>
        <time>2021-03-31T09:46:13.000Z</time>
      </trkpt>
      <trkpt lat="47.94179" lon="7.03058">
        <ele>1158.4</ele>
        <time>2021-03-31T09:46:22.000Z</time>
      </trkpt>
      <trkpt lat="47.94178" lon="7.03072">
        <ele>1157.6</ele>
        <time>2021-03-31T09:46:35.000Z</time>
      </trkpt>
      <trkpt lat="47.94176" lon="7.03086">
        <ele>1156.7</ele>
        <time>2021-03-31T09:46:47.000Z</time>
      </trkpt>
      <trkpt lat="47.94174" lon="7.031">
        <ele>1156</ele>
        <time>2021-03-31T09:47:02.000Z</time>
      </trkpt>
      <trkpt lat="47.94172" lon="7.03114">
        <ele>1155.3</ele>
        <time>2021-03-31T09:47:11.000Z</time>
      </trkpt>
      <trkpt lat="47.94172" lon="7.03129">
        <ele>1154.5</ele>
        <time>2021-03-31T09:47:24.000Z</time>
      </trkpt>
      <trkpt lat="47.94169" lon="7.03143">
        <ele>1154</ele>
        <time>2021-03-31T09:47:32.000Z</time>
      </trkpt>
      <trkpt lat="47.94167" lon="7.03156">
        <ele>1153.5</ele>
        <time>2021-03-31T09:47:44.000Z</time>
      </trkpt>
      <trkpt lat="47.94163" lon="7.03168">
        <ele>1153.6</ele>
        <time>2021-03-31T09:47:56.000Z</time>
      </trkpt>
      <trkpt lat="47.94157" lon="7.03179">
        <ele>1154.2</ele>
        <time>2021-03-31T09:48:04.000Z</time>
      </trkpt>
      <trkpt lat="47.94152" lon="7.03191">
        <ele>1154.5</ele>
        <time>2021-03-31T09:48:14.000Z</time>
      </trkpt>
      <trkpt lat="47.94149" lon="7.03204">
        <ele>1154.5</ele>
        <time>2021-03-31T09:48:26.000Z</time>
      </trkpt>
      <trkpt lat="47.94144" lon="7.03216">
        <ele>1154.8</ele>
        <time>2021-03-31T09:48:38.000Z</time>
      </trkpt>
      <trkpt lat="47.94141" lon="7.03228">
        <ele>1154.9</ele>
        <time>2021-03-31T09:48:49.000Z</time>
      </trkpt>
      <trkpt lat="47.94137" lon="7.03241">
        <ele>1154.9</ele>
        <time>2021-03-31T09:49:26.000Z</time>
      </trkpt>
      <trkpt lat="47.94138" lon="7.03255">
        <ele>1153.9</ele>
        <time>2021-03-31T09:49:39.000Z</time>
      </trkpt>
      <trkpt lat="47.94134" lon="7.03269">
        <ele>1153.7</ele>
        <time>2021-03-31T09:49:50.000Z</time>
      </trkpt>
      <trkpt lat="47.94132" lon="7.03282">
        <ele>1153.4</ele>
        <time>2021-03-31T09:50:01.000Z</time>
      </trkpt>
      <trkpt lat="47.94128" lon="7.03295">
        <ele>1153.5</ele>
        <time>2021-03-31T09:50:10.000Z</time>
      </trkpt>
      <trkpt lat="47.94123" lon="7.03307">
        <ele>1153.9</ele>
        <time>2021-03-31T09:50:21.000Z</time>
      </trkpt>
      <trkpt lat="47.94118" lon="7.03319">
        <ele>1154.5</ele>
        <time>2021-03-31T09:50:34.000Z</time>
      </trkpt>
      <trkpt lat="47.94114" lon="7.03332">
        <ele>1155.1</ele>
        <time>2021-03-31T09:50:46.000Z</time>
      </trkpt>
      <trkpt lat="47.94106" lon="7.03341">
        <ele>1156.7</ele>
        <time>2021-03-31T09:50:58.000Z</time>
      </trkpt>
      <trkpt lat="47.94101" lon="7.03352">
        <ele>1157.7</ele>
        <time>2021-03-31T09:51:14.000Z</time>
      </trkpt>
      <trkpt lat="47.94093" lon="7.03359">
        <ele>1159.8</ele>
        <time>2021-03-31T09:51:24.000Z</time>
      </trkpt>
      <trkpt lat="47.94085" lon="7.03366">
        <ele>1162.1</ele>
        <time>2021-03-31T09:51:35.000Z</time>
      </trkpt>
      <trkpt lat="47.94076" lon="7.03372">
        <ele>1162.2</ele>
        <time>2021-03-31T09:51:45.000Z</time>
      </trkpt>
      <trkpt lat="47.94067" lon="7.03375">
        <ele>1162</ele>
        <time>2021-03-31T09:51:57.000Z</time>
      </trkpt>
      <trkpt lat="47.94058" lon="7.03373">
        <ele>1162.1</ele>
        <time>2021-03-31T09:52:09.000Z</time>
      </trkpt>
      <trkpt lat="47.94051" lon="7.03365">
        <ele>1162.5</ele>
        <time>2021-03-31T09:52:24.000Z</time>
      </trkpt>
      <trkpt lat="47.94043" lon="7.03359">
        <ele>1162.8</ele>
        <time>2021-03-31T09:52:36.000Z</time>
      </trkpt>
      <trkpt lat="47.94034" lon="7.03354">
        <ele>1163</ele>
        <time>2021-03-31T09:52:47.000Z</time>
      </trkpt>
      <trkpt lat="47.94025" lon="7.03356">
        <ele>1162.9</ele>
        <time>2021-03-31T09:52:57.000Z</time>
      </trkpt>
      <trkpt lat="47.94016" lon="7.03355">
        <ele>1163</ele>
        <time>2021-03-31T09:53:08.000Z</time>
      </trkpt>
      <trkpt lat="47.94008" lon="7.0335">
        <ele>1163.2</ele>
        <time>2021-03-31T09:53:19.000Z</time>
      </trkpt>
      <trkpt lat="47.93998" lon="7.0335">
        <ele>1163</ele>
        <time>2021-03-31T09:53:27.000Z</time>
      </trkpt>
      <trkpt lat="47.93989" lon="7.03347">
        <ele>1162.3</ele>
        <time>2021-03-31T09:53:37.000Z</time>
      </trkpt>
      <trkpt lat="47.93982" lon="7.03339">
        <ele>1162.1</ele>
        <time>2021-03-31T09:53:49.000Z</time>
      </trkpt>
      <trkpt lat="47.93977" lon="7.03327">
        <ele>1162.5</ele>
        <time>2021-03-31T09:54:05.000Z</time>
      </trkpt>
      <trkpt lat="47.93968" lon="7.03321">
        <ele>1162.3</ele>
        <time>2021-03-31T09:54:18.000Z</time>
      </trkpt>
      <trkpt lat="47.93963" lon="7.03308">
        <ele>1162.8</ele>
        <time>2021-03-31T09:54:25.000Z</time>
      </trkpt>
      <trkpt lat="47.93955" lon="7.03299">
        <ele>1162.9</ele>
        <time>2021-03-31T09:54:34.000Z</time>
      </trkpt>
      <trkpt lat="47.93946" lon="7.03293">
        <ele>1162.7</ele>
        <time>2021-03-31T09:54:41.000Z</time>
      </trkpt>
      <trkpt lat="47.93937" lon="7.0329">
        <ele>1162.2</ele>
        <time>2021-03-31T09:54:53.000Z</time>
      </trkpt>
      <trkpt lat="47.93929" lon="7.03283">
        <ele>1162.1</ele>
        <time>2021-03-31T09:55:01.000Z</time>
      </trkpt>
      <trkpt lat="47.93921" lon="7.03275">
        <ele>1162.3</ele>
        <time>2021-03-31T09:55:15.000Z</time>
      </trkpt>
      <trkpt lat="47.93914" lon="7.03264">
        <ele>1162.4</ele>
        <time>2021-03-31T09:55:24.000Z</time>
      </trkpt>
      <trkpt lat="47.93905" lon="7.03258">
        <ele>1161.6</ele>
        <time>2021-03-31T09:55:30.000Z</time>
      </trkpt>
      <trkpt lat="47.93896" lon="7.03253">
        <ele>1160.7</ele>
        <time>2021-03-31T09:55:37.000Z</time>
      </trkpt>
      <trkpt lat="47.93887" lon="7.03247">
        <ele>1159.9</ele>
        <time>2021-03-31T09:55:44.000Z</time>
      </trkpt>
      <trkpt lat="47.93879" lon="7.0324">
        <ele>1159.1</ele>
        <time>2021-03-31T09:55:54.000Z</time>
      </trkpt>
      <trkpt lat="47.93871" lon="7.03232">
        <ele>1158.4</ele>
        <time>2021-03-31T09:56:01.000Z</time>
      </trkpt>
      <trkpt lat="47.93863" lon="7.03224">
        <ele>1157.9</ele>
        <time>2021-03-31T09:56:10.000Z</time>
      </trkpt>
      <trkpt lat="47.93855" lon="7.03218">
        <ele>1157.3</ele>
        <time>2021-03-31T09:56:17.000Z</time>
      </trkpt>
      <trkpt lat="47.93846" lon="7.03215">
        <ele>1156.5</ele>
        <time>2021-03-31T09:56:24.000Z</time>
      </trkpt>
      <trkpt lat="47.93836" lon="7.03212">
        <ele>1155.5</ele>
        <time>2021-03-31T09:56:33.000Z</time>
      </trkpt>
      <trkpt lat="47.93826" lon="7.03208">
        <ele>1154.2</ele>
        <time>2021-03-31T09:56:43.000Z</time>
      </trkpt>
      <trkpt lat="47.93818" lon="7.03203">
        <ele>1153</ele>
        <time>2021-03-31T09:56:52.000Z</time>
      </trkpt>
      <trkpt lat="47.93809" lon="7.03197">
        <ele>1151.7</ele>
        <time>2021-03-31T09:56:59.000Z</time>
      </trkpt>
      <trkpt lat="47.93801" lon="7.0319">
        <ele>1150.8</ele>
        <time>2021-03-31T09:57:06.000Z</time>
      </trkpt>
      <trkpt lat="47.93792" lon="7.03183">
        <ele>1149.7</ele>
        <time>2021-03-31T09:57:14.000Z</time>
      </trkpt>
      <trkpt lat="47.93783" lon="7.03179">
        <ele>1148.3</ele>
        <time>2021-03-31T09:57:27.000Z</time>
      </trkpt>
      <trkpt lat="47.93775" lon="7.03173">
        <ele>1147.2</ele>
        <time>2021-03-31T09:57:33.000Z</time>
      </trkpt>
      <trkpt lat="47.93766" lon="7.03166">
        <ele>1146.3</ele>
        <time>2021-03-31T09:57:40.000Z</time>
      </trkpt>
      <trkpt lat="47.93758" lon="7.0316">
        <ele>1145.3</ele>
        <time>2021-03-31T09:57:47.000Z</time>
      </trkpt>
      <trkpt lat="47.93749" lon="7.03153">
        <ele>1144.4</ele>
        <time>2021-03-31T09:57:55.000Z</time>
      </trkpt>
      <trkpt lat="47.9374" lon="7.03147">
        <ele>1143.5</ele>
        <time>2021-03-31T09:58:04.000Z</time>
      </trkpt>
      <trkpt lat="47.93732" lon="7.03141">
        <ele>1142.6</ele>
        <time>2021-03-31T09:58:11.000Z</time>
      </trkpt>
      <trkpt lat="47.93723" lon="7.03134">
        <ele>1141.9</ele>
        <time>2021-03-31T09:58:18.000Z</time>
      </trkpt>
      <trkpt lat="47.93715" lon="7.03129">
        <ele>1140.9</ele>
        <time>2021-03-31T09:58:25.000Z</time>
      </trkpt>
      <trkpt lat="47.93706" lon="7.03123">
        <ele>1139.9</ele>
        <time>2021-03-31T09:58:33.000Z</time>
      </trkpt>
      <trkpt lat="47.93697" lon="7.03117">
        <ele>1139</ele>
        <time>2021-03-31T09:58:44.000Z</time>
      </trkpt>
      <trkpt lat="47.93688" lon="7.03112">
        <ele>1138.1</ele>
        <time>2021-03-31T09:58:51.000Z</time>
      </trkpt>
      <trkpt lat="47.93679" lon="7.03105">
        <ele>1137.5</ele>
        <time>2021-03-31T09:58:59.000Z</time>
      </trkpt>
      <trkpt lat="47.93671" lon="7.03097">
        <ele>1137.1</ele>
        <time>2021-03-31T09:59:07.000Z</time>
      </trkpt>
      <trkpt lat="47.93663" lon="7.03088">
        <ele>1137</ele>
        <time>2021-03-31T09:59:15.000Z</time>
      </trkpt>
      <trkpt lat="47.93655" lon="7.03082">
        <ele>1136.5</ele>
        <time>2021-03-31T09:59:24.000Z</time>
      </trkpt>
      <trkpt lat="47.93646" lon="7.03077">
        <ele>1135.7</ele>
        <time>2021-03-31T09:59:31.000Z</time>
      </trkpt>
      <trkpt lat="47.93637" lon="7.03072">
        <ele>1135</ele>
        <time>2021-03-31T09:59:39.000Z</time>
      </trkpt>
      <trkpt lat="47.93628" lon="7.03064">
        <ele>1134.4</ele>
        <time>2021-03-31T09:59:47.000Z</time>
      </trkpt>
      <trkpt lat="47.93622" lon="7.03055">
        <ele>1134.2</ele>
        <time>2021-03-31T09:59:54.000Z</time>
      </trkpt>
      <trkpt lat="47.93616" lon="7.03044">
        <ele>1134.3</ele>
        <time>2021-03-31T10:00:05.000Z</time>
      </trkpt>
      <trkpt lat="47.93612" lon="7.03031">
        <ele>1134.8</ele>
        <time>2021-03-31T10:00:16.000Z</time>
      </trkpt>
      <trkpt lat="47.93607" lon="7.03019">
        <ele>1135</ele>
        <time>2021-03-31T10:00:24.000Z</time>
      </trkpt>
      <trkpt lat="47.93603" lon="7.03005">
        <ele>1135.4</ele>
        <time>2021-03-31T10:00:34.000Z</time>
      </trkpt>
      <trkpt lat="47.93605" lon="7.02991">
        <ele>1136.9</ele>
        <time>2021-03-31T10:00:43.000Z</time>
      </trkpt>
      <trkpt lat="47.93601" lon="7.02977">
        <ele>1137.6</ele>
        <time>2021-03-31T10:00:55.000Z</time>
      </trkpt>
      <trkpt lat="47.93593" lon="7.02971">
        <ele>1136.7</ele>
        <time>2021-03-31T10:01:27.000Z</time>
      </trkpt>
      <trkpt lat="47.93587" lon="7.0296">
        <ele>1136.6</ele>
        <time>2021-03-31T10:01:37.000Z</time>
      </trkpt>
      <trkpt lat="47.93582" lon="7.02949">
        <ele>1136.3</ele>
        <time>2021-03-31T10:01:47.000Z</time>
      </trkpt>
      <trkpt lat="47.93574" lon="7.02939">
        <ele>1135.2</ele>
        <time>2021-03-31T10:01:55.000Z</time>
      </trkpt>
      <trkpt lat="47.93569" lon="7.02928">
        <ele>1134.5</ele>
        <time>2021-03-31T10:02:04.000Z</time>
      </trkpt>
      <trkpt lat="47.93564" lon="7.02916">
        <ele>1134</ele>
        <time>2021-03-31T10:02:12.000Z</time>
      </trkpt>
      <trkpt lat="47.93556" lon="7.02906">
        <ele>1133.4</ele>
        <time>2021-03-31T10:02:20.000Z</time>
      </trkpt>
      <trkpt lat="47.9355" lon="7.02896">
        <ele>1132.9</ele>
        <time>2021-03-31T10:02:27.000Z</time>
      </trkpt>
      <trkpt lat="47.93543" lon="7.02885">
        <ele>1132.5</ele>
        <time>2021-03-31T10:02:35.000Z</time>
      </trkpt>
      <trkpt lat="47.93538" lon="7.02872">
        <ele>1132.6</ele>
        <time>2021-03-31T10:02:43.000Z</time>
      </trkpt>
      <trkpt lat="47.93532" lon="7.02861">
        <ele>1132.4</ele>
        <time>2021-03-31T10:02:55.000Z</time>
      </trkpt>
      <trkpt lat="47.93527" lon="7.0285">
        <ele>1132.6</ele>
        <time>2021-03-31T10:03:03.000Z</time>
      </trkpt>
      <trkpt lat="47.93524" lon="7.02837">
        <ele>1133.2</ele>
        <time>2021-03-31T10:03:11.000Z</time>
      </trkpt>
      <trkpt lat="47.93518" lon="7.02826">
        <ele>1133.4</ele>
        <time>2021-03-31T10:03:19.000Z</time>
      </trkpt>
      <trkpt lat="47.93511" lon="7.02815">
        <ele>1133.3</ele>
        <time>2021-03-31T10:03:27.000Z</time>
      </trkpt>
      <trkpt lat="47.93503" lon="7.02807">
        <ele>1132.8</ele>
        <time>2021-03-31T10:03:35.000Z</time>
      </trkpt>
      <trkpt lat="47.93496" lon="7.02798">
        <ele>1132.6</ele>
        <time>2021-03-31T10:03:42.000Z</time>
      </trkpt>
      <trkpt lat="47.93489" lon="7.0279">
        <ele>1132.6</ele>
        <time>2021-03-31T10:03:50.000Z</time>
      </trkpt>
      <trkpt lat="47.93481" lon="7.02781">
        <ele>1132.4</ele>
        <time>2021-03-31T10:03:59.000Z</time>
      </trkpt>
      <trkpt lat="47.93474" lon="7.02772">
        <ele>1132.3</ele>
        <time>2021-03-31T10:04:07.000Z</time>
      </trkpt>
      <trkpt lat="47.93466" lon="7.02763">
        <ele>1131.9</ele>
        <time>2021-03-31T10:04:15.000Z</time>
      </trkpt>
      <trkpt lat="47.93457" lon="7.02755">
        <ele>1131.6</ele>
        <time>2021-03-31T10:04:24.000Z</time>
      </trkpt>
      <trkpt lat="47.93451" lon="7.02745">
        <ele>1131.7</ele>
        <time>2021-03-31T10:04:33.000Z</time>
      </trkpt>
      <trkpt lat="47.93445" lon="7.02734">
        <ele>1132.4</ele>
        <time>2021-03-31T10:04:41.000Z</time>
      </trkpt>
      <trkpt lat="47.93436" lon="7.02728">
        <ele>1131.6</ele>
        <time>2021-03-31T10:04:50.000Z</time>
      </trkpt>
      <trkpt lat="47.93429" lon="7.02718">
        <ele>1131.8</ele>
        <time>2021-03-31T10:04:58.000Z</time>
      </trkpt>
      <trkpt lat="47.93422" lon="7.02709">
        <ele>1131.5</ele>
        <time>2021-03-31T10:05:07.000Z</time>
      </trkpt>
      <trkpt lat="47.93414" lon="7.02702">
        <ele>1130.9</ele>
        <time>2021-03-31T10:05:16.000Z</time>
      </trkpt>
      <trkpt lat="47.93407" lon="7.02692">
        <ele>1131</ele>
        <time>2021-03-31T10:05:25.000Z</time>
      </trkpt>
      <trkpt lat="47.93399" lon="7.02685">
        <ele>1130.5</ele>
        <time>2021-03-31T10:05:34.000Z</time>
      </trkpt>
      <trkpt lat="47.93391" lon="7.02677">
        <ele>1130.2</ele>
        <time>2021-03-31T10:05:42.000Z</time>
      </trkpt>
      <trkpt lat="47.93384" lon="7.02668">
        <ele>1130</ele>
        <time>2021-03-31T10:05:50.000Z</time>
      </trkpt>
      <trkpt lat="47.93376" lon="7.0266">
        <ele>1130.1</ele>
        <time>2021-03-31T10:05:57.000Z</time>
      </trkpt>
      <trkpt lat="47.93368" lon="7.0265">
        <ele>1130.4</ele>
        <time>2021-03-31T10:06:06.000Z</time>
      </trkpt>
      <trkpt lat="47.93361" lon="7.02641">
        <ele>1130.8</ele>
        <time>2021-03-31T10:06:13.000Z</time>
      </trkpt>
      <trkpt lat="47.93354" lon="7.02633">
        <ele>1130.9</ele>
        <time>2021-03-31T10:06:20.000Z</time>
      </trkpt>
      <trkpt lat="47.93347" lon="7.02625">
        <ele>1130.9</ele>
        <time>2021-03-31T10:06:29.000Z</time>
      </trkpt>
      <trkpt lat="47.9334" lon="7.02615">
        <ele>1131.4</ele>
        <time>2021-03-31T10:06:38.000Z</time>
      </trkpt>
      <trkpt lat="47.93333" lon="7.02606">
        <ele>1131.6</ele>
        <time>2021-03-31T10:06:45.000Z</time>
      </trkpt>
      <trkpt lat="47.93325" lon="7.02596">
        <ele>1131.8</ele>
        <time>2021-03-31T10:06:54.000Z</time>
      </trkpt>
      <trkpt lat="47.93318" lon="7.02588">
        <ele>1131.8</ele>
        <time>2021-03-31T10:07:03.000Z</time>
      </trkpt>
      <trkpt lat="47.93309" lon="7.02581">
        <ele>1131.3</ele>
        <time>2021-03-31T10:07:12.000Z</time>
      </trkpt>
      <trkpt lat="47.93301" lon="7.02574">
        <ele>1130.5</ele>
        <time>2021-03-31T10:07:22.000Z</time>
      </trkpt>
      <trkpt lat="47.93293" lon="7.02564">
        <ele>1130.7</ele>
        <time>2021-03-31T10:07:31.000Z</time>
      </trkpt>
      <trkpt lat="47.93287" lon="7.02552">
        <ele>1131.2</ele>
        <time>2021-03-31T10:07:41.000Z</time>
      </trkpt>
      <trkpt lat="47.93281" lon="7.02541">
        <ele>1131.7</ele>
        <time>2021-03-31T10:07:50.000Z</time>
      </trkpt>
      <trkpt lat="47.93276" lon="7.02528">
        <ele>1132.4</ele>
        <time>2021-03-31T10:07:58.000Z</time>
      </trkpt>
      <trkpt lat="47.93271" lon="7.02514">
        <ele>1133.4</ele>
        <time>2021-03-31T10:08:06.000Z</time>
      </trkpt>
      <trkpt lat="47.93266" lon="7.02503">
        <ele>1133.9</ele>
        <time>2021-03-31T10:08:14.000Z</time>
      </trkpt>
      <trkpt lat="47.93262" lon="7.0249">
        <ele>1136.1</ele>
        <time>2021-03-31T10:08:22.000Z</time>
      </trkpt>
      <trkpt lat="47.93258" lon="7.02477">
        <ele>1139</ele>
        <time>2021-03-31T10:08:30.000Z</time>
      </trkpt>
      <trkpt lat="47.93254" lon="7.02464">
        <ele>1142.1</ele>
        <time>2021-03-31T10:08:41.000Z</time>
      </trkpt>
      <trkpt lat="47.93248" lon="7.02453">
        <ele>1144.3</ele>
        <time>2021-03-31T10:08:53.000Z</time>
      </trkpt>
      <trkpt lat="47.93239" lon="7.02447">
        <ele>1145.2</ele>
        <time>2021-03-31T10:09:03.000Z</time>
      </trkpt>
      <trkpt lat="47.93231" lon="7.02442">
        <ele>1146</ele>
        <time>2021-03-31T10:09:11.000Z</time>
      </trkpt>
      <trkpt lat="47.93222" lon="7.02439">
        <ele>1145.8</ele>
        <time>2021-03-31T10:09:21.000Z</time>
      </trkpt>
      <trkpt lat="47.93213" lon="7.02432">
        <ele>1146.5</ele>
        <time>2021-03-31T10:09:33.000Z</time>
      </trkpt>
      <trkpt lat="47.93205" lon="7.02426">
        <ele>1147.4</ele>
        <time>2021-03-31T10:09:43.000Z</time>
      </trkpt>
      <trkpt lat="47.93196" lon="7.02421">
        <ele>1147.6</ele>
        <time>2021-03-31T10:09:54.000Z</time>
      </trkpt>
      <trkpt lat="47.93186" lon="7.02422">
        <ele>1146.2</ele>
        <time>2021-03-31T10:10:02.000Z</time>
      </trkpt>
      <trkpt lat="47.93177" lon="7.02421">
        <ele>1145.4</ele>
        <time>2021-03-31T10:10:10.000Z</time>
      </trkpt>
      <trkpt lat="47.93167" lon="7.02423">
        <ele>1143.5</ele>
        <time>2021-03-31T10:10:34.000Z</time>
      </trkpt>
      <trkpt lat="47.93158" lon="7.02421">
        <ele>1143.9</ele>
        <time>2021-03-31T10:10:43.000Z</time>
      </trkpt>
      <trkpt lat="47.93149" lon="7.02417">
        <ele>1144.7</ele>
        <time>2021-03-31T10:10:53.000Z</time>
      </trkpt>
      <trkpt lat="47.9314" lon="7.02418">
        <ele>1144.4</ele>
        <time>2021-03-31T10:11:03.000Z</time>
      </trkpt>
      <trkpt lat="47.93131" lon="7.02419">
        <ele>1144</ele>
        <time>2021-03-31T10:11:11.000Z</time>
      </trkpt>
      <trkpt lat="47.93121" lon="7.02415">
        <ele>1144.9</ele>
        <time>2021-03-31T10:11:18.000Z</time>
      </trkpt>
      <trkpt lat="47.93112" lon="7.02415">
        <ele>1144.8</ele>
        <time>2021-03-31T10:11:26.000Z</time>
      </trkpt>
      <trkpt lat="47.93103" lon="7.02414">
        <ele>1144.9</ele>
        <time>2021-03-31T10:11:33.000Z</time>
      </trkpt>
      <trkpt lat="47.93093" lon="7.02411">
        <ele>1145.3</ele>
        <time>2021-03-31T10:11:41.000Z</time>
      </trkpt>
      <trkpt lat="47.93085" lon="7.02407">
        <ele>1146.2</ele>
        <time>2021-03-31T10:11:49.000Z</time>
      </trkpt>
      <trkpt lat="47.93075" lon="7.02401">
        <ele>1148.1</ele>
        <time>2021-03-31T10:11:58.000Z</time>
      </trkpt>
      <trkpt lat="47.93069" lon="7.02391">
        <ele>1150.7</ele>
        <time>2021-03-31T10:12:08.000Z</time>
      </trkpt>
      <trkpt lat="47.93064" lon="7.0238">
        <ele>1153.1</ele>
        <time>2021-03-31T10:12:19.000Z</time>
      </trkpt>
      <trkpt lat="47.93055" lon="7.02385">
        <ele>1152.6</ele>
        <time>2021-03-31T10:12:29.000Z</time>
      </trkpt>
      <trkpt lat="47.93045" lon="7.0239">
        <ele>1152.5</ele>
        <time>2021-03-31T10:12:54.000Z</time>
      </trkpt>
      <trkpt lat="47.93036" lon="7.02401">
        <ele>1151.5</ele>
        <time>2021-03-31T10:12:59.000Z</time>
      </trkpt>
      <trkpt lat="47.93031" lon="7.02412">
        <ele>1150.3</ele>
        <time>2021-03-31T10:13:06.000Z</time>
      </trkpt>
      <trkpt lat="47.93028" lon="7.02425">
        <ele>1149.4</ele>
        <time>2021-03-31T10:13:12.000Z</time>
      </trkpt>
      <trkpt lat="47.93026" lon="7.02441">
        <ele>1148.5</ele>
        <time>2021-03-31T10:13:21.000Z</time>
      </trkpt>
      <trkpt lat="47.93026" lon="7.02454">
        <ele>1147.6</ele>
        <time>2021-03-31T10:13:27.000Z</time>
      </trkpt>
      <trkpt lat="47.93027" lon="7.02469">
        <ele>1146.4</ele>
        <time>2021-03-31T10:13:34.000Z</time>
      </trkpt>
      <trkpt lat="47.93028" lon="7.02484">
        <ele>1145</ele>
        <time>2021-03-31T10:13:42.000Z</time>
      </trkpt>
      <trkpt lat="47.93029" lon="7.02499">
        <ele>1143.8</ele>
        <time>2021-03-31T10:13:50.000Z</time>
      </trkpt>
      <trkpt lat="47.93032" lon="7.02512">
        <ele>1142.3</ele>
        <time>2021-03-31T10:14:09.000Z</time>
      </trkpt>
      <trkpt lat="47.9303" lon="7.02525">
        <ele>1142.7</ele>
        <time>2021-03-31T10:14:18.000Z</time>
      </trkpt>
      <trkpt lat="47.93027" lon="7.02538">
        <ele>1143.7</ele>
        <time>2021-03-31T10:14:59.000Z</time>
      </trkpt>
      <trkpt lat="47.93022" lon="7.0255">
        <ele>1145.2</ele>
        <time>2021-03-31T10:15:08.000Z</time>
      </trkpt>
      <trkpt lat="47.93021" lon="7.02565">
        <ele>1145.5</ele>
        <time>2021-03-31T10:15:16.000Z</time>
      </trkpt>
      <trkpt lat="47.93016" lon="7.02577">
        <ele>1147.5</ele>
        <time>2021-03-31T10:15:24.000Z</time>
      </trkpt>
      <trkpt lat="47.93012" lon="7.0259">
        <ele>1148</ele>
        <time>2021-03-31T10:15:34.000Z</time>
      </trkpt>
      <trkpt lat="47.93006" lon="7.02601">
        <ele>1148.2</ele>
        <time>2021-03-31T10:15:41.000Z</time>
      </trkpt>
      <trkpt lat="47.93002" lon="7.02614">
        <ele>1147.5</ele>
        <time>2021-03-31T10:15:49.000Z</time>
      </trkpt>
      <trkpt lat="47.92998" lon="7.02627">
        <ele>1146.8</ele>
        <time>2021-03-31T10:15:59.000Z</time>
      </trkpt>
      <trkpt lat="47.92994" lon="7.02639">
        <ele>1145.6</ele>
        <time>2021-03-31T10:16:11.000Z</time>
      </trkpt>
      <trkpt lat="47.92988" lon="7.02649">
        <ele>1145.1</ele>
        <time>2021-03-31T10:16:24.000Z</time>
      </trkpt>
      <trkpt lat="47.92984" lon="7.02661">
        <ele>1143.8</ele>
        <time>2021-03-31T10:16:36.000Z</time>
      </trkpt>
      <trkpt lat="47.92975" lon="7.02665">
        <ele>1145.2</ele>
        <time>2021-03-31T10:16:48.000Z</time>
      </trkpt>
      <trkpt lat="47.92966" lon="7.02672">
        <ele>1145.8</ele>
        <time>2021-03-31T10:17:01.000Z</time>
      </trkpt>
      <trkpt lat="47.92959" lon="7.02681">
        <ele>1145.7</ele>
        <time>2021-03-31T10:17:28.000Z</time>
      </trkpt>
      <trkpt lat="47.9295" lon="7.02682">
        <ele>1147.7</ele>
        <time>2021-03-31T10:17:40.000Z</time>
      </trkpt>
      <trkpt lat="47.9294" lon="7.02681">
        <ele>1150.3</ele>
        <time>2021-03-31T10:17:49.000Z</time>
      </trkpt>
      <trkpt lat="47.9293" lon="7.02683">
        <ele>1152.3</ele>
        <time>2021-03-31T10:17:57.000Z</time>
      </trkpt>
      <trkpt lat="47.92921" lon="7.02684">
        <ele>1154.3</ele>
        <time>2021-03-31T10:18:09.000Z</time>
      </trkpt>
      <trkpt lat="47.92915" lon="7.02695">
        <ele>1154.1</ele>
        <time>2021-03-31T10:18:17.000Z</time>
      </trkpt>
      <trkpt lat="47.92914" lon="7.02709">
        <ele>1152.3</ele>
        <time>2021-03-31T10:18:45.000Z</time>
      </trkpt>
      <trkpt lat="47.9291" lon="7.02722">
        <ele>1151.7</ele>
        <time>2021-03-31T10:18:54.000Z</time>
      </trkpt>
      <trkpt lat="47.92909" lon="7.02736">
        <ele>1149.8</ele>
        <time>2021-03-31T10:19:03.000Z</time>
      </trkpt>
      <trkpt lat="47.92905" lon="7.02749">
        <ele>1149.4</ele>
        <time>2021-03-31T10:19:14.000Z</time>
      </trkpt>
      <trkpt lat="47.92906" lon="7.02763">
        <ele>1148.9</ele>
        <time>2021-03-31T10:19:25.000Z</time>
      </trkpt>
      <trkpt lat="47.92905" lon="7.02777">
        <ele>1149.4</ele>
        <time>2021-03-31T10:19:41.000Z</time>
      </trkpt>
      <trkpt lat="47.92908" lon="7.0279">
        <ele>1148.1</ele>
        <time>2021-03-31T10:19:54.000Z</time>
      </trkpt>
      <trkpt lat="47.92909" lon="7.02805">
        <ele>1147.9</ele>
        <time>2021-03-31T10:20:18.000Z</time>
      </trkpt>
      <trkpt lat="47.92909" lon="7.02819">
        <ele>1147.8</ele>
        <time>2021-03-31T10:20:30.000Z</time>
      </trkpt>
      <trkpt lat="47.92908" lon="7.02834">
        <ele>1148.1</ele>
        <time>2021-03-31T10:20:39.000Z</time>
      </trkpt>
      <trkpt lat="47.92906" lon="7.02847">
        <ele>1149.5</ele>
        <time>2021-03-31T10:20:49.000Z</time>
      </trkpt>
      <trkpt lat="47.92905" lon="7.02861">
        <ele>1150.9</ele>
        <time>2021-03-31T10:21:09.000Z</time>
      </trkpt>
      <trkpt lat="47.92906" lon="7.02875">
        <ele>1151.4</ele>
        <time>2021-03-31T10:21:18.000Z</time>
      </trkpt>
      <trkpt lat="47.92902" lon="7.02888">
        <ele>1153.4</ele>
        <time>2021-03-31T10:21:26.000Z</time>
      </trkpt>
      <trkpt lat="47.92898" lon="7.02901">
        <ele>1155.5</ele>
        <time>2021-03-31T10:21:35.000Z</time>
      </trkpt>
      <trkpt lat="47.92894" lon="7.02913">
        <ele>1157.8</ele>
        <time>2021-03-31T10:21:45.000Z</time>
      </trkpt>
      <trkpt lat="47.92891" lon="7.02926">
        <ele>1159.1</ele>
        <time>2021-03-31T10:21:57.000Z</time>
      </trkpt>
      <trkpt lat="47.92885" lon="7.02937">
        <ele>1161</ele>
        <time>2021-03-31T10:22:10.000Z</time>
      </trkpt>
      <trkpt lat="47.9288" lon="7.02949">
        <ele>1162.7</ele>
        <time>2021-03-31T10:22:20.000Z</time>
      </trkpt>
      <trkpt lat="47.92875" lon="7.02961">
        <ele>1164.2</ele>
        <time>2021-03-31T10:22:31.000Z</time>
      </trkpt>
      <trkpt lat="47.92872" lon="7.02975">
        <ele>1165.1</ele>
        <time>2021-03-31T10:22:41.000Z</time>
      </trkpt>
      <trkpt lat="47.92869" lon="7.02989">
        <ele>1165.8</ele>
        <time>2021-03-31T10:22:56.000Z</time>
      </trkpt>
      <trkpt lat="47.92863" lon="7.03">
        <ele>1167.5</ele>
        <time>2021-03-31T10:23:06.000Z</time>
      </trkpt>
      <trkpt lat="47.92858" lon="7.03012">
        <ele>1167.5</ele>
        <time>2021-03-31T10:23:15.000Z</time>
      </trkpt>
      <trkpt lat="47.92852" lon="7.03023">
        <ele>1167.6</ele>
        <time>2021-03-31T10:23:24.000Z</time>
      </trkpt>
      <trkpt lat="47.92848" lon="7.03036">
        <ele>1167.1</ele>
        <time>2021-03-31T10:23:31.000Z</time>
      </trkpt>
      <trkpt lat="47.92846" lon="7.0305">
        <ele>1165.8</ele>
        <time>2021-03-31T10:23:39.000Z</time>
      </trkpt>
      <trkpt lat="47.92839" lon="7.03059">
        <ele>1166.1</ele>
        <time>2021-03-31T10:23:50.000Z</time>
      </trkpt>
      <trkpt lat="47.92838" lon="7.03073">
        <ele>1164.6</ele>
        <time>2021-03-31T10:24:13.000Z</time>
      </trkpt>
      <trkpt lat="47.92829" lon="7.03079">
        <ele>1165.3</ele>
        <time>2021-03-31T10:24:23.000Z</time>
      </trkpt>
      <trkpt lat="47.92819" lon="7.03082">
        <ele>1166.4</ele>
        <time>2021-03-31T10:24:33.000Z</time>
      </trkpt>
      <trkpt lat="47.9281" lon="7.03087">
        <ele>1166.8</ele>
        <time>2021-03-31T10:24:40.000Z</time>
      </trkpt>
      <trkpt lat="47.92801" lon="7.03092">
        <ele>1167.3</ele>
        <time>2021-03-31T10:24:46.000Z</time>
      </trkpt>
      <trkpt lat="47.92792" lon="7.03097">
        <ele>1167.7</ele>
        <time>2021-03-31T10:24:56.000Z</time>
      </trkpt>
      <trkpt lat="47.92783" lon="7.03102">
        <ele>1168.1</ele>
        <time>2021-03-31T10:25:07.000Z</time>
      </trkpt>
      <trkpt lat="47.92776" lon="7.03112">
        <ele>1167.8</ele>
        <time>2021-03-31T10:25:23.000Z</time>
      </trkpt>
      <trkpt lat="47.92768" lon="7.03117">
        <ele>1168.2</ele>
        <time>2021-03-31T10:25:34.000Z</time>
      </trkpt>
      <trkpt lat="47.92758" lon="7.03122">
        <ele>1169.1</ele>
        <time>2021-03-31T10:25:44.000Z</time>
      </trkpt>
      <trkpt lat="47.92749" lon="7.03126">
        <ele>1169.9</ele>
        <time>2021-03-31T10:25:52.000Z</time>
      </trkpt>
      <trkpt lat="47.92737" lon="7.0313">
        <ele>1169.4</ele>
        <time>2021-03-31T10:26:22.000Z</time>
      </trkpt>
      <trkpt lat="47.92728" lon="7.03134">
        <ele>1168.8</ele>
        <time>2021-03-31T10:26:33.000Z</time>
      </trkpt>
      <trkpt lat="47.92719" lon="7.03133">
        <ele>1168.9</ele>
        <time>2021-03-31T10:26:47.000Z</time>
      </trkpt>
      <trkpt lat="47.9271" lon="7.03133">
        <ele>1168.9</ele>
        <time>2021-03-31T10:26:58.000Z</time>
      </trkpt>
      <trkpt lat="47.92701" lon="7.03134">
        <ele>1168.8</ele>
        <time>2021-03-31T10:27:07.000Z</time>
      </trkpt>
      <trkpt lat="47.92692" lon="7.03136">
        <ele>1168.6</ele>
        <time>2021-03-31T10:27:15.000Z</time>
      </trkpt>
      <trkpt lat="47.92682" lon="7.03137">
        <ele>1168.5</ele>
        <time>2021-03-31T10:27:21.000Z</time>
      </trkpt>
      <trkpt lat="47.92674" lon="7.03141">
        <ele>1168.1</ele>
        <time>2021-03-31T10:27:29.000Z</time>
      </trkpt>
      <trkpt lat="47.92665" lon="7.03146">
        <ele>1167.5</ele>
        <time>2021-03-31T10:27:38.000Z</time>
      </trkpt>
      <trkpt lat="47.92656" lon="7.03147">
        <ele>1167.6</ele>
        <time>2021-03-31T10:27:55.000Z</time>
      </trkpt>
      <trkpt lat="47.92646" lon="7.03151">
        <ele>1167.4</ele>
        <time>2021-03-31T10:28:10.000Z</time>
      </trkpt>
      <trkpt lat="47.92637" lon="7.03152">
        <ele>1167.5</ele>
        <time>2021-03-31T10:28:27.000Z</time>
      </trkpt>
      <trkpt lat="47.92628" lon="7.03153">
        <ele>1167.6</ele>
        <time>2021-03-31T10:28:38.000Z</time>
      </trkpt>
      <trkpt lat="47.92618" lon="7.03154">
        <ele>1167.7</ele>
        <time>2021-03-31T10:28:46.000Z</time>
      </trkpt>
      <trkpt lat="47.92609" lon="7.03157">
        <ele>1167.6</ele>
        <time>2021-03-31T10:28:53.000Z</time>
      </trkpt>
      <trkpt lat="47.92599" lon="7.03154">
        <ele>1168.1</ele>
        <time>2021-03-31T10:29:02.000Z</time>
      </trkpt>
      <trkpt lat="47.9259" lon="7.03152">
        <ele>1168.6</ele>
        <time>2021-03-31T10:29:17.000Z</time>
      </trkpt>
      <trkpt lat="47.92581" lon="7.03148">
        <ele>1169.4</ele>
        <time>2021-03-31T10:29:40.000Z</time>
      </trkpt>
      <trkpt lat="47.92572" lon="7.03143">
        <ele>1170.4</ele>
        <time>2021-03-31T10:29:51.000Z</time>
      </trkpt>
      <trkpt lat="47.92563" lon="7.0314">
        <ele>1171.2</ele>
        <time>2021-03-31T10:30:01.000Z</time>
      </trkpt>
      <trkpt lat="47.92554" lon="7.03143">
        <ele>1171.3</ele>
        <time>2021-03-31T10:30:12.000Z</time>
      </trkpt>
      <trkpt lat="47.92545" lon="7.03138">
        <ele>1172.3</ele>
        <time>2021-03-31T10:30:27.000Z</time>
      </trkpt>
      <trkpt lat="47.92537" lon="7.0313">
        <ele>1173.4</ele>
        <time>2021-03-31T10:30:37.000Z</time>
      </trkpt>
      <trkpt lat="47.92528" lon="7.03126">
        <ele>1174.2</ele>
        <time>2021-03-31T10:30:49.000Z</time>
      </trkpt>
      <trkpt lat="47.9252" lon="7.03119">
        <ele>1175.2</ele>
        <time>2021-03-31T10:31:01.000Z</time>
      </trkpt>
      <trkpt lat="47.92513" lon="7.0311">
        <ele>1176.3</ele>
        <time>2021-03-31T10:31:13.000Z</time>
      </trkpt>
      <trkpt lat="47.92504" lon="7.03103">
        <ele>1177.2</ele>
        <time>2021-03-31T10:31:24.000Z</time>
      </trkpt>
      <trkpt lat="47.92496" lon="7.03098">
        <ele>1178</ele>
        <time>2021-03-31T10:31:34.000Z</time>
      </trkpt>
      <trkpt lat="47.92486" lon="7.03095">
        <ele>1178.9</ele>
        <time>2021-03-31T10:31:44.000Z</time>
      </trkpt>
      <trkpt lat="47.92476" lon="7.03095">
        <ele>1179.5</ele>
        <time>2021-03-31T10:31:52.000Z</time>
      </trkpt>
      <trkpt lat="47.92466" lon="7.03098">
        <ele>1179.8</ele>
        <time>2021-03-31T10:32:02.000Z</time>
      </trkpt>
      <trkpt lat="47.92457" lon="7.03101">
        <ele>1180.1</ele>
        <time>2021-03-31T10:32:11.000Z</time>
      </trkpt>
      <trkpt lat="47.92448" lon="7.03101">
        <ele>1180.7</ele>
        <time>2021-03-31T10:32:19.000Z</time>
      </trkpt>
      <trkpt lat="47.92439" lon="7.03095">
        <ele>1181.7</ele>
        <time>2021-03-31T10:32:31.000Z</time>
      </trkpt>
      <trkpt lat="47.92434" lon="7.03083">
        <ele>1182.9</ele>
        <time>2021-03-31T10:32:41.000Z</time>
      </trkpt>
      <trkpt lat="47.92426" lon="7.03069">
        <ele>1184.5</ele>
        <time>2021-03-31T10:33:20.000Z</time>
      </trkpt>
      <trkpt lat="47.92417" lon="7.03066">
        <ele>1185.3</ele>
        <time>2021-03-31T10:33:30.000Z</time>
      </trkpt>
      <trkpt lat="47.92411" lon="7.03056">
        <ele>1186.1</ele>
        <time>2021-03-31T10:33:41.000Z</time>
      </trkpt>
      <trkpt lat="47.92412" lon="7.03042">
        <ele>1187</ele>
        <time>2021-03-31T10:33:53.000Z</time>
      </trkpt>
      <trkpt lat="47.92416" lon="7.03029">
        <ele>1187.9</ele>
        <time>2021-03-31T10:34:03.000Z</time>
      </trkpt>
      <trkpt lat="47.92416" lon="7.03015">
        <ele>1188.9</ele>
        <time>2021-03-31T10:34:15.000Z</time>
      </trkpt>
      <trkpt lat="47.92406" lon="7.03015">
        <ele>1188.9</ele>
        <time>2021-03-31T10:34:34.000Z</time>
      </trkpt>
      <trkpt lat="47.92399" lon="7.03026">
        <ele>1188.1</ele>
        <time>2021-03-31T10:34:45.000Z</time>
      </trkpt>
      <trkpt lat="47.9239" lon="7.03031">
        <ele>1187.8</ele>
        <time>2021-03-31T10:34:55.000Z</time>
      </trkpt>
      <trkpt lat="47.92383" lon="7.03022">
        <ele>1188.4</ele>
        <time>2021-03-31T10:35:06.000Z</time>
      </trkpt>
      <trkpt lat="47.92381" lon="7.03008">
        <ele>1189.1</ele>
        <time>2021-03-31T10:35:40.000Z</time>
      </trkpt>
      <trkpt lat="47.92388" lon="7.02998">
        <ele>1189.8</ele>
        <time>2021-03-31T10:35:49.000Z</time>
      </trkpt>
      <trkpt lat="47.9238" lon="7.0299">
        <ele>1190.1</ele>
        <time>2021-03-31T10:36:04.000Z</time>
      </trkpt>
      <trkpt lat="47.92371" lon="7.02988">
        <ele>1190</ele>
        <time>2021-03-31T10:36:12.000Z</time>
      </trkpt>
      <trkpt lat="47.92364" lon="7.02979">
        <ele>1190.2</ele>
        <time>2021-03-31T10:36:27.000Z</time>
      </trkpt>
      <trkpt lat="47.92356" lon="7.02969">
        <ele>1190.4</ele>
        <time>2021-03-31T10:37:04.000Z</time>
      </trkpt>
      <trkpt lat="47.92354" lon="7.02956">
        <ele>1190.8</ele>
        <time>2021-03-31T10:37:14.000Z</time>
      </trkpt>
      <trkpt lat="47.92357" lon="7.02943">
        <ele>1191.4</ele>
        <time>2021-03-31T10:37:22.000Z</time>
      </trkpt>
      <trkpt lat="47.9236" lon="7.02931">
        <ele>1192.1</ele>
        <time>2021-03-31T10:37:30.000Z</time>
      </trkpt>
      <trkpt lat="47.92365" lon="7.02918">
        <ele>1192.9</ele>
        <time>2021-03-31T10:37:39.000Z</time>
      </trkpt>
      <trkpt lat="47.92369" lon="7.02906">
        <ele>1193.4</ele>
        <time>2021-03-31T10:37:46.000Z</time>
      </trkpt>
      <trkpt lat="47.92374" lon="7.02894">
        <ele>1194.1</ele>
        <time>2021-03-31T10:37:54.000Z</time>
      </trkpt>
      <trkpt lat="47.92378" lon="7.02882">
        <ele>1194.9</ele>
        <time>2021-03-31T10:38:02.000Z</time>
      </trkpt>
      <trkpt lat="47.92383" lon="7.0287">
        <ele>1196</ele>
        <time>2021-03-31T10:38:12.000Z</time>
      </trkpt>
      <trkpt lat="47.92389" lon="7.02859">
        <ele>1197.4</ele>
        <time>2021-03-31T10:38:21.000Z</time>
      </trkpt>
      <trkpt lat="47.92396" lon="7.02848">
        <ele>1199</ele>
        <time>2021-03-31T10:38:31.000Z</time>
      </trkpt>
      <trkpt lat="47.92396" lon="7.02834">
        <ele>1200</ele>
        <time>2021-03-31T10:38:41.000Z</time>
      </trkpt>
      <trkpt lat="47.92396" lon="7.0282">
        <ele>1200.4</ele>
        <time>2021-03-31T10:38:50.000Z</time>
      </trkpt>
      <trkpt lat="47.92396" lon="7.02805">
        <ele>1200.8</ele>
        <time>2021-03-31T10:38:59.000Z</time>
      </trkpt>
      <trkpt lat="47.92395" lon="7.0279">
        <ele>1201.1</ele>
        <time>2021-03-31T10:39:09.000Z</time>
      </trkpt>
      <trkpt lat="47.92396" lon="7.02776">
        <ele>1201.5</ele>
        <time>2021-03-31T10:39:18.000Z</time>
      </trkpt>
      <trkpt lat="47.92396" lon="7.02762">
        <ele>1202</ele>
        <time>2021-03-31T10:39:28.000Z</time>
      </trkpt>
      <trkpt lat="47.92398" lon="7.02747">
        <ele>1202.9</ele>
        <time>2021-03-31T10:39:37.000Z</time>
      </trkpt>
      <trkpt lat="47.92398" lon="7.02732">
        <ele>1203.3</ele>
        <time>2021-03-31T10:39:46.000Z</time>
      </trkpt>
      <trkpt lat="47.924" lon="7.02718">
        <ele>1204</ele>
        <time>2021-03-31T10:39:56.000Z</time>
      </trkpt>
      <trkpt lat="47.924" lon="7.02704">
        <ele>1204.3</ele>
        <time>2021-03-31T10:40:05.000Z</time>
      </trkpt>
      <trkpt lat="47.92399" lon="7.02689">
        <ele>1204.1</ele>
        <time>2021-03-31T10:40:15.000Z</time>
      </trkpt>
      <trkpt lat="47.924" lon="7.02675">
        <ele>1204.7</ele>
        <time>2021-03-31T10:40:25.000Z</time>
      </trkpt>
      <trkpt lat="47.92401" lon="7.02661">
        <ele>1205.1</ele>
        <time>2021-03-31T10:40:35.000Z</time>
      </trkpt>
      <trkpt lat="47.924" lon="7.02647">
        <ele>1204.9</ele>
        <time>2021-03-31T10:40:44.000Z</time>
      </trkpt>
      <trkpt lat="47.924" lon="7.02632">
        <ele>1204.5</ele>
        <time>2021-03-31T10:40:55.000Z</time>
      </trkpt>
      <trkpt lat="47.924" lon="7.02618">
        <ele>1204.4</ele>
        <time>2021-03-31T10:41:04.000Z</time>
      </trkpt>
      <trkpt lat="47.92401" lon="7.02604">
        <ele>1204.7</ele>
        <time>2021-03-31T10:41:14.000Z</time>
      </trkpt>
      <trkpt lat="47.92402" lon="7.0259">
        <ele>1204.9</ele>
        <time>2021-03-31T10:41:26.000Z</time>
      </trkpt>
      <trkpt lat="47.92403" lon="7.02576">
        <ele>1205.8</ele>
        <time>2021-03-31T10:41:37.000Z</time>
      </trkpt>
      <trkpt lat="47.92406" lon="7.02563">
        <ele>1208.2</ele>
        <time>2021-03-31T10:41:51.000Z</time>
      </trkpt>
      <trkpt lat="47.92415" lon="7.0256">
        <ele>1211.7</ele>
        <time>2021-03-31T10:42:07.000Z</time>
      </trkpt>
      <trkpt lat="47.92425" lon="7.02559">
        <ele>1214.3</ele>
        <time>2021-03-31T10:42:21.000Z</time>
      </trkpt>
      <trkpt lat="47.92434" lon="7.02559">
        <ele>1216.5</ele>
        <time>2021-03-31T10:42:36.000Z</time>
      </trkpt>
      <trkpt lat="47.92439" lon="7.02545">
        <ele>1218.8</ele>
        <time>2021-03-31T10:42:55.000Z</time>
      </trkpt>
      <trkpt lat="47.92441" lon="7.02532">
        <ele>1220.7</ele>
        <time>2021-03-31T10:43:09.000Z</time>
      </trkpt>
      <trkpt lat="47.92447" lon="7.0252">
        <ele>1223</ele>
        <time>2021-03-31T10:43:23.000Z</time>
      </trkpt>
      <trkpt lat="47.92454" lon="7.02511">
        <ele>1225.4</ele>
        <time>2021-03-31T10:43:36.000Z</time>
      </trkpt>
      <trkpt lat="47.92462" lon="7.02504">
        <ele>1227.9</ele>
        <time>2021-03-31T10:43:49.000Z</time>
      </trkpt>
      <trkpt lat="47.92469" lon="7.02495">
        <ele>1230.2</ele>
        <time>2021-03-31T10:44:02.000Z</time>
      </trkpt>
      <trkpt lat="47.92473" lon="7.02482">
        <ele>1231.5</ele>
        <time>2021-03-31T10:44:13.000Z</time>
      </trkpt>
      <trkpt lat="47.92476" lon="7.02469">
        <ele>1232.7</ele>
        <time>2021-03-31T10:44:24.000Z</time>
      </trkpt>
      <trkpt lat="47.92475" lon="7.02456">
        <ele>1232.9</ele>
        <time>2021-03-31T10:44:37.000Z</time>
      </trkpt>
      <trkpt lat="47.92472" lon="7.02442">
        <ele>1232.9</ele>
        <time>2021-03-31T10:44:48.000Z</time>
      </trkpt>
      <trkpt lat="47.92472" lon="7.02429">
        <ele>1233.4</ele>
        <time>2021-03-31T10:44:59.000Z</time>
      </trkpt>
      <trkpt lat="47.92472" lon="7.02415">
        <ele>1234</ele>
        <time>2021-03-31T10:45:14.000Z</time>
      </trkpt>
      <trkpt lat="47.92473" lon="7.024">
        <ele>1233.7</ele>
        <time>2021-03-31T10:45:26.000Z</time>
      </trkpt>
      <trkpt lat="47.92477" lon="7.02387">
        <ele>1234.1</ele>
        <time>2021-03-31T10:45:36.000Z</time>
      </trkpt>
      <trkpt lat="47.92483" lon="7.02375">
        <ele>1234.9</ele>
        <time>2021-03-31T10:45:47.000Z</time>
      </trkpt>
      <trkpt lat="47.92489" lon="7.02365">
        <ele>1236.1</ele>
        <time>2021-03-31T10:45:57.000Z</time>
      </trkpt>
      <trkpt lat="47.92496" lon="7.02355">
        <ele>1237.4</ele>
        <time>2021-03-31T10:46:14.000Z</time>
      </trkpt>
      <trkpt lat="47.92502" lon="7.02345">
        <ele>1238.5</ele>
        <time>2021-03-31T10:46:24.000Z</time>
      </trkpt>
      <trkpt lat="47.92509" lon="7.02335">
        <ele>1239.5</ele>
        <time>2021-03-31T10:46:33.000Z</time>
      </trkpt>
      <trkpt lat="47.92516" lon="7.02326">
        <ele>1239.5</ele>
        <time>2021-03-31T10:46:43.000Z</time>
      </trkpt>
      <trkpt lat="47.92525" lon="7.02312">
        <ele>1239.1</ele>
        <time>2021-03-31T10:47:21.000Z</time>
      </trkpt>
      <trkpt lat="47.92532" lon="7.02304">
        <ele>1239.2</ele>
        <time>2021-03-31T10:47:50.000Z</time>
      </trkpt>
      <trkpt lat="47.92539" lon="7.02295">
        <ele>1239.2</ele>
        <time>2021-03-31T10:48:01.000Z</time>
      </trkpt>
      <trkpt lat="47.92546" lon="7.02287">
        <ele>1239.3</ele>
        <time>2021-03-31T10:48:13.000Z</time>
      </trkpt>
      <trkpt lat="47.92554" lon="7.02281">
        <ele>1239.9</ele>
        <time>2021-03-31T10:48:29.000Z</time>
      </trkpt>
      <trkpt lat="47.9256" lon="7.0227">
        <ele>1239.6</ele>
        <time>2021-03-31T10:48:38.000Z</time>
      </trkpt>
      <trkpt lat="47.92569" lon="7.02264">
        <ele>1240.3</ele>
        <time>2021-03-31T10:48:47.000Z</time>
      </trkpt>
      <trkpt lat="47.92577" lon="7.02257">
        <ele>1240.7</ele>
        <time>2021-03-31T10:49:17.000Z</time>
      </trkpt>
      <trkpt lat="47.92586" lon="7.02253">
        <ele>1241.3</ele>
        <time>2021-03-31T10:49:26.000Z</time>
      </trkpt>
      <trkpt lat="47.92594" lon="7.02246">
        <ele>1240.4</ele>
        <time>2021-03-31T10:49:34.000Z</time>
      </trkpt>
      <trkpt lat="47.92598" lon="7.02232">
        <ele>1238.4</ele>
        <time>2021-03-31T10:49:43.000Z</time>
      </trkpt>
      <trkpt lat="47.92592" lon="7.02154">
        <ele>1227.7</ele>
        <time>2021-03-31T10:50:02.000Z</time>
      </trkpt>
      <trkpt lat="47.92624" lon="7.02204">
        <ele>1235.4</ele>
        <time>2021-03-31T10:50:07.000Z</time>
      </trkpt>
      <trkpt lat="47.92607" lon="7.02194">
        <ele>1233.4</ele>
        <time>2021-03-31T10:50:12.000Z</time>
      </trkpt>
      <trkpt lat="47.92597" lon="7.02195">
        <ele>1233.1</ele>
        <time>2021-03-31T10:50:17.000Z</time>
      </trkpt>
      <trkpt lat="47.92605" lon="7.02201">
        <ele>1234.3</ele>
        <time>2021-03-31T10:50:24.000Z</time>
      </trkpt>
      <trkpt lat="47.92611" lon="7.02189">
        <ele>1232.9</ele>
        <time>2021-03-31T10:50:36.000Z</time>
      </trkpt>
      <trkpt lat="47.92613" lon="7.02175">
        <ele>1231.1</ele>
        <time>2021-03-31T10:50:54.000Z</time>
      </trkpt>
      <trkpt lat="47.92617" lon="7.02162">
        <ele>1230.1</ele>
        <time>2021-03-31T10:51:03.000Z</time>
      </trkpt>
      <trkpt lat="47.92621" lon="7.02149">
        <ele>1229.8</ele>
        <time>2021-03-31T10:51:10.000Z</time>
      </trkpt>
      <trkpt lat="47.92624" lon="7.02137">
        <ele>1229.4</ele>
        <time>2021-03-31T10:51:18.000Z</time>
      </trkpt>
      <trkpt lat="47.92625" lon="7.02122">
        <ele>1228.9</ele>
        <time>2021-03-31T10:51:29.000Z</time>
      </trkpt>
      <trkpt lat="47.92627" lon="7.02109">
        <ele>1228.5</ele>
        <time>2021-03-31T10:51:38.000Z</time>
      </trkpt>
      <trkpt lat="47.92634" lon="7.021">
        <ele>1229</ele>
        <time>2021-03-31T10:51:48.000Z</time>
      </trkpt>
      <trkpt lat="47.9264" lon="7.02089">
        <ele>1229.3</ele>
        <time>2021-03-31T10:52:00.000Z</time>
      </trkpt>
      <trkpt lat="47.92642" lon="7.02076">
        <ele>1229.9</ele>
        <time>2021-03-31T10:52:09.000Z</time>
      </trkpt>
      <trkpt lat="47.92646" lon="7.02062">
        <ele>1231.1</ele>
        <time>2021-03-31T10:52:22.000Z</time>
      </trkpt>
      <trkpt lat="47.92648" lon="7.02048">
        <ele>1232.2</ele>
        <time>2021-03-31T10:52:33.000Z</time>
      </trkpt>
      <trkpt lat="47.92649" lon="7.02034">
        <ele>1233.1</ele>
        <time>2021-03-31T10:52:43.000Z</time>
      </trkpt>
      <trkpt lat="47.92646" lon="7.0202">
        <ele>1233.5</ele>
        <time>2021-03-31T10:52:52.000Z</time>
      </trkpt>
      <trkpt lat="47.92647" lon="7.02006">
        <ele>1234.3</ele>
        <time>2021-03-31T10:53:03.000Z</time>
      </trkpt>
      <trkpt lat="47.92647" lon="7.01992">
        <ele>1234.9</ele>
        <time>2021-03-31T10:53:13.000Z</time>
      </trkpt>
      <trkpt lat="47.92647" lon="7.01978">
        <ele>1235.5</ele>
        <time>2021-03-31T10:53:21.000Z</time>
      </trkpt>
      <trkpt lat="47.92651" lon="7.01965">
        <ele>1236.4</ele>
        <time>2021-03-31T10:53:33.000Z</time>
      </trkpt>
      <trkpt lat="47.92655" lon="7.01951">
        <ele>1237.3</ele>
        <time>2021-03-31T10:53:45.000Z</time>
      </trkpt>
      <trkpt lat="47.92654" lon="7.01937">
        <ele>1237.8</ele>
        <time>2021-03-31T10:53:54.000Z</time>
      </trkpt>
      <trkpt lat="47.92652" lon="7.01924">
        <ele>1238</ele>
        <time>2021-03-31T10:54:02.000Z</time>
      </trkpt>
      <trkpt lat="47.92651" lon="7.0191">
        <ele>1238.6</ele>
        <time>2021-03-31T10:54:12.000Z</time>
      </trkpt>
      <trkpt lat="47.92652" lon="7.01896">
        <ele>1239.8</ele>
        <time>2021-03-31T10:54:22.000Z</time>
      </trkpt>
      <trkpt lat="47.92653" lon="7.01882">
        <ele>1240.9</ele>
        <time>2021-03-31T10:54:33.000Z</time>
      </trkpt>
      <trkpt lat="47.92654" lon="7.01868">
        <ele>1242.1</ele>
        <time>2021-03-31T10:54:45.000Z</time>
      </trkpt>
      <trkpt lat="47.92651" lon="7.01854">
        <ele>1242.8</ele>
        <time>2021-03-31T10:54:55.000Z</time>
      </trkpt>
      <trkpt lat="47.92649" lon="7.01841">
        <ele>1243.5</ele>
        <time>2021-03-31T10:55:04.000Z</time>
      </trkpt>
      <trkpt lat="47.92645" lon="7.01828">
        <ele>1244</ele>
        <time>2021-03-31T10:55:15.000Z</time>
      </trkpt>
      <trkpt lat="47.92641" lon="7.01816">
        <ele>1244.4</ele>
        <time>2021-03-31T10:55:24.000Z</time>
      </trkpt>
      <trkpt lat="47.92641" lon="7.01802">
        <ele>1245.4</ele>
        <time>2021-03-31T10:55:33.000Z</time>
      </trkpt>
      <trkpt lat="47.92639" lon="7.01788">
        <ele>1246.1</ele>
        <time>2021-03-31T10:55:43.000Z</time>
      </trkpt>
      <trkpt lat="47.92637" lon="7.01774">
        <ele>1246.8</ele>
        <time>2021-03-31T10:56:02.000Z</time>
      </trkpt>
      <trkpt lat="47.92634" lon="7.01761">
        <ele>1247.3</ele>
        <time>2021-03-31T10:56:11.000Z</time>
      </trkpt>
      <trkpt lat="47.92632" lon="7.01747">
        <ele>1247.9</ele>
        <time>2021-03-31T10:56:21.000Z</time>
      </trkpt>
      <trkpt lat="47.9263" lon="7.01734">
        <ele>1248.1</ele>
        <time>2021-03-31T10:56:30.000Z</time>
      </trkpt>
      <trkpt lat="47.9263" lon="7.0172">
        <ele>1248.4</ele>
        <time>2021-03-31T10:56:41.000Z</time>
      </trkpt>
      <trkpt lat="47.92629" lon="7.01705">
        <ele>1248.7</ele>
        <time>2021-03-31T10:56:50.000Z</time>
      </trkpt>
      <trkpt lat="47.92629" lon="7.0169">
        <ele>1249.1</ele>
        <time>2021-03-31T10:57:01.000Z</time>
      </trkpt>
      <trkpt lat="47.92629" lon="7.01675">
        <ele>1249.7</ele>
        <time>2021-03-31T10:57:10.000Z</time>
      </trkpt>
      <trkpt lat="47.92629" lon="7.01661">
        <ele>1249.5</ele>
        <time>2021-03-31T10:57:19.000Z</time>
      </trkpt>
      <trkpt lat="47.92631" lon="7.01647">
        <ele>1249.1</ele>
        <time>2021-03-31T10:57:27.000Z</time>
      </trkpt>
      <trkpt lat="47.92631" lon="7.01633">
        <ele>1248.4</ele>
        <time>2021-03-31T10:57:37.000Z</time>
      </trkpt>
      <trkpt lat="47.92633" lon="7.01618">
        <ele>1247.9</ele>
        <time>2021-03-31T10:57:47.000Z</time>
      </trkpt>
      <trkpt lat="47.92633" lon="7.01603">
        <ele>1247.1</ele>
        <time>2021-03-31T10:57:56.000Z</time>
      </trkpt>
      <trkpt lat="47.92633" lon="7.0159">
        <ele>1246.4</ele>
        <time>2021-03-31T10:58:04.000Z</time>
      </trkpt>
      <trkpt lat="47.92634" lon="7.01575">
        <ele>1245.9</ele>
        <time>2021-03-31T10:58:13.000Z</time>
      </trkpt>
      <trkpt lat="47.92637" lon="7.01561">
        <ele>1246.1</ele>
        <time>2021-03-31T10:58:30.000Z</time>
      </trkpt>
      <trkpt lat="47.9264" lon="7.01548">
        <ele>1246.5</ele>
        <time>2021-03-31T10:58:38.000Z</time>
      </trkpt>
      <trkpt lat="47.92643" lon="7.01534">
        <ele>1246.7</ele>
        <time>2021-03-31T10:58:47.000Z</time>
      </trkpt>
      <trkpt lat="47.92647" lon="7.01521">
        <ele>1247.3</ele>
        <time>2021-03-31T10:58:55.000Z</time>
      </trkpt>
      <trkpt lat="47.92653" lon="7.01508">
        <ele>1248.1</ele>
        <time>2021-03-31T10:59:04.000Z</time>
      </trkpt>
      <trkpt lat="47.92658" lon="7.01495">
        <ele>1249.3</ele>
        <time>2021-03-31T10:59:13.000Z</time>
      </trkpt>
      <trkpt lat="47.92662" lon="7.01483">
        <ele>1250.9</ele>
        <time>2021-03-31T10:59:31.000Z</time>
      </trkpt>
      <trkpt lat="47.92663" lon="7.01469">
        <ele>1252</ele>
        <time>2021-03-31T10:59:39.000Z</time>
      </trkpt>
      <trkpt lat="47.92665" lon="7.01454">
        <ele>1253.3</ele>
        <time>2021-03-31T10:59:49.000Z</time>
      </trkpt>
      <trkpt lat="47.92665" lon="7.0144">
        <ele>1254.2</ele>
        <time>2021-03-31T10:59:58.000Z</time>
      </trkpt>
      <trkpt lat="47.92666" lon="7.01427">
        <ele>1255.3</ele>
        <time>2021-03-31T11:00:07.000Z</time>
      </trkpt>
      <trkpt lat="47.92665" lon="7.01414">
        <ele>1255.1</ele>
        <time>2021-03-31T11:00:15.000Z</time>
      </trkpt>
      <trkpt lat="47.92662" lon="7.014">
        <ele>1252.2</ele>
        <time>2021-03-31T11:00:24.000Z</time>
      </trkpt>
      <trkpt lat="47.92658" lon="7.01387">
        <ele>1249.6</ele>
        <time>2021-03-31T11:00:33.000Z</time>
      </trkpt>
      <trkpt lat="47.92651" lon="7.01377">
        <ele>1247.5</ele>
        <time>2021-03-31T11:00:43.000Z</time>
      </trkpt>
      <trkpt lat="47.92643" lon="7.01369">
        <ele>1245.9</ele>
        <time>2021-03-31T11:00:51.000Z</time>
      </trkpt>
      <trkpt lat="47.92636" lon="7.01359">
        <ele>1244.7</ele>
        <time>2021-03-31T11:01:00.000Z</time>
      </trkpt>
      <trkpt lat="47.92629" lon="7.01349">
        <ele>1243.8</ele>
        <time>2021-03-31T11:01:09.000Z</time>
      </trkpt>
      <trkpt lat="47.92623" lon="7.01337">
        <ele>1243.3</ele>
        <time>2021-03-31T11:01:18.000Z</time>
      </trkpt>
      <trkpt lat="47.92617" lon="7.01326">
        <ele>1242.8</ele>
        <time>2021-03-31T11:01:28.000Z</time>
      </trkpt>
      <trkpt lat="47.92611" lon="7.01315">
        <ele>1242.3</ele>
        <time>2021-03-31T11:01:37.000Z</time>
      </trkpt>
      <trkpt lat="47.92606" lon="7.01303">
        <ele>1241.6</ele>
        <time>2021-03-31T11:01:47.000Z</time>
      </trkpt>
      <trkpt lat="47.92602" lon="7.0129">
        <ele>1240.7</ele>
        <time>2021-03-31T11:01:57.000Z</time>
      </trkpt>
      <trkpt lat="47.92594" lon="7.0128">
        <ele>1240.2</ele>
        <time>2021-03-31T11:02:08.000Z</time>
      </trkpt>
      <trkpt lat="47.92587" lon="7.01273">
        <ele>1239.9</ele>
        <time>2021-03-31T11:57:49.000Z</time>
      </trkpt>
      <trkpt lat="47.92581" lon="7.01262">
        <ele>1238.6</ele>
        <time>2021-03-31T11:57:59.000Z</time>
      </trkpt>
      <trkpt lat="47.92578" lon="7.01248">
        <ele>1237</ele>
        <time>2021-03-31T11:58:10.000Z</time>
      </trkpt>
      <trkpt lat="47.92574" lon="7.01234">
        <ele>1234.7</ele>
        <time>2021-03-31T11:58:21.000Z</time>
      </trkpt>
      <trkpt lat="47.92573" lon="7.0122">
        <ele>1232.6</ele>
        <time>2021-03-31T11:58:32.000Z</time>
      </trkpt>
      <trkpt lat="47.92572" lon="7.01206">
        <ele>1230.6</ele>
        <time>2021-03-31T11:58:43.000Z</time>
      </trkpt>
      <trkpt lat="47.92567" lon="7.01195">
        <ele>1228.3</ele>
        <time>2021-03-31T11:58:54.000Z</time>
      </trkpt>
      <trkpt lat="47.92568" lon="7.01182">
        <ele>1226.6</ele>
        <time>2021-03-31T11:59:05.000Z</time>
      </trkpt>
      <trkpt lat="47.92567" lon="7.01168">
        <ele>1224.6</ele>
        <time>2021-03-31T11:59:16.000Z</time>
      </trkpt>
      <trkpt lat="47.92568" lon="7.01154">
        <ele>1222.2</ele>
        <time>2021-03-31T11:59:29.000Z</time>
      </trkpt>
      <trkpt lat="47.92579" lon="7.01154">
        <ele>1223.7</ele>
        <time>2021-03-31T12:10:54.000Z</time>
      </trkpt>
      <trkpt lat="47.92588" lon="7.01155">
        <ele>1224.5</ele>
        <time>2021-03-31T12:11:03.000Z</time>
      </trkpt>
      <trkpt lat="47.92598" lon="7.01155">
        <ele>1224.1</ele>
        <time>2021-03-31T12:11:14.000Z</time>
      </trkpt>
      <trkpt lat="47.92608" lon="7.01156">
        <ele>1224.1</ele>
        <time>2021-03-31T12:11:23.000Z</time>
      </trkpt>
      <trkpt lat="47.92618" lon="7.0116">
        <ele>1224.4</ele>
        <time>2021-03-31T12:11:31.000Z</time>
      </trkpt>
      <trkpt lat="47.92627" lon="7.01165">
        <ele>1225.2</ele>
        <time>2021-03-31T12:11:55.000Z</time>
      </trkpt>
      <trkpt lat="47.92636" lon="7.0117">
        <ele>1225.5</ele>
        <time>2021-03-31T12:13:35.000Z</time>
      </trkpt>
      <trkpt lat="47.92645" lon="7.01175">
        <ele>1225.9</ele>
        <time>2021-03-31T12:13:44.000Z</time>
      </trkpt>
      <trkpt lat="47.92654" lon="7.01179">
        <ele>1226.2</ele>
        <time>2021-03-31T12:13:52.000Z</time>
      </trkpt>
      <trkpt lat="47.92663" lon="7.01185">
        <ele>1226.7</ele>
        <time>2021-03-31T12:14:02.000Z</time>
      </trkpt>
      <trkpt lat="47.92672" lon="7.0119">
        <ele>1226.9</ele>
        <time>2021-03-31T12:14:11.000Z</time>
      </trkpt>
      <trkpt lat="47.9268" lon="7.01197">
        <ele>1227.2</ele>
        <time>2021-03-31T12:14:20.000Z</time>
      </trkpt>
      <trkpt lat="47.92689" lon="7.01204">
        <ele>1227.6</ele>
        <time>2021-03-31T12:14:28.000Z</time>
      </trkpt>
      <trkpt lat="47.92697" lon="7.01211">
        <ele>1228</ele>
        <time>2021-03-31T12:14:37.000Z</time>
      </trkpt>
      <trkpt lat="47.92706" lon="7.01217">
        <ele>1228.3</ele>
        <time>2021-03-31T12:14:47.000Z</time>
      </trkpt>
      <trkpt lat="47.92715" lon="7.0122">
        <ele>1228</ele>
        <time>2021-03-31T12:14:54.000Z</time>
      </trkpt>
      <trkpt lat="47.92725" lon="7.01225">
        <ele>1228</ele>
        <time>2021-03-31T12:15:02.000Z</time>
      </trkpt>
      <trkpt lat="47.92734" lon="7.01228">
        <ele>1227.8</ele>
        <time>2021-03-31T12:15:09.000Z</time>
      </trkpt>
      <trkpt lat="47.92743" lon="7.01232">
        <ele>1227.6</ele>
        <time>2021-03-31T12:15:17.000Z</time>
      </trkpt>
      <trkpt lat="47.92753" lon="7.01236">
        <ele>1227.3</ele>
        <time>2021-03-31T12:15:25.000Z</time>
      </trkpt>
      <trkpt lat="47.92761" lon="7.0124">
        <ele>1226.8</ele>
        <time>2021-03-31T12:15:33.000Z</time>
      </trkpt>
      <trkpt lat="47.9277" lon="7.01245">
        <ele>1226.3</ele>
        <time>2021-03-31T12:15:40.000Z</time>
      </trkpt>
      <trkpt lat="47.92779" lon="7.01248">
        <ele>1225.5</ele>
        <time>2021-03-31T12:15:48.000Z</time>
      </trkpt>
      <trkpt lat="47.92788" lon="7.01252">
        <ele>1224.8</ele>
        <time>2021-03-31T12:15:55.000Z</time>
      </trkpt>
      <trkpt lat="47.92798" lon="7.01257">
        <ele>1224.1</ele>
        <time>2021-03-31T12:16:02.000Z</time>
      </trkpt>
      <trkpt lat="47.92807" lon="7.01262">
        <ele>1223.5</ele>
        <time>2021-03-31T12:16:10.000Z</time>
      </trkpt>
      <trkpt lat="47.92816" lon="7.01265">
        <ele>1222.8</ele>
        <time>2021-03-31T12:16:17.000Z</time>
      </trkpt>
      <trkpt lat="47.92825" lon="7.0127">
        <ele>1222.5</ele>
        <time>2021-03-31T12:16:26.000Z</time>
      </trkpt>
      <trkpt lat="47.92834" lon="7.01276">
        <ele>1222.2</ele>
        <time>2021-03-31T12:16:33.000Z</time>
      </trkpt>
      <trkpt lat="47.92843" lon="7.01281">
        <ele>1221.3</ele>
        <time>2021-03-31T12:16:40.000Z</time>
      </trkpt>
      <trkpt lat="47.92851" lon="7.01286">
        <ele>1220.2</ele>
        <time>2021-03-31T12:16:46.000Z</time>
      </trkpt>
      <trkpt lat="47.9286" lon="7.01293">
        <ele>1219.5</ele>
        <time>2021-03-31T12:16:53.000Z</time>
      </trkpt>
      <trkpt lat="47.92869" lon="7.01299">
        <ele>1218.5</ele>
        <time>2021-03-31T12:17:00.000Z</time>
      </trkpt>
      <trkpt lat="47.92876" lon="7.01307">
        <ele>1218.1</ele>
        <time>2021-03-31T12:17:07.000Z</time>
      </trkpt>
      <trkpt lat="47.92882" lon="7.01319">
        <ele>1218.6</ele>
        <time>2021-03-31T12:17:28.000Z</time>
      </trkpt>
      <trkpt lat="47.92888" lon="7.01331">
        <ele>1219.3</ele>
        <time>2021-03-31T12:17:37.000Z</time>
      </trkpt>
      <trkpt lat="47.92896" lon="7.0134">
        <ele>1218.5</ele>
        <time>2021-03-31T12:17:45.000Z</time>
      </trkpt>
      <trkpt lat="47.92904" lon="7.01349">
        <ele>1217.6</ele>
        <time>2021-03-31T12:17:51.000Z</time>
      </trkpt>
      <trkpt lat="47.92907" lon="7.01363">
        <ele>1218.3</ele>
        <time>2021-03-31T12:18:00.000Z</time>
      </trkpt>
      <trkpt lat="47.92912" lon="7.01375">
        <ele>1218.5</ele>
        <time>2021-03-31T12:18:06.000Z</time>
      </trkpt>
      <trkpt lat="47.92917" lon="7.01387">
        <ele>1218.6</ele>
        <time>2021-03-31T12:18:13.000Z</time>
      </trkpt>
      <trkpt lat="47.92923" lon="7.01399">
        <ele>1218.3</ele>
        <time>2021-03-31T12:18:21.000Z</time>
      </trkpt>
      <trkpt lat="47.92928" lon="7.01411">
        <ele>1218.1</ele>
        <time>2021-03-31T12:18:28.000Z</time>
      </trkpt>
      <trkpt lat="47.92933" lon="7.01424">
        <ele>1217.6</ele>
        <time>2021-03-31T12:18:36.000Z</time>
      </trkpt>
      <trkpt lat="47.9294" lon="7.01433">
        <ele>1216</ele>
        <time>2021-03-31T12:18:43.000Z</time>
      </trkpt>
      <trkpt lat="47.92947" lon="7.01442">
        <ele>1214.6</ele>
        <time>2021-03-31T12:18:51.000Z</time>
      </trkpt>
      <trkpt lat="47.92955" lon="7.01449">
        <ele>1212.7</ele>
        <time>2021-03-31T12:19:03.000Z</time>
      </trkpt>
      <trkpt lat="47.92962" lon="7.01459">
        <ele>1211.6</ele>
        <time>2021-03-31T12:19:10.000Z</time>
      </trkpt>
      <trkpt lat="47.92971" lon="7.01467">
        <ele>1210</ele>
        <time>2021-03-31T12:19:19.000Z</time>
      </trkpt>
      <trkpt lat="47.92979" lon="7.01472">
        <ele>1208.3</ele>
        <time>2021-03-31T12:19:26.000Z</time>
      </trkpt>
      <trkpt lat="47.92988" lon="7.01478">
        <ele>1206.5</ele>
        <time>2021-03-31T12:19:34.000Z</time>
      </trkpt>
      <trkpt lat="47.92997" lon="7.01483">
        <ele>1204.8</ele>
        <time>2021-03-31T12:19:41.000Z</time>
      </trkpt>
      <trkpt lat="47.93006" lon="7.01488">
        <ele>1203.9</ele>
        <time>2021-03-31T12:19:51.000Z</time>
      </trkpt>
      <trkpt lat="47.93015" lon="7.01495">
        <ele>1203.3</ele>
        <time>2021-03-31T12:19:59.000Z</time>
      </trkpt>
      <trkpt lat="47.93023" lon="7.015">
        <ele>1202.7</ele>
        <time>2021-03-31T12:20:08.000Z</time>
      </trkpt>
      <trkpt lat="47.93029" lon="7.01512">
        <ele>1203.2</ele>
        <time>2021-03-31T12:20:17.000Z</time>
      </trkpt>
      <trkpt lat="47.93032" lon="7.01526">
        <ele>1204.4</ele>
        <time>2021-03-31T12:20:25.000Z</time>
      </trkpt>
      <trkpt lat="47.93036" lon="7.01539">
        <ele>1205.4</ele>
        <time>2021-03-31T12:20:34.000Z</time>
      </trkpt>
      <trkpt lat="47.93038" lon="7.01554">
        <ele>1206.7</ele>
        <time>2021-03-31T12:20:42.000Z</time>
      </trkpt>
      <trkpt lat="47.93042" lon="7.01567">
        <ele>1207.5</ele>
        <time>2021-03-31T12:20:55.000Z</time>
      </trkpt>
      <trkpt lat="47.93047" lon="7.01578">
        <ele>1208.2</ele>
        <time>2021-03-31T12:21:03.000Z</time>
      </trkpt>
      <trkpt lat="47.93051" lon="7.01591">
        <ele>1208.4</ele>
        <time>2021-03-31T12:21:11.000Z</time>
      </trkpt>
      <trkpt lat="47.93054" lon="7.01604">
        <ele>1208.4</ele>
        <time>2021-03-31T12:21:20.000Z</time>
      </trkpt>
      <trkpt lat="47.9306" lon="7.01617">
        <ele>1208.2</ele>
        <time>2021-03-31T12:21:29.000Z</time>
      </trkpt>
      <trkpt lat="47.93065" lon="7.01628">
        <ele>1207.8</ele>
        <time>2021-03-31T12:21:40.000Z</time>
      </trkpt>
      <trkpt lat="47.93068" lon="7.01642">
        <ele>1208.2</ele>
        <time>2021-03-31T12:21:47.000Z</time>
      </trkpt>
      <trkpt lat="47.9307" lon="7.01656">
        <ele>1208.4</ele>
        <time>2021-03-31T12:21:58.000Z</time>
      </trkpt>
      <trkpt lat="47.93072" lon="7.0167">
        <ele>1208.8</ele>
        <time>2021-03-31T12:22:06.000Z</time>
      </trkpt>
      <trkpt lat="47.93077" lon="7.0168">
        <ele>1208.5</ele>
        <time>2021-03-31T12:22:16.000Z</time>
      </trkpt>
      <trkpt lat="47.93082" lon="7.01693">
        <ele>1208.5</ele>
        <time>2021-03-31T12:22:23.000Z</time>
      </trkpt>
      <trkpt lat="47.93085" lon="7.01706">
        <ele>1208.5</ele>
        <time>2021-03-31T12:22:30.000Z</time>
      </trkpt>
      <trkpt lat="47.93091" lon="7.01718">
        <ele>1208.1</ele>
        <time>2021-03-31T12:22:37.000Z</time>
      </trkpt>
      <trkpt lat="47.93099" lon="7.01726">
        <ele>1207.2</ele>
        <time>2021-03-31T12:22:46.000Z</time>
      </trkpt>
      <trkpt lat="47.93101" lon="7.01742">
        <ele>1207.9</ele>
        <time>2021-03-31T12:22:54.000Z</time>
      </trkpt>
      <trkpt lat="47.93104" lon="7.01756">
        <ele>1208.2</ele>
        <time>2021-03-31T12:23:02.000Z</time>
      </trkpt>
      <trkpt lat="47.93111" lon="7.01766">
        <ele>1207.5</ele>
        <time>2021-03-31T12:23:09.000Z</time>
      </trkpt>
      <trkpt lat="47.93118" lon="7.01774">
        <ele>1206.8</ele>
        <time>2021-03-31T12:23:17.000Z</time>
      </trkpt>
      <trkpt lat="47.93126" lon="7.01784">
        <ele>1206.1</ele>
        <time>2021-03-31T12:23:26.000Z</time>
      </trkpt>
      <trkpt lat="47.93134" lon="7.01792">
        <ele>1205.4</ele>
        <time>2021-03-31T12:23:33.000Z</time>
      </trkpt>
      <trkpt lat="47.93142" lon="7.01803">
        <ele>1205</ele>
        <time>2021-03-31T12:23:40.000Z</time>
      </trkpt>
      <trkpt lat="47.93151" lon="7.01811">
        <ele>1204.4</ele>
        <time>2021-03-31T12:23:47.000Z</time>
      </trkpt>
      <trkpt lat="47.93157" lon="7.01821">
        <ele>1204.2</ele>
        <time>2021-03-31T12:23:54.000Z</time>
      </trkpt>
      <trkpt lat="47.93165" lon="7.01827">
        <ele>1203.8</ele>
        <time>2021-03-31T12:24:02.000Z</time>
      </trkpt>
      <trkpt lat="47.93174" lon="7.01835">
        <ele>1204</ele>
        <time>2021-03-31T12:24:09.000Z</time>
      </trkpt>
      <trkpt lat="47.93183" lon="7.01841">
        <ele>1204.1</ele>
        <time>2021-03-31T12:24:16.000Z</time>
      </trkpt>
      <trkpt lat="47.93192" lon="7.01846">
        <ele>1204.1</ele>
        <time>2021-03-31T12:24:23.000Z</time>
      </trkpt>
      <trkpt lat="47.932" lon="7.01852">
        <ele>1204.3</ele>
        <time>2021-03-31T12:24:30.000Z</time>
      </trkpt>
      <trkpt lat="47.93209" lon="7.01856">
        <ele>1204.3</ele>
        <time>2021-03-31T12:24:36.000Z</time>
      </trkpt>
      <trkpt lat="47.93217" lon="7.01861">
        <ele>1204.4</ele>
        <time>2021-03-31T12:24:41.000Z</time>
      </trkpt>
      <trkpt lat="47.93226" lon="7.01866">
        <ele>1204.5</ele>
        <time>2021-03-31T12:24:54.000Z</time>
      </trkpt>
      <trkpt lat="47.93235" lon="7.01871">
        <ele>1204.5</ele>
        <time>2021-03-31T12:25:00.000Z</time>
      </trkpt>
      <trkpt lat="47.93245" lon="7.01876">
        <ele>1204.6</ele>
        <time>2021-03-31T12:25:06.000Z</time>
      </trkpt>
      <trkpt lat="47.93252" lon="7.01884">
        <ele>1204.8</ele>
        <time>2021-03-31T12:25:13.000Z</time>
      </trkpt>
      <trkpt lat="47.9326" lon="7.01893">
        <ele>1205.2</ele>
        <time>2021-03-31T12:25:21.000Z</time>
      </trkpt>
      <trkpt lat="47.93269" lon="7.01897">
        <ele>1205.5</ele>
        <time>2021-03-31T12:25:27.000Z</time>
      </trkpt>
      <trkpt lat="47.93278" lon="7.01903">
        <ele>1205.8</ele>
        <time>2021-03-31T12:25:35.000Z</time>
      </trkpt>
      <trkpt lat="47.93286" lon="7.01911">
        <ele>1206.2</ele>
        <time>2021-03-31T12:25:43.000Z</time>
      </trkpt>
      <trkpt lat="47.93295" lon="7.01917">
        <ele>1206.6</ele>
        <time>2021-03-31T12:25:51.000Z</time>
      </trkpt>
      <trkpt lat="47.93303" lon="7.01925">
        <ele>1207</ele>
        <time>2021-03-31T12:26:15.000Z</time>
      </trkpt>
      <trkpt lat="47.93311" lon="7.01934">
        <ele>1207.6</ele>
        <time>2021-03-31T12:26:24.000Z</time>
      </trkpt>
      <trkpt lat="47.93318" lon="7.01943">
        <ele>1208.2</ele>
        <time>2021-03-31T12:26:32.000Z</time>
      </trkpt>
      <trkpt lat="47.93325" lon="7.01952">
        <ele>1208.9</ele>
        <time>2021-03-31T12:26:41.000Z</time>
      </trkpt>
      <trkpt lat="47.93333" lon="7.01961">
        <ele>1209.6</ele>
        <time>2021-03-31T12:26:48.000Z</time>
      </trkpt>
      <trkpt lat="47.9334" lon="7.01971">
        <ele>1210.4</ele>
        <time>2021-03-31T12:26:58.000Z</time>
      </trkpt>
      <trkpt lat="47.93348" lon="7.01977">
        <ele>1210.9</ele>
        <time>2021-03-31T12:27:05.000Z</time>
      </trkpt>
      <trkpt lat="47.93357" lon="7.01983">
        <ele>1211.5</ele>
        <time>2021-03-31T12:27:14.000Z</time>
      </trkpt>
      <trkpt lat="47.93367" lon="7.01985">
        <ele>1211.8</ele>
        <time>2021-03-31T12:27:22.000Z</time>
      </trkpt>
      <trkpt lat="47.93376" lon="7.01988">
        <ele>1212.2</ele>
        <time>2021-03-31T12:27:30.000Z</time>
      </trkpt>
      <trkpt lat="47.93385" lon="7.01991">
        <ele>1212.7</ele>
        <time>2021-03-31T12:27:38.000Z</time>
      </trkpt>
      <trkpt lat="47.93394" lon="7.01996">
        <ele>1213.2</ele>
        <time>2021-03-31T12:27:45.000Z</time>
      </trkpt>
      <trkpt lat="47.93403" lon="7.02">
        <ele>1213.7</ele>
        <time>2021-03-31T12:27:53.000Z</time>
      </trkpt>
      <trkpt lat="47.93412" lon="7.02003">
        <ele>1213.9</ele>
        <time>2021-03-31T12:28:01.000Z</time>
      </trkpt>
      <trkpt lat="47.93422" lon="7.02008">
        <ele>1213.7</ele>
        <time>2021-03-31T12:28:09.000Z</time>
      </trkpt>
      <trkpt lat="47.93431" lon="7.02012">
        <ele>1213.2</ele>
        <time>2021-03-31T12:28:17.000Z</time>
      </trkpt>
      <trkpt lat="47.93441" lon="7.02013">
        <ele>1212.7</ele>
        <time>2021-03-31T12:28:26.000Z</time>
      </trkpt>
      <trkpt lat="47.93448" lon="7.02022">
        <ele>1212.3</ele>
        <time>2021-03-31T12:28:33.000Z</time>
      </trkpt>
      <trkpt lat="47.93456" lon="7.02031">
        <ele>1212</ele>
        <time>2021-03-31T12:28:40.000Z</time>
      </trkpt>
      <trkpt lat="47.93462" lon="7.0204">
        <ele>1211.8</ele>
        <time>2021-03-31T12:28:48.000Z</time>
      </trkpt>
      <trkpt lat="47.9347" lon="7.02048">
        <ele>1211.5</ele>
        <time>2021-03-31T12:28:56.000Z</time>
      </trkpt>
      <trkpt lat="47.93479" lon="7.02055">
        <ele>1211.3</ele>
        <time>2021-03-31T12:29:03.000Z</time>
      </trkpt>
      <trkpt lat="47.93487" lon="7.02062">
        <ele>1211</ele>
        <time>2021-03-31T12:29:12.000Z</time>
      </trkpt>
      <trkpt lat="47.93495" lon="7.02069">
        <ele>1210.8</ele>
        <time>2021-03-31T12:29:20.000Z</time>
      </trkpt>
      <trkpt lat="47.93503" lon="7.02076">
        <ele>1210.7</ele>
        <time>2021-03-31T12:29:27.000Z</time>
      </trkpt>
      <trkpt lat="47.93511" lon="7.02084">
        <ele>1210.6</ele>
        <time>2021-03-31T12:29:35.000Z</time>
      </trkpt>
      <trkpt lat="47.9352" lon="7.02089">
        <ele>1210.2</ele>
        <time>2021-03-31T12:29:43.000Z</time>
      </trkpt>
      <trkpt lat="47.93528" lon="7.02096">
        <ele>1209.8</ele>
        <time>2021-03-31T12:29:50.000Z</time>
      </trkpt>
      <trkpt lat="47.93536" lon="7.02104">
        <ele>1209.5</ele>
        <time>2021-03-31T12:30:26.000Z</time>
      </trkpt>
      <trkpt lat="47.93543" lon="7.02113">
        <ele>1209.3</ele>
        <time>2021-03-31T12:30:34.000Z</time>
      </trkpt>
      <trkpt lat="47.93552" lon="7.02121">
        <ele>1209.2</ele>
        <time>2021-03-31T12:30:42.000Z</time>
      </trkpt>
      <trkpt lat="47.9356" lon="7.02127">
        <ele>1209.2</ele>
        <time>2021-03-31T12:30:50.000Z</time>
      </trkpt>
      <trkpt lat="47.93569" lon="7.02134">
        <ele>1209.2</ele>
        <time>2021-03-31T12:30:58.000Z</time>
      </trkpt>
      <trkpt lat="47.93577" lon="7.02142">
        <ele>1209.4</ele>
        <time>2021-03-31T12:31:05.000Z</time>
      </trkpt>
      <trkpt lat="47.93586" lon="7.02149">
        <ele>1209.6</ele>
        <time>2021-03-31T12:31:12.000Z</time>
      </trkpt>
      <trkpt lat="47.93594" lon="7.02154">
        <ele>1209.8</ele>
        <time>2021-03-31T12:31:20.000Z</time>
      </trkpt>
      <trkpt lat="47.93602" lon="7.02161">
        <ele>1210.1</ele>
        <time>2021-03-31T12:31:27.000Z</time>
      </trkpt>
      <trkpt lat="47.93611" lon="7.02166">
        <ele>1210.3</ele>
        <time>2021-03-31T12:31:36.000Z</time>
      </trkpt>
      <trkpt lat="47.93618" lon="7.02175">
        <ele>1210.4</ele>
        <time>2021-03-31T12:31:43.000Z</time>
      </trkpt>
      <trkpt lat="47.93627" lon="7.02182">
        <ele>1210.4</ele>
        <time>2021-03-31T12:31:52.000Z</time>
      </trkpt>
      <trkpt lat="47.93637" lon="7.02185">
        <ele>1210.5</ele>
        <time>2021-03-31T12:32:01.000Z</time>
      </trkpt>
      <trkpt lat="47.93646" lon="7.02188">
        <ele>1210.6</ele>
        <time>2021-03-31T12:32:09.000Z</time>
      </trkpt>
      <trkpt lat="47.93655" lon="7.02193">
        <ele>1210.6</ele>
        <time>2021-03-31T12:32:17.000Z</time>
      </trkpt>
      <trkpt lat="47.93664" lon="7.02199">
        <ele>1210.6</ele>
        <time>2021-03-31T12:32:26.000Z</time>
      </trkpt>
      <trkpt lat="47.93674" lon="7.02201">
        <ele>1210.1</ele>
        <time>2021-03-31T12:32:31.000Z</time>
      </trkpt>
      <trkpt lat="47.93683" lon="7.0221">
        <ele>1209.5</ele>
        <time>2021-03-31T12:32:40.000Z</time>
      </trkpt>
      <trkpt lat="47.93693" lon="7.02214">
        <ele>1208.9</ele>
        <time>2021-03-31T12:32:51.000Z</time>
      </trkpt>
      <trkpt lat="47.93703" lon="7.02218">
        <ele>1208.3</ele>
        <time>2021-03-31T12:32:58.000Z</time>
      </trkpt>
      <trkpt lat="47.93712" lon="7.0222">
        <ele>1207.8</ele>
        <time>2021-03-31T12:33:04.000Z</time>
      </trkpt>
      <trkpt lat="47.93722" lon="7.02224">
        <ele>1207.2</ele>
        <time>2021-03-31T12:33:12.000Z</time>
      </trkpt>
      <trkpt lat="47.9373" lon="7.0223">
        <ele>1206.8</ele>
        <time>2021-03-31T12:33:19.000Z</time>
      </trkpt>
      <trkpt lat="47.9374" lon="7.02235">
        <ele>1206.4</ele>
        <time>2021-03-31T12:33:28.000Z</time>
      </trkpt>
      <trkpt lat="47.93748" lon="7.02238">
        <ele>1205.9</ele>
        <time>2021-03-31T12:33:35.000Z</time>
      </trkpt>
      <trkpt lat="47.93758" lon="7.02242">
        <ele>1206.1</ele>
        <time>2021-03-31T12:33:43.000Z</time>
      </trkpt>
      <trkpt lat="47.93767" lon="7.02248">
        <ele>1206.6</ele>
        <time>2021-03-31T12:33:51.000Z</time>
      </trkpt>
      <trkpt lat="47.93776" lon="7.02251">
        <ele>1206.9</ele>
        <time>2021-03-31T12:33:58.000Z</time>
      </trkpt>
      <trkpt lat="47.93785" lon="7.02255">
        <ele>1207.4</ele>
        <time>2021-03-31T12:34:05.000Z</time>
      </trkpt>
      <trkpt lat="47.93794" lon="7.0226">
        <ele>1207.7</ele>
        <time>2021-03-31T12:34:12.000Z</time>
      </trkpt>
      <trkpt lat="47.93803" lon="7.02263">
        <ele>1208.1</ele>
        <time>2021-03-31T12:34:20.000Z</time>
      </trkpt>
      <trkpt lat="47.93812" lon="7.02267">
        <ele>1208.4</ele>
        <time>2021-03-31T12:34:27.000Z</time>
      </trkpt>
      <trkpt lat="47.93822" lon="7.02271">
        <ele>1208.7</ele>
        <time>2021-03-31T12:34:36.000Z</time>
      </trkpt>
      <trkpt lat="47.93832" lon="7.02274">
        <ele>1209</ele>
        <time>2021-03-31T12:34:44.000Z</time>
      </trkpt>
      <trkpt lat="47.93841" lon="7.02279">
        <ele>1209.5</ele>
        <time>2021-03-31T12:34:52.000Z</time>
      </trkpt>
      <trkpt lat="47.9385" lon="7.02283">
        <ele>1210.2</ele>
        <time>2021-03-31T12:35:00.000Z</time>
      </trkpt>
      <trkpt lat="47.93859" lon="7.02288">
        <ele>1210.7</ele>
        <time>2021-03-31T12:35:08.000Z</time>
      </trkpt>
      <trkpt lat="47.93868" lon="7.02291">
        <ele>1211.3</ele>
        <time>2021-03-31T12:35:16.000Z</time>
      </trkpt>
      <trkpt lat="47.93877" lon="7.02295">
        <ele>1211.8</ele>
        <time>2021-03-31T12:35:24.000Z</time>
      </trkpt>
      <trkpt lat="47.93887" lon="7.02297">
        <ele>1212.4</ele>
        <time>2021-03-31T12:35:34.000Z</time>
      </trkpt>
      <trkpt lat="47.93895" lon="7.02303">
        <ele>1212.8</ele>
        <time>2021-03-31T12:36:27.000Z</time>
      </trkpt>
      <trkpt lat="47.93904" lon="7.02304">
        <ele>1213.3</ele>
        <time>2021-03-31T12:36:53.000Z</time>
      </trkpt>
      <trkpt lat="47.93913" lon="7.0231">
        <ele>1213.6</ele>
        <time>2021-03-31T12:37:01.000Z</time>
      </trkpt>
      <trkpt lat="47.93923" lon="7.0231">
        <ele>1214.2</ele>
        <time>2021-03-31T12:37:09.000Z</time>
      </trkpt>
      <trkpt lat="47.93933" lon="7.02314">
        <ele>1214.7</ele>
        <time>2021-03-31T12:37:17.000Z</time>
      </trkpt>
      <trkpt lat="47.93942" lon="7.02315">
        <ele>1215.3</ele>
        <time>2021-03-31T12:37:23.000Z</time>
      </trkpt>
      <trkpt lat="47.9395" lon="7.02319">
        <ele>1215.7</ele>
        <time>2021-03-31T12:37:31.000Z</time>
      </trkpt>
      <trkpt lat="47.93959" lon="7.02323">
        <ele>1216.2</ele>
        <time>2021-03-31T12:37:38.000Z</time>
      </trkpt>
      <trkpt lat="47.93968" lon="7.02325">
        <ele>1216.8</ele>
        <time>2021-03-31T12:37:46.000Z</time>
      </trkpt>
      <trkpt lat="47.93978" lon="7.02328">
        <ele>1217.4</ele>
        <time>2021-03-31T12:37:55.000Z</time>
      </trkpt>
      <trkpt lat="47.93987" lon="7.02327">
        <ele>1218.1</ele>
        <time>2021-03-31T12:38:05.000Z</time>
      </trkpt>
      <trkpt lat="47.93997" lon="7.02323">
        <ele>1218.8</ele>
        <time>2021-03-31T12:38:14.000Z</time>
      </trkpt>
      <trkpt lat="47.94006" lon="7.02324">
        <ele>1218.8</ele>
        <time>2021-03-31T12:38:22.000Z</time>
      </trkpt>
      <trkpt lat="47.94014" lon="7.0233">
        <ele>1218.5</ele>
        <time>2021-03-31T12:38:32.000Z</time>
      </trkpt>
      <trkpt lat="47.94023" lon="7.02331">
        <ele>1218.1</ele>
        <time>2021-03-31T12:38:40.000Z</time>
      </trkpt>
      <trkpt lat="47.94033" lon="7.0233">
        <ele>1217.8</ele>
        <time>2021-03-31T12:38:49.000Z</time>
      </trkpt>
      <trkpt lat="47.94042" lon="7.02332">
        <ele>1217.5</ele>
        <time>2021-03-31T12:38:56.000Z</time>
      </trkpt>
      <trkpt lat="47.94052" lon="7.02334">
        <ele>1217.1</ele>
        <time>2021-03-31T12:39:04.000Z</time>
      </trkpt>
      <trkpt lat="47.94061" lon="7.02337">
        <ele>1216.7</ele>
        <time>2021-03-31T12:39:13.000Z</time>
      </trkpt>
      <trkpt lat="47.9407" lon="7.02338">
        <ele>1216.3</ele>
        <time>2021-03-31T12:39:24.000Z</time>
      </trkpt>
      <trkpt lat="47.9408" lon="7.0234">
        <ele>1215.9</ele>
        <time>2021-03-31T12:39:33.000Z</time>
      </trkpt>
      <trkpt lat="47.94089" lon="7.02342">
        <ele>1215.6</ele>
        <time>2021-03-31T12:39:41.000Z</time>
      </trkpt>
      <trkpt lat="47.94098" lon="7.02345">
        <ele>1215.5</ele>
        <time>2021-03-31T12:39:49.000Z</time>
      </trkpt>
      <trkpt lat="47.94106" lon="7.02354">
        <ele>1215.2</ele>
        <time>2021-03-31T12:39:57.000Z</time>
      </trkpt>
      <trkpt lat="47.94114" lon="7.02361">
        <ele>1215</ele>
        <time>2021-03-31T12:40:04.000Z</time>
      </trkpt>
      <trkpt lat="47.94123" lon="7.02363">
        <ele>1215</ele>
        <time>2021-03-31T12:40:11.000Z</time>
      </trkpt>
      <trkpt lat="47.94133" lon="7.02357">
        <ele>1215.1</ele>
        <time>2021-03-31T12:40:19.000Z</time>
      </trkpt>
      <trkpt lat="47.94142" lon="7.02351">
        <ele>1215.1</ele>
        <time>2021-03-31T12:40:28.000Z</time>
      </trkpt>
      <trkpt lat="47.94152" lon="7.02349">
        <ele>1215.1</ele>
        <time>2021-03-31T12:40:37.000Z</time>
      </trkpt>
      <trkpt lat="47.94161" lon="7.02349">
        <ele>1215</ele>
        <time>2021-03-31T12:40:45.000Z</time>
      </trkpt>
      <trkpt lat="47.94171" lon="7.02349">
        <ele>1215.6</ele>
        <time>2021-03-31T12:40:53.000Z</time>
      </trkpt>
      <trkpt lat="47.9418" lon="7.0235">
        <ele>1216.9</ele>
        <time>2021-03-31T12:41:02.000Z</time>
      </trkpt>
      <trkpt lat="47.94189" lon="7.0235">
        <ele>1218.2</ele>
        <time>2021-03-31T12:41:11.000Z</time>
      </trkpt>
      <trkpt lat="47.94199" lon="7.02351">
        <ele>1219.6</ele>
        <time>2021-03-31T12:41:20.000Z</time>
      </trkpt>
      <trkpt lat="47.94209" lon="7.02351">
        <ele>1221</ele>
        <time>2021-03-31T12:41:29.000Z</time>
      </trkpt>
      <trkpt lat="47.94219" lon="7.02351">
        <ele>1222.4</ele>
        <time>2021-03-31T12:41:38.000Z</time>
      </trkpt>
      <trkpt lat="47.94228" lon="7.02352">
        <ele>1223.7</ele>
        <time>2021-03-31T12:41:46.000Z</time>
      </trkpt>
      <trkpt lat="47.94237" lon="7.02351">
        <ele>1225</ele>
        <time>2021-03-31T12:41:54.000Z</time>
      </trkpt>
      <trkpt lat="47.94246" lon="7.02352">
        <ele>1226.3</ele>
        <time>2021-03-31T12:42:04.000Z</time>
      </trkpt>
      <trkpt lat="47.94256" lon="7.02352">
        <ele>1227.8</ele>
        <time>2021-03-31T12:42:12.000Z</time>
      </trkpt>
      <trkpt lat="47.94265" lon="7.02353">
        <ele>1229.5</ele>
        <time>2021-03-31T12:42:21.000Z</time>
      </trkpt>
      <trkpt lat="47.94272" lon="7.02343">
        <ele>1231</ele>
        <time>2021-03-31T12:42:38.000Z</time>
      </trkpt>
      <trkpt lat="47.94279" lon="7.02334">
        <ele>1232.6</ele>
        <time>2021-03-31T12:42:57.000Z</time>
      </trkpt>
      <trkpt lat="47.94289" lon="7.02336">
        <ele>1234.4</ele>
        <time>2021-03-31T12:43:08.000Z</time>
      </trkpt>
      <trkpt lat="47.94298" lon="7.02339">
        <ele>1236</ele>
        <time>2021-03-31T12:43:23.000Z</time>
      </trkpt>
      <trkpt lat="47.94307" lon="7.02338">
        <ele>1237.7</ele>
        <time>2021-03-31T12:43:32.000Z</time>
      </trkpt>
      <trkpt lat="47.94316" lon="7.02338">
        <ele>1239.5</ele>
        <time>2021-03-31T12:43:42.000Z</time>
      </trkpt>
      <trkpt lat="47.94325" lon="7.02337">
        <ele>1241.3</ele>
        <time>2021-03-31T12:43:56.000Z</time>
      </trkpt>
      <trkpt lat="47.94333" lon="7.0233">
        <ele>1243</ele>
        <time>2021-03-31T12:44:07.000Z</time>
      </trkpt>
      <trkpt lat="47.94343" lon="7.02328">
        <ele>1244.1</ele>
        <time>2021-03-31T12:44:20.000Z</time>
      </trkpt>
      <trkpt lat="47.94352" lon="7.02331">
        <ele>1245</ele>
        <time>2021-03-31T12:44:31.000Z</time>
      </trkpt>
      <trkpt lat="47.94361" lon="7.02332">
        <ele>1246</ele>
        <time>2021-03-31T12:44:46.000Z</time>
      </trkpt>
      <trkpt lat="47.9437" lon="7.02332">
        <ele>1246.9</ele>
        <time>2021-03-31T12:45:01.000Z</time>
      </trkpt>
      <trkpt lat="47.94379" lon="7.02336">
        <ele>1247.8</ele>
        <time>2021-03-31T12:45:11.000Z</time>
      </trkpt>
      <trkpt lat="47.94388" lon="7.0233">
        <ele>1248.9</ele>
        <time>2021-03-31T12:45:23.000Z</time>
      </trkpt>
      <trkpt lat="47.94397" lon="7.02332">
        <ele>1250</ele>
        <time>2021-03-31T12:45:33.000Z</time>
      </trkpt>
      <trkpt lat="47.94406" lon="7.0234">
        <ele>1250.6</ele>
        <time>2021-03-31T12:45:45.000Z</time>
      </trkpt>
      <trkpt lat="47.94415" lon="7.02344">
        <ele>1251.5</ele>
        <time>2021-03-31T12:45:54.000Z</time>
      </trkpt>
      <trkpt lat="47.94433" lon="7.02363">
        <ele>1252.4</ele>
        <time>2021-03-31T12:46:11.000Z</time>
      </trkpt>
      <trkpt lat="47.94455" lon="7.02371">
        <ele>1254.3</ele>
        <time>2021-03-31T12:46:16.000Z</time>
      </trkpt>
      <trkpt lat="47.94459" lon="7.02398">
        <ele>1254.1</ele>
        <time>2021-03-31T12:46:21.000Z</time>
      </trkpt>
      <trkpt lat="47.94446" lon="7.02408">
        <ele>1252.4</ele>
        <time>2021-03-31T12:46:26.000Z</time>
      </trkpt>
      <trkpt lat="47.94438" lon="7.02398">
        <ele>1251.9</ele>
        <time>2021-03-31T12:46:34.000Z</time>
      </trkpt>
      <trkpt lat="47.94432" lon="7.02378">
        <ele>1251.9</ele>
        <time>2021-03-31T12:46:43.000Z</time>
      </trkpt>
      <trkpt lat="47.94422" lon="7.02362">
        <ele>1251.4</ele>
        <time>2021-03-31T12:46:54.000Z</time>
      </trkpt>
      <trkpt lat="47.94421" lon="7.02346">
        <ele>1251.9</ele>
        <time>2021-03-31T12:47:17.000Z</time>
      </trkpt>
      <trkpt lat="47.9443" lon="7.02343">
        <ele>1252.8</ele>
        <time>2021-03-31T12:48:27.000Z</time>
      </trkpt>
      <trkpt lat="47.94439" lon="7.02337">
        <ele>1253.8</ele>
        <time>2021-03-31T12:48:40.000Z</time>
      </trkpt>
      <trkpt lat="47.94447" lon="7.0233">
        <ele>1254.6</ele>
        <time>2021-03-31T12:48:55.000Z</time>
      </trkpt>
      <trkpt lat="47.94451" lon="7.02318">
        <ele>1255.1</ele>
        <time>2021-03-31T12:49:14.000Z</time>
      </trkpt>
      <trkpt lat="47.94461" lon="7.02316">
        <ele>1255.8</ele>
        <time>2021-03-31T12:49:28.000Z</time>
      </trkpt>
      <trkpt lat="47.94469" lon="7.02321">
        <ele>1256.4</ele>
        <time>2021-03-31T12:49:40.000Z</time>
      </trkpt>
      <trkpt lat="47.94478" lon="7.02328">
        <ele>1257.1</ele>
        <time>2021-03-31T12:49:48.000Z</time>
      </trkpt>
      <trkpt lat="47.94487" lon="7.0233">
        <ele>1257.9</ele>
        <time>2021-03-31T12:49:57.000Z</time>
      </trkpt>
      <trkpt lat="47.94496" lon="7.02328">
        <ele>1258.6</ele>
        <time>2021-03-31T12:50:08.000Z</time>
      </trkpt>
      <trkpt lat="47.94503" lon="7.02318">
        <ele>1258.9</ele>
        <time>2021-03-31T12:50:25.000Z</time>
      </trkpt>
      <trkpt lat="47.94512" lon="7.02313">
        <ele>1259</ele>
        <time>2021-03-31T12:50:37.000Z</time>
      </trkpt>
      <trkpt lat="47.94522" lon="7.02314">
        <ele>1259.3</ele>
        <time>2021-03-31T12:50:43.000Z</time>
      </trkpt>
      <trkpt lat="47.94532" lon="7.02314">
        <ele>1259.6</ele>
        <time>2021-03-31T12:50:49.000Z</time>
      </trkpt>
      <trkpt lat="47.94543" lon="7.02314">
        <ele>1259.8</ele>
        <time>2021-03-31T12:50:55.000Z</time>
      </trkpt>
      <trkpt lat="47.94552" lon="7.02314">
        <ele>1260.1</ele>
        <time>2021-03-31T12:51:01.000Z</time>
      </trkpt>
      <trkpt lat="47.94561" lon="7.02319">
        <ele>1260.5</ele>
        <time>2021-03-31T12:51:09.000Z</time>
      </trkpt>
      <trkpt lat="47.9457" lon="7.02326">
        <ele>1261.1</ele>
        <time>2021-03-31T12:51:18.000Z</time>
      </trkpt>
      <trkpt lat="47.94578" lon="7.02332">
        <ele>1261.7</ele>
        <time>2021-03-31T12:52:09.000Z</time>
      </trkpt>
      <trkpt lat="47.94586" lon="7.02337">
        <ele>1262.2</ele>
        <time>2021-03-31T12:52:18.000Z</time>
      </trkpt>
      <trkpt lat="47.94577" lon="7.02335">
        <ele>1261.8</ele>
        <time>2021-03-31T12:52:40.000Z</time>
      </trkpt>
      <trkpt lat="47.94571" lon="7.02346">
        <ele>1261.8</ele>
        <time>2021-03-31T12:52:51.000Z</time>
      </trkpt>
      <trkpt lat="47.94572" lon="7.0236">
        <ele>1262.1</ele>
        <time>2021-03-31T12:52:58.000Z</time>
      </trkpt>
      <trkpt lat="47.94573" lon="7.02374">
        <ele>1262.4</ele>
        <time>2021-03-31T12:53:05.000Z</time>
      </trkpt>
      <trkpt lat="47.94577" lon="7.02386">
        <ele>1262.9</ele>
        <time>2021-03-31T12:53:14.000Z</time>
      </trkpt>
      <trkpt lat="47.9458" lon="7.024">
        <ele>1263.4</ele>
        <time>2021-03-31T12:53:21.000Z</time>
      </trkpt>
      <trkpt lat="47.94583" lon="7.02412">
        <ele>1263.9</ele>
        <time>2021-03-31T12:53:29.000Z</time>
      </trkpt>
      <trkpt lat="47.94585" lon="7.02427">
        <ele>1264.4</ele>
        <time>2021-03-31T12:53:37.000Z</time>
      </trkpt>
      <trkpt lat="47.94588" lon="7.0244">
        <ele>1265.1</ele>
        <time>2021-03-31T12:53:45.000Z</time>
      </trkpt>
      <trkpt lat="47.9459" lon="7.02453">
        <ele>1265.7</ele>
        <time>2021-03-31T12:53:54.000Z</time>
      </trkpt>
      <trkpt lat="47.94592" lon="7.02468">
        <ele>1266.4</ele>
        <time>2021-03-31T12:54:04.000Z</time>
      </trkpt>
      <trkpt lat="47.94594" lon="7.02482">
        <ele>1267.1</ele>
        <time>2021-03-31T12:54:14.000Z</time>
      </trkpt>
      <trkpt lat="47.94596" lon="7.02496">
        <ele>1267.8</ele>
        <time>2021-03-31T12:54:22.000Z</time>
      </trkpt>
      <trkpt lat="47.94599" lon="7.0251">
        <ele>1268.2</ele>
        <time>2021-03-31T12:54:30.000Z</time>
      </trkpt>
      <trkpt lat="47.94601" lon="7.02525">
        <ele>1268.4</ele>
        <time>2021-03-31T12:54:37.000Z</time>
      </trkpt>
      <trkpt lat="47.94603" lon="7.02539">
        <ele>1268.6</ele>
        <time>2021-03-31T12:54:45.000Z</time>
      </trkpt>
      <trkpt lat="47.94603" lon="7.02554">
        <ele>1268.7</ele>
        <time>2021-03-31T12:54:56.000Z</time>
      </trkpt>
      <trkpt lat="47.94607" lon="7.02567">
        <ele>1269.1</ele>
        <time>2021-03-31T12:55:04.000Z</time>
      </trkpt>
      <trkpt lat="47.94612" lon="7.02579">
        <ele>1269.7</ele>
        <time>2021-03-31T12:55:13.000Z</time>
      </trkpt>
      <trkpt lat="47.94618" lon="7.0259">
        <ele>1270.2</ele>
        <time>2021-03-31T12:55:21.000Z</time>
      </trkpt>
      <trkpt lat="47.94622" lon="7.02602">
        <ele>1270.5</ele>
        <time>2021-03-31T12:55:28.000Z</time>
      </trkpt>
      <trkpt lat="47.94628" lon="7.02615">
        <ele>1270.9</ele>
        <time>2021-03-31T12:55:35.000Z</time>
      </trkpt>
      <trkpt lat="47.94634" lon="7.02626">
        <ele>1271.6</ele>
        <time>2021-03-31T12:55:44.000Z</time>
      </trkpt>
      <trkpt lat="47.94642" lon="7.02639">
        <ele>1272.4</ele>
        <time>2021-03-31T12:55:51.000Z</time>
      </trkpt>
      <trkpt lat="47.94646" lon="7.0265">
        <ele>1273.1</ele>
        <time>2021-03-31T12:55:59.000Z</time>
      </trkpt>
      <trkpt lat="47.94651" lon="7.02664">
        <ele>1273.7</ele>
        <time>2021-03-31T12:56:06.000Z</time>
      </trkpt>
      <trkpt lat="47.94657" lon="7.02676">
        <ele>1274.3</ele>
        <time>2021-03-31T12:56:16.000Z</time>
      </trkpt>
      <trkpt lat="47.94664" lon="7.02687">
        <ele>1275.1</ele>
        <time>2021-03-31T12:56:24.000Z</time>
      </trkpt>
      <trkpt lat="47.94671" lon="7.02698">
        <ele>1275.5</ele>
        <time>2021-03-31T12:56:32.000Z</time>
      </trkpt>
      <trkpt lat="47.94679" lon="7.02705">
        <ele>1275.7</ele>
        <time>2021-03-31T12:56:39.000Z</time>
      </trkpt>
      <trkpt lat="47.94686" lon="7.02716">
        <ele>1275.7</ele>
        <time>2021-03-31T12:56:47.000Z</time>
      </trkpt>
      <trkpt lat="47.94693" lon="7.02726">
        <ele>1275.7</ele>
        <time>2021-03-31T12:56:55.000Z</time>
      </trkpt>
      <trkpt lat="47.94701" lon="7.02736">
        <ele>1275.7</ele>
        <time>2021-03-31T12:57:04.000Z</time>
      </trkpt>
      <trkpt lat="47.9471" lon="7.02744">
        <ele>1275.8</ele>
        <time>2021-03-31T12:57:10.000Z</time>
      </trkpt>
      <trkpt lat="47.94717" lon="7.02755">
        <ele>1275.5</ele>
        <time>2021-03-31T12:57:20.000Z</time>
      </trkpt>
      <trkpt lat="47.94724" lon="7.02765">
        <ele>1275.4</ele>
        <time>2021-03-31T12:57:27.000Z</time>
      </trkpt>
      <trkpt lat="47.94731" lon="7.02775">
        <ele>1275.3</ele>
        <time>2021-03-31T12:57:34.000Z</time>
      </trkpt>
      <trkpt lat="47.94739" lon="7.02784">
        <ele>1275.5</ele>
        <time>2021-03-31T12:57:43.000Z</time>
      </trkpt>
      <trkpt lat="47.94747" lon="7.02792">
        <ele>1275.8</ele>
        <time>2021-03-31T12:57:50.000Z</time>
      </trkpt>
      <trkpt lat="47.94755" lon="7.028">
        <ele>1275.9</ele>
        <time>2021-03-31T12:57:57.000Z</time>
      </trkpt>
      <trkpt lat="47.94762" lon="7.02807">
        <ele>1275.8</ele>
        <time>2021-03-31T12:58:06.000Z</time>
      </trkpt>
      <trkpt lat="47.94771" lon="7.02815">
        <ele>1275.8</ele>
        <time>2021-03-31T12:58:14.000Z</time>
      </trkpt>
      <trkpt lat="47.94778" lon="7.02823">
        <ele>1275.8</ele>
        <time>2021-03-31T12:58:21.000Z</time>
      </trkpt>
      <trkpt lat="47.94787" lon="7.02831">
        <ele>1275.9</ele>
        <time>2021-03-31T12:58:29.000Z</time>
      </trkpt>
      <trkpt lat="47.94794" lon="7.0284">
        <ele>1276.1</ele>
        <time>2021-03-31T12:58:37.000Z</time>
      </trkpt>
      <trkpt lat="47.94803" lon="7.02848">
        <ele>1276.3</ele>
        <time>2021-03-31T12:58:46.000Z</time>
      </trkpt>
      <trkpt lat="47.9481" lon="7.02857">
        <ele>1276.6</ele>
        <time>2021-03-31T12:58:53.000Z</time>
      </trkpt>
      <trkpt lat="47.94817" lon="7.02867">
        <ele>1276.8</ele>
        <time>2021-03-31T12:59:03.000Z</time>
      </trkpt>
      <trkpt lat="47.94825" lon="7.02875">
        <ele>1277.2</ele>
        <time>2021-03-31T12:59:11.000Z</time>
      </trkpt>
      <trkpt lat="47.94833" lon="7.02883">
        <ele>1277.6</ele>
        <time>2021-03-31T12:59:19.000Z</time>
      </trkpt>
      <trkpt lat="47.94841" lon="7.0289">
        <ele>1277.3</ele>
        <time>2021-03-31T12:59:26.000Z</time>
      </trkpt>
      <trkpt lat="47.94848" lon="7.02899">
        <ele>1277</ele>
        <time>2021-03-31T12:59:34.000Z</time>
      </trkpt>
      <trkpt lat="47.94855" lon="7.02908">
        <ele>1276.8</ele>
        <time>2021-03-31T12:59:43.000Z</time>
      </trkpt>
      <trkpt lat="47.94862" lon="7.02919">
        <ele>1276.6</ele>
        <time>2021-03-31T12:59:52.000Z</time>
      </trkpt>
      <trkpt lat="47.94868" lon="7.02931">
        <ele>1276.2</ele>
        <time>2021-03-31T13:00:01.000Z</time>
      </trkpt>
      <trkpt lat="47.94875" lon="7.0294">
        <ele>1275.9</ele>
        <time>2021-03-31T13:00:08.000Z</time>
      </trkpt>
      <trkpt lat="47.9488" lon="7.02952">
        <ele>1275.6</ele>
        <time>2021-03-31T13:00:17.000Z</time>
      </trkpt>
      <trkpt lat="47.94887" lon="7.02963">
        <ele>1275.4</ele>
        <time>2021-03-31T13:00:24.000Z</time>
      </trkpt>
      <trkpt lat="47.94893" lon="7.02974">
        <ele>1275.2</ele>
        <time>2021-03-31T13:00:31.000Z</time>
      </trkpt>
      <trkpt lat="47.94899" lon="7.02986">
        <ele>1275.2</ele>
        <time>2021-03-31T13:00:39.000Z</time>
      </trkpt>
      <trkpt lat="47.94906" lon="7.02998">
        <ele>1275.1</ele>
        <time>2021-03-31T13:00:47.000Z</time>
      </trkpt>
      <trkpt lat="47.94913" lon="7.03008">
        <ele>1274.9</ele>
        <time>2021-03-31T13:00:55.000Z</time>
      </trkpt>
      <trkpt lat="47.94919" lon="7.03021">
        <ele>1274.6</ele>
        <time>2021-03-31T13:01:03.000Z</time>
      </trkpt>
      <trkpt lat="47.94925" lon="7.03034">
        <ele>1274.2</ele>
        <time>2021-03-31T13:01:11.000Z</time>
      </trkpt>
      <trkpt lat="47.94931" lon="7.03044">
        <ele>1273.8</ele>
        <time>2021-03-31T13:01:19.000Z</time>
      </trkpt>
      <trkpt lat="47.94938" lon="7.03055">
        <ele>1273.3</ele>
        <time>2021-03-31T13:01:26.000Z</time>
      </trkpt>
      <trkpt lat="47.94945" lon="7.03065">
        <ele>1272.7</ele>
        <time>2021-03-31T13:01:34.000Z</time>
      </trkpt>
      <trkpt lat="47.94952" lon="7.03076">
        <ele>1272.1</ele>
        <time>2021-03-31T13:01:42.000Z</time>
      </trkpt>
      <trkpt lat="47.94957" lon="7.03087">
        <ele>1271.5</ele>
        <time>2021-03-31T13:01:49.000Z</time>
      </trkpt>
      <trkpt lat="47.94964" lon="7.03097">
        <ele>1270.7</ele>
        <time>2021-03-31T13:01:56.000Z</time>
      </trkpt>
      <trkpt lat="47.9497" lon="7.03107">
        <ele>1270</ele>
        <time>2021-03-31T13:02:03.000Z</time>
      </trkpt>
      <trkpt lat="47.94977" lon="7.03117">
        <ele>1269.3</ele>
        <time>2021-03-31T13:02:12.000Z</time>
      </trkpt>
      <trkpt lat="47.94985" lon="7.03127">
        <ele>1268.7</ele>
        <time>2021-03-31T13:02:20.000Z</time>
      </trkpt>
      <trkpt lat="47.94993" lon="7.03136">
        <ele>1268.1</ele>
        <time>2021-03-31T13:02:26.000Z</time>
      </trkpt>
      <trkpt lat="47.94999" lon="7.03147">
        <ele>1267.5</ele>
        <time>2021-03-31T13:02:36.000Z</time>
      </trkpt>
      <trkpt lat="47.95004" lon="7.03158">
        <ele>1266.9</ele>
        <time>2021-03-31T13:02:45.000Z</time>
      </trkpt>
      <trkpt lat="47.95013" lon="7.03165">
        <ele>1266.1</ele>
        <time>2021-03-31T13:02:52.000Z</time>
      </trkpt>
      <trkpt lat="47.9502" lon="7.03176">
        <ele>1265.1</ele>
        <time>2021-03-31T13:03:01.000Z</time>
      </trkpt>
      <trkpt lat="47.95029" lon="7.03185">
        <ele>1264.2</ele>
        <time>2021-03-31T13:03:09.000Z</time>
      </trkpt>
      <trkpt lat="47.95035" lon="7.03195">
        <ele>1263.3</ele>
        <time>2021-03-31T13:03:18.000Z</time>
      </trkpt>
      <trkpt lat="47.95043" lon="7.03202">
        <ele>1262.7</ele>
        <time>2021-03-31T13:03:26.000Z</time>
      </trkpt>
      <trkpt lat="47.9505" lon="7.03211">
        <ele>1262</ele>
        <time>2021-03-31T13:03:32.000Z</time>
      </trkpt>
      <trkpt lat="47.95058" lon="7.03221">
        <ele>1261.4</ele>
        <time>2021-03-31T13:03:42.000Z</time>
      </trkpt>
      <trkpt lat="47.95065" lon="7.03231">
        <ele>1260.9</ele>
        <time>2021-03-31T13:03:51.000Z</time>
      </trkpt>
      <trkpt lat="47.95073" lon="7.03239">
        <ele>1260.5</ele>
        <time>2021-03-31T13:03:58.000Z</time>
      </trkpt>
      <trkpt lat="47.9508" lon="7.03246">
        <ele>1260.1</ele>
        <time>2021-03-31T13:04:07.000Z</time>
      </trkpt>
      <trkpt lat="47.95089" lon="7.03253">
        <ele>1259.3</ele>
        <time>2021-03-31T13:04:16.000Z</time>
      </trkpt>
      <trkpt lat="47.95098" lon="7.0326">
        <ele>1258.1</ele>
        <time>2021-03-31T13:04:24.000Z</time>
      </trkpt>
      <trkpt lat="47.95106" lon="7.03266">
        <ele>1257.1</ele>
        <time>2021-03-31T13:04:32.000Z</time>
      </trkpt>
      <trkpt lat="47.95114" lon="7.03273">
        <ele>1256.1</ele>
        <time>2021-03-31T13:04:39.000Z</time>
      </trkpt>
      <trkpt lat="47.95123" lon="7.03277">
        <ele>1255.2</ele>
        <time>2021-03-31T13:04:46.000Z</time>
      </trkpt>
      <trkpt lat="47.9513" lon="7.03288">
        <ele>1254.2</ele>
        <time>2021-03-31T13:04:56.000Z</time>
      </trkpt>
      <trkpt lat="47.95139" lon="7.03293">
        <ele>1253.5</ele>
        <time>2021-03-31T13:05:03.000Z</time>
      </trkpt>
      <trkpt lat="47.95148" lon="7.03298">
        <ele>1252.7</ele>
        <time>2021-03-31T13:05:12.000Z</time>
      </trkpt>
      <trkpt lat="47.95157" lon="7.03305">
        <ele>1252</ele>
        <time>2021-03-31T13:05:21.000Z</time>
      </trkpt>
      <trkpt lat="47.95164" lon="7.03315">
        <ele>1251.4</ele>
        <time>2021-03-31T13:05:30.000Z</time>
      </trkpt>
      <trkpt lat="47.95171" lon="7.03325">
        <ele>1250.7</ele>
        <time>2021-03-31T13:05:37.000Z</time>
      </trkpt>
      <trkpt lat="47.95178" lon="7.03335">
        <ele>1249.8</ele>
        <time>2021-03-31T13:05:45.000Z</time>
      </trkpt>
      <trkpt lat="47.95187" lon="7.03343">
        <ele>1248.8</ele>
        <time>2021-03-31T13:05:53.000Z</time>
      </trkpt>
      <trkpt lat="47.95194" lon="7.03352">
        <ele>1248</ele>
        <time>2021-03-31T13:06:03.000Z</time>
      </trkpt>
      <trkpt lat="47.95202" lon="7.03359">
        <ele>1247.3</ele>
        <time>2021-03-31T13:06:12.000Z</time>
      </trkpt>
      <trkpt lat="47.95211" lon="7.03366">
        <ele>1246.7</ele>
        <time>2021-03-31T13:06:22.000Z</time>
      </trkpt>
      <trkpt lat="47.95219" lon="7.03372">
        <ele>1246.1</ele>
        <time>2021-03-31T13:06:34.000Z</time>
      </trkpt>
      <trkpt lat="47.95229" lon="7.03374">
        <ele>1245.6</ele>
        <time>2021-03-31T13:06:42.000Z</time>
      </trkpt>
      <trkpt lat="47.95238" lon="7.03377">
        <ele>1245.2</ele>
        <time>2021-03-31T13:06:51.000Z</time>
      </trkpt>
      <trkpt lat="47.95247" lon="7.03379">
        <ele>1244.8</ele>
        <time>2021-03-31T13:06:58.000Z</time>
      </trkpt>
      <trkpt lat="47.95257" lon="7.0338">
        <ele>1244.7</ele>
        <time>2021-03-31T13:07:08.000Z</time>
      </trkpt>
      <trkpt lat="47.95266" lon="7.03378">
        <ele>1244.8</ele>
        <time>2021-03-31T13:07:14.000Z</time>
      </trkpt>
      <trkpt lat="47.95275" lon="7.03377">
        <ele>1244.7</ele>
        <time>2021-03-31T13:07:21.000Z</time>
      </trkpt>
      <trkpt lat="47.95285" lon="7.03373">
        <ele>1244.6</ele>
        <time>2021-03-31T13:07:30.000Z</time>
      </trkpt>
      <trkpt lat="47.95295" lon="7.03372">
        <ele>1244.6</ele>
        <time>2021-03-31T13:07:37.000Z</time>
      </trkpt>
      <trkpt lat="47.95305" lon="7.03373">
        <ele>1244.7</ele>
        <time>2021-03-31T13:07:45.000Z</time>
      </trkpt>
      <trkpt lat="47.95315" lon="7.03368">
        <ele>1244.3</ele>
        <time>2021-03-31T13:07:52.000Z</time>
      </trkpt>
      <trkpt lat="47.95324" lon="7.03365">
        <ele>1244.1</ele>
        <time>2021-03-31T13:07:59.000Z</time>
      </trkpt>
      <trkpt lat="47.95333" lon="7.03359">
        <ele>1243.4</ele>
        <time>2021-03-31T13:08:10.000Z</time>
      </trkpt>
      <trkpt lat="47.95342" lon="7.03355">
        <ele>1243.5</ele>
        <time>2021-03-31T13:08:18.000Z</time>
      </trkpt>
      <trkpt lat="47.95352" lon="7.03353">
        <ele>1243.9</ele>
        <time>2021-03-31T13:08:26.000Z</time>
      </trkpt>
      <trkpt lat="47.95361" lon="7.03351">
        <ele>1244.1</ele>
        <time>2021-03-31T13:08:33.000Z</time>
      </trkpt>
      <trkpt lat="47.9537" lon="7.03348">
        <ele>1244.3</ele>
        <time>2021-03-31T13:08:41.000Z</time>
      </trkpt>
      <trkpt lat="47.9538" lon="7.03345">
        <ele>1244.2</ele>
        <time>2021-03-31T13:08:50.000Z</time>
      </trkpt>
      <trkpt lat="47.95389" lon="7.03339">
        <ele>1243.9</ele>
        <time>2021-03-31T13:08:58.000Z</time>
      </trkpt>
      <trkpt lat="47.95398" lon="7.03334">
        <ele>1243.4</ele>
        <time>2021-03-31T13:09:05.000Z</time>
      </trkpt>
      <trkpt lat="47.95408" lon="7.03331">
        <ele>1243.2</ele>
        <time>2021-03-31T13:09:11.000Z</time>
      </trkpt>
      <trkpt lat="47.95418" lon="7.03332">
        <ele>1243.8</ele>
        <time>2021-03-31T13:09:17.000Z</time>
      </trkpt>
      <trkpt lat="47.95427" lon="7.0333">
        <ele>1243.4</ele>
        <time>2021-03-31T13:09:23.000Z</time>
      </trkpt>
      <trkpt lat="47.95437" lon="7.03327">
        <ele>1243</ele>
        <time>2021-03-31T13:09:31.000Z</time>
      </trkpt>
      <trkpt lat="47.95446" lon="7.03321">
        <ele>1241.9</ele>
        <time>2021-03-31T13:09:40.000Z</time>
      </trkpt>
      <trkpt lat="47.95455" lon="7.03317">
        <ele>1241.2</ele>
        <time>2021-03-31T13:09:48.000Z</time>
      </trkpt>
      <trkpt lat="47.95464" lon="7.03318">
        <ele>1241.7</ele>
        <time>2021-03-31T13:10:19.000Z</time>
      </trkpt>
      <trkpt lat="47.95474" lon="7.03315">
        <ele>1241.3</ele>
        <time>2021-03-31T13:10:27.000Z</time>
      </trkpt>
      <trkpt lat="47.95483" lon="7.03316">
        <ele>1241.6</ele>
        <time>2021-03-31T13:10:41.000Z</time>
      </trkpt>
      <trkpt lat="47.95492" lon="7.03316">
        <ele>1241.7</ele>
        <time>2021-03-31T13:10:49.000Z</time>
      </trkpt>
      <trkpt lat="47.95502" lon="7.03317">
        <ele>1242</ele>
        <time>2021-03-31T13:10:56.000Z</time>
      </trkpt>
      <trkpt lat="47.95511" lon="7.0332">
        <ele>1241.5</ele>
        <time>2021-03-31T13:11:03.000Z</time>
      </trkpt>
      <trkpt lat="47.9552" lon="7.03326">
        <ele>1241.8</ele>
        <time>2021-03-31T13:11:12.000Z</time>
      </trkpt>
      <trkpt lat="47.95529" lon="7.03328">
        <ele>1241.4</ele>
        <time>2021-03-31T13:11:19.000Z</time>
      </trkpt>
      <trkpt lat="47.95537" lon="7.03335">
        <ele>1241.6</ele>
        <time>2021-03-31T13:11:27.000Z</time>
      </trkpt>
      <trkpt lat="47.95545" lon="7.03342">
        <ele>1241.6</ele>
        <time>2021-03-31T13:11:34.000Z</time>
      </trkpt>
      <trkpt lat="47.95554" lon="7.03348">
        <ele>1241.6</ele>
        <time>2021-03-31T13:11:42.000Z</time>
      </trkpt>
      <trkpt lat="47.95561" lon="7.03358">
        <ele>1242</ele>
        <time>2021-03-31T13:11:49.000Z</time>
      </trkpt>
      <trkpt lat="47.95568" lon="7.03366">
        <ele>1242.1</ele>
        <time>2021-03-31T13:11:57.000Z</time>
      </trkpt>
      <trkpt lat="47.95575" lon="7.03377">
        <ele>1242.6</ele>
        <time>2021-03-31T13:12:07.000Z</time>
      </trkpt>
      <trkpt lat="47.9558" lon="7.03388">
        <ele>1243.3</ele>
        <time>2021-03-31T13:12:15.000Z</time>
      </trkpt>
      <trkpt lat="47.95586" lon="7.034">
        <ele>1243.8</ele>
        <time>2021-03-31T13:12:22.000Z</time>
      </trkpt>
      <trkpt lat="47.95592" lon="7.03411">
        <ele>1243.9</ele>
        <time>2021-03-31T13:12:29.000Z</time>
      </trkpt>
      <trkpt lat="47.95596" lon="7.03424">
        <ele>1244.5</ele>
        <time>2021-03-31T13:12:35.000Z</time>
      </trkpt>
      <trkpt lat="47.95599" lon="7.03438">
        <ele>1245.5</ele>
        <time>2021-03-31T13:12:43.000Z</time>
      </trkpt>
      <trkpt lat="47.95605" lon="7.0345">
        <ele>1245.8</ele>
        <time>2021-03-31T13:12:51.000Z</time>
      </trkpt>
      <trkpt lat="47.95612" lon="7.03461">
        <ele>1245.8</ele>
        <time>2021-03-31T13:12:59.000Z</time>
      </trkpt>
      <trkpt lat="47.95617" lon="7.03473">
        <ele>1246.4</ele>
        <time>2021-03-31T13:13:07.000Z</time>
      </trkpt>
      <trkpt lat="47.95622" lon="7.03485">
        <ele>1246.8</ele>
        <time>2021-03-31T13:13:15.000Z</time>
      </trkpt>
      <trkpt lat="47.95628" lon="7.03495">
        <ele>1247</ele>
        <time>2021-03-31T13:13:21.000Z</time>
      </trkpt>
      <trkpt lat="47.95634" lon="7.03507">
        <ele>1247.7</ele>
        <time>2021-03-31T13:13:28.000Z</time>
      </trkpt>
      <trkpt lat="47.9564" lon="7.03517">
        <ele>1248.2</ele>
        <time>2021-03-31T13:13:39.000Z</time>
      </trkpt>
      <trkpt lat="47.95648" lon="7.03527">
        <ele>1248.4</ele>
        <time>2021-03-31T13:13:53.000Z</time>
      </trkpt>
      <trkpt lat="47.95656" lon="7.03535">
        <ele>1248.1</ele>
        <time>2021-03-31T13:14:03.000Z</time>
      </trkpt>
      <trkpt lat="47.95664" lon="7.03541">
        <ele>1247.8</ele>
        <time>2021-03-31T13:14:11.000Z</time>
      </trkpt>
      <trkpt lat="47.95672" lon="7.03549">
        <ele>1247.6</ele>
        <time>2021-03-31T13:14:19.000Z</time>
      </trkpt>
      <trkpt lat="47.9568" lon="7.03556">
        <ele>1247.1</ele>
        <time>2021-03-31T13:14:26.000Z</time>
      </trkpt>
      <trkpt lat="47.95685" lon="7.03569">
        <ele>1248.1</ele>
        <time>2021-03-31T13:14:36.000Z</time>
      </trkpt>
      <trkpt lat="47.95694" lon="7.03575">
        <ele>1247.5</ele>
        <time>2021-03-31T13:14:43.000Z</time>
      </trkpt>
      <trkpt lat="47.95702" lon="7.0358">
        <ele>1247</ele>
        <time>2021-03-31T13:14:49.000Z</time>
      </trkpt>
      <trkpt lat="47.95711" lon="7.03585">
        <ele>1246.6</ele>
        <time>2021-03-31T13:14:56.000Z</time>
      </trkpt>
      <trkpt lat="47.95718" lon="7.03593">
        <ele>1247</ele>
        <time>2021-03-31T13:15:04.000Z</time>
      </trkpt>
      <trkpt lat="47.95727" lon="7.03598">
        <ele>1246.7</ele>
        <time>2021-03-31T13:15:11.000Z</time>
      </trkpt>
      <trkpt lat="47.95735" lon="7.03606">
        <ele>1246.9</ele>
        <time>2021-03-31T13:15:18.000Z</time>
      </trkpt>
      <trkpt lat="47.95744" lon="7.03611">
        <ele>1246.6</ele>
        <time>2021-03-31T13:15:26.000Z</time>
      </trkpt>
      <trkpt lat="47.95752" lon="7.03618">
        <ele>1246.8</ele>
        <time>2021-03-31T13:15:34.000Z</time>
      </trkpt>
      <trkpt lat="47.95762" lon="7.03622">
        <ele>1246.2</ele>
        <time>2021-03-31T13:15:41.000Z</time>
      </trkpt>
      <trkpt lat="47.9577" lon="7.03627">
        <ele>1246</ele>
        <time>2021-03-31T13:15:48.000Z</time>
      </trkpt>
      <trkpt lat="47.9578" lon="7.03633">
        <ele>1245.8</ele>
        <time>2021-03-31T13:15:57.000Z</time>
      </trkpt>
      <trkpt lat="47.95788" lon="7.0364">
        <ele>1246</ele>
        <time>2021-03-31T13:16:03.000Z</time>
      </trkpt>
      <trkpt lat="47.95796" lon="7.03646">
        <ele>1246.2</ele>
        <time>2021-03-31T13:16:10.000Z</time>
      </trkpt>
      <trkpt lat="47.95802" lon="7.03656">
        <ele>1247.3</ele>
        <time>2021-03-31T13:16:28.000Z</time>
      </trkpt>
      <trkpt lat="47.95812" lon="7.03662">
        <ele>1247.3</ele>
        <time>2021-03-31T13:16:36.000Z</time>
      </trkpt>
      <trkpt lat="47.9582" lon="7.03668">
        <ele>1247.2</ele>
        <time>2021-03-31T13:16:43.000Z</time>
      </trkpt>
      <trkpt lat="47.95828" lon="7.03673">
        <ele>1246.9</ele>
        <time>2021-03-31T13:16:49.000Z</time>
      </trkpt>
      <trkpt lat="47.95837" lon="7.0368">
        <ele>1246.9</ele>
        <time>2021-03-31T13:16:57.000Z</time>
      </trkpt>
      <trkpt lat="47.95845" lon="7.03684">
        <ele>1246.7</ele>
        <time>2021-03-31T13:17:04.000Z</time>
      </trkpt>
      <trkpt lat="47.95854" lon="7.03689">
        <ele>1246.7</ele>
        <time>2021-03-31T13:17:12.000Z</time>
      </trkpt>
      <trkpt lat="47.95862" lon="7.03694">
        <ele>1246.6</ele>
        <time>2021-03-31T13:17:20.000Z</time>
      </trkpt>
      <trkpt lat="47.95872" lon="7.03701">
        <ele>1246.7</ele>
        <time>2021-03-31T13:17:27.000Z</time>
      </trkpt>
      <trkpt lat="47.9588" lon="7.03706">
        <ele>1246.6</ele>
        <time>2021-03-31T13:17:33.000Z</time>
      </trkpt>
      <trkpt lat="47.95889" lon="7.03708">
        <ele>1245.9</ele>
        <time>2021-03-31T13:17:40.000Z</time>
      </trkpt>
      <trkpt lat="47.95898" lon="7.0371">
        <ele>1245.2</ele>
        <time>2021-03-31T13:17:47.000Z</time>
      </trkpt>
      <trkpt lat="47.95908" lon="7.03713">
        <ele>1244.6</ele>
        <time>2021-03-31T13:17:57.000Z</time>
      </trkpt>
      <trkpt lat="47.95917" lon="7.03719">
        <ele>1244.6</ele>
        <time>2021-03-31T13:18:06.000Z</time>
      </trkpt>
      <trkpt lat="47.95927" lon="7.03719">
        <ele>1244.5</ele>
        <time>2021-03-31T13:18:14.000Z</time>
      </trkpt>
      <trkpt lat="47.95936" lon="7.03721">
        <ele>1244.7</ele>
        <time>2021-03-31T13:18:22.000Z</time>
      </trkpt>
      <trkpt lat="47.95946" lon="7.03722">
        <ele>1244.9</ele>
        <time>2021-03-31T13:18:29.000Z</time>
      </trkpt>
      <trkpt lat="47.95955" lon="7.03726">
        <ele>1245.4</ele>
        <time>2021-03-31T13:18:36.000Z</time>
      </trkpt>
      <trkpt lat="47.95964" lon="7.03728">
        <ele>1245.7</ele>
        <time>2021-03-31T13:18:44.000Z</time>
      </trkpt>
      <trkpt lat="47.95974" lon="7.03729">
        <ele>1245.8</ele>
        <time>2021-03-31T13:18:51.000Z</time>
      </trkpt>
      <trkpt lat="47.95983" lon="7.03728">
        <ele>1245.7</ele>
        <time>2021-03-31T13:18:57.000Z</time>
      </trkpt>
      <trkpt lat="47.95991" lon="7.03735">
        <ele>1246.6</ele>
        <time>2021-03-31T13:19:09.000Z</time>
      </trkpt>
      <trkpt lat="47.96" lon="7.0374">
        <ele>1247.3</ele>
        <time>2021-03-31T13:19:18.000Z</time>
      </trkpt>
      <trkpt lat="47.9601" lon="7.03742">
        <ele>1247.3</ele>
        <time>2021-03-31T13:19:28.000Z</time>
      </trkpt>
      <trkpt lat="47.9602" lon="7.03744">
        <ele>1247.2</ele>
        <time>2021-03-31T13:19:36.000Z</time>
      </trkpt>
      <trkpt lat="47.9603" lon="7.03746">
        <ele>1247</ele>
        <time>2021-03-31T13:19:45.000Z</time>
      </trkpt>
      <trkpt lat="47.9604" lon="7.03744">
        <ele>1246.4</ele>
        <time>2021-03-31T13:19:52.000Z</time>
      </trkpt>
      <trkpt lat="47.9605" lon="7.03743">
        <ele>1245.8</ele>
        <time>2021-03-31T13:20:00.000Z</time>
      </trkpt>
      <trkpt lat="47.9606" lon="7.03745">
        <ele>1245.6</ele>
        <time>2021-03-31T13:20:07.000Z</time>
      </trkpt>
      <trkpt lat="47.96069" lon="7.03748">
        <ele>1245.5</ele>
        <time>2021-03-31T13:20:15.000Z</time>
      </trkpt>
      <trkpt lat="47.96078" lon="7.03751">
        <ele>1245.4</ele>
        <time>2021-03-31T13:20:23.000Z</time>
      </trkpt>
      <trkpt lat="47.96088" lon="7.03752">
        <ele>1245.3</ele>
        <time>2021-03-31T13:20:30.000Z</time>
      </trkpt>
      <trkpt lat="47.96097" lon="7.03749">
        <ele>1244.9</ele>
        <time>2021-03-31T13:20:38.000Z</time>
      </trkpt>
      <trkpt lat="47.96106" lon="7.03745">
        <ele>1244.5</ele>
        <time>2021-03-31T13:20:44.000Z</time>
      </trkpt>
      <trkpt lat="47.96115" lon="7.03745">
        <ele>1244.5</ele>
        <time>2021-03-31T13:20:54.000Z</time>
      </trkpt>
      <trkpt lat="47.96124" lon="7.03748">
        <ele>1244.8</ele>
        <time>2021-03-31T13:21:04.000Z</time>
      </trkpt>
      <trkpt lat="47.96133" lon="7.03748">
        <ele>1244.8</ele>
        <time>2021-03-31T13:21:14.000Z</time>
      </trkpt>
      <trkpt lat="47.96143" lon="7.03744">
        <ele>1244.4</ele>
        <time>2021-03-31T13:21:32.000Z</time>
      </trkpt>
      <trkpt lat="47.96152" lon="7.03746">
        <ele>1244.6</ele>
        <time>2021-03-31T13:21:41.000Z</time>
      </trkpt>
      <trkpt lat="47.96162" lon="7.03745">
        <ele>1244.5</ele>
        <time>2021-03-31T13:22:02.000Z</time>
      </trkpt>
      <trkpt lat="47.96163" lon="7.03759">
        <ele>1246.1</ele>
        <time>2021-03-31T13:22:22.000Z</time>
      </trkpt>
      <trkpt lat="47.96167" lon="7.03772">
        <ele>1247.8</ele>
        <time>2021-03-31T13:22:31.000Z</time>
      </trkpt>
      <trkpt lat="47.9617" lon="7.03785">
        <ele>1249.4</ele>
        <time>2021-03-31T13:22:43.000Z</time>
      </trkpt>
      <trkpt lat="47.96179" lon="7.03788">
        <ele>1249.5</ele>
        <time>2021-03-31T13:22:55.000Z</time>
      </trkpt>
      <trkpt lat="47.96181" lon="7.03801">
        <ele>1251.2</ele>
        <time>2021-03-31T13:23:14.000Z</time>
      </trkpt>
      <trkpt lat="47.96184" lon="7.03815">
        <ele>1252.8</ele>
        <time>2021-03-31T13:23:33.000Z</time>
      </trkpt>
      <trkpt lat="47.96195" lon="7.03817">
        <ele>1252.5</ele>
        <time>2021-03-31T13:24:09.000Z</time>
      </trkpt>
      <trkpt lat="47.96204" lon="7.03818">
        <ele>1252.2</ele>
        <time>2021-03-31T13:24:18.000Z</time>
      </trkpt>
      <trkpt lat="47.96214" lon="7.03821">
        <ele>1252.2</ele>
        <time>2021-03-31T13:24:31.000Z</time>
      </trkpt>
      <trkpt lat="47.96223" lon="7.03822">
        <ele>1251.9</ele>
        <time>2021-03-31T13:24:40.000Z</time>
      </trkpt>
      <trkpt lat="47.96233" lon="7.03826">
        <ele>1251.9</ele>
        <time>2021-03-31T13:24:52.000Z</time>
      </trkpt>
      <trkpt lat="47.96233" lon="7.0384">
        <ele>1253</ele>
        <time>2021-03-31T13:25:19.000Z</time>
      </trkpt>
      <trkpt lat="47.96229" lon="7.03852">
        <ele>1253.6</ele>
        <time>2021-03-31T13:25:30.000Z</time>
      </trkpt>
      <trkpt lat="47.96225" lon="7.03865">
        <ele>1254</ele>
        <time>2021-03-31T13:25:41.000Z</time>
      </trkpt>
      <trkpt lat="47.96229" lon="7.03876">
        <ele>1254.3</ele>
        <time>2021-03-31T13:25:58.000Z</time>
      </trkpt>
      <trkpt lat="47.96233" lon="7.03889">
        <ele>1254.7</ele>
        <time>2021-03-31T13:34:08.000Z</time>
      </trkpt>
      <trkpt lat="47.96242" lon="7.03891">
        <ele>1254.7</ele>
        <time>2021-03-31T13:36:20.000Z</time>
      </trkpt>
      <trkpt lat="47.96252" lon="7.03895">
        <ele>1254.8</ele>
        <time>2021-03-31T13:36:35.000Z</time>
      </trkpt>
      <trkpt lat="47.96261" lon="7.03899">
        <ele>1254.1</ele>
        <time>2021-03-31T13:36:44.000Z</time>
      </trkpt>
      <trkpt lat="47.96269" lon="7.03905">
        <ele>1253.5</ele>
        <time>2021-03-31T13:36:53.000Z</time>
      </trkpt>
      <trkpt lat="47.96277" lon="7.03913">
        <ele>1253</ele>
        <time>2021-03-31T13:37:01.000Z</time>
      </trkpt>
      <trkpt lat="47.96285" lon="7.03919">
        <ele>1251.9</ele>
        <time>2021-03-31T13:37:08.000Z</time>
      </trkpt>
      <trkpt lat="47.96294" lon="7.03921">
        <ele>1250.8</ele>
        <time>2021-03-31T13:37:16.000Z</time>
      </trkpt>
      <trkpt lat="47.96304" lon="7.03925">
        <ele>1249.5</ele>
        <time>2021-03-31T13:37:24.000Z</time>
      </trkpt>
      <trkpt lat="47.96313" lon="7.03931">
        <ele>1248.3</ele>
        <time>2021-03-31T13:37:30.000Z</time>
      </trkpt>
      <trkpt lat="47.96322" lon="7.03933">
        <ele>1247.4</ele>
        <time>2021-03-31T13:37:37.000Z</time>
      </trkpt>
      <trkpt lat="47.96331" lon="7.03936">
        <ele>1246.5</ele>
        <time>2021-03-31T13:37:46.000Z</time>
      </trkpt>
      <trkpt lat="47.9634" lon="7.03934">
        <ele>1246.2</ele>
        <time>2021-03-31T13:38:15.000Z</time>
      </trkpt>
      <trkpt lat="47.96348" lon="7.03943">
        <ele>1245.6</ele>
        <time>2021-03-31T13:38:24.000Z</time>
      </trkpt>
      <trkpt lat="47.96356" lon="7.03948">
        <ele>1245.1</ele>
        <time>2021-03-31T13:38:31.000Z</time>
      </trkpt>
      <trkpt lat="47.96364" lon="7.03956">
        <ele>1244.4</ele>
        <time>2021-03-31T13:39:20.000Z</time>
      </trkpt>
      <trkpt lat="47.96373" lon="7.03959">
        <ele>1243.8</ele>
        <time>2021-03-31T13:39:30.000Z</time>
      </trkpt>
      <trkpt lat="47.96382" lon="7.03963">
        <ele>1243.1</ele>
        <time>2021-03-31T13:39:37.000Z</time>
      </trkpt>
      <trkpt lat="47.96391" lon="7.03966">
        <ele>1242.5</ele>
        <time>2021-03-31T13:39:47.000Z</time>
      </trkpt>
      <trkpt lat="47.964" lon="7.03968">
        <ele>1241.9</ele>
        <time>2021-03-31T13:39:57.000Z</time>
      </trkpt>
      <trkpt lat="47.96409" lon="7.03973">
        <ele>1241</ele>
        <time>2021-03-31T13:40:22.000Z</time>
      </trkpt>
      <trkpt lat="47.96418" lon="7.03977">
        <ele>1240.2</ele>
        <time>2021-03-31T13:40:34.000Z</time>
      </trkpt>
      <trkpt lat="47.96428" lon="7.0398">
        <ele>1239.4</ele>
        <time>2021-03-31T13:40:54.000Z</time>
      </trkpt>
      <trkpt lat="47.96437" lon="7.0398">
        <ele>1238.8</ele>
        <time>2021-03-31T13:41:38.000Z</time>
      </trkpt>
      <trkpt lat="47.96447" lon="7.03984">
        <ele>1238</ele>
        <time>2021-03-31T13:41:47.000Z</time>
      </trkpt>
      <trkpt lat="47.96456" lon="7.03987">
        <ele>1237.2</ele>
        <time>2021-03-31T13:41:56.000Z</time>
      </trkpt>
      <trkpt lat="47.96465" lon="7.03994">
        <ele>1236.2</ele>
        <time>2021-03-31T13:42:05.000Z</time>
      </trkpt>
      <trkpt lat="47.96473" lon="7.04">
        <ele>1235.3</ele>
        <time>2021-03-31T13:42:15.000Z</time>
      </trkpt>
      <trkpt lat="47.96482" lon="7.03999">
        <ele>1234.9</ele>
        <time>2021-03-31T13:42:23.000Z</time>
      </trkpt>
      <trkpt lat="47.96491" lon="7.04">
        <ele>1234.4</ele>
        <time>2021-03-31T13:42:30.000Z</time>
      </trkpt>
      <trkpt lat="47.96502" lon="7.04001">
        <ele>1233.7</ele>
        <time>2021-03-31T13:42:38.000Z</time>
      </trkpt>
      <trkpt lat="47.96511" lon="7.04005">
        <ele>1231.9</ele>
        <time>2021-03-31T13:42:46.000Z</time>
      </trkpt>
      <trkpt lat="47.96521" lon="7.04006">
        <ele>1230.5</ele>
        <time>2021-03-31T13:42:54.000Z</time>
      </trkpt>
      <trkpt lat="47.9653" lon="7.0401">
        <ele>1228.8</ele>
        <time>2021-03-31T13:43:02.000Z</time>
      </trkpt>
      <trkpt lat="47.96539" lon="7.04016">
        <ele>1226.8</ele>
        <time>2021-03-31T13:43:09.000Z</time>
      </trkpt>
      <trkpt lat="47.96548" lon="7.04023">
        <ele>1224.7</ele>
        <time>2021-03-31T13:43:14.000Z</time>
      </trkpt>
      <trkpt lat="47.96558" lon="7.04033">
        <ele>1221.9</ele>
        <time>2021-03-31T13:43:19.000Z</time>
      </trkpt>
      <trkpt lat="47.9657" lon="7.04044">
        <ele>1219</ele>
        <time>2021-03-31T13:43:24.000Z</time>
      </trkpt>
      <trkpt lat="47.9658" lon="7.04053">
        <ele>1216.7</ele>
        <time>2021-03-31T13:43:29.000Z</time>
      </trkpt>
      <trkpt lat="47.96588" lon="7.04059">
        <ele>1215</ele>
        <time>2021-03-31T13:43:34.000Z</time>
      </trkpt>
      <trkpt lat="47.96596" lon="7.04067">
        <ele>1213.2</ele>
        <time>2021-03-31T13:43:41.000Z</time>
      </trkpt>
      <trkpt lat="47.96604" lon="7.04073">
        <ele>1211.6</ele>
        <time>2021-03-31T13:43:49.000Z</time>
      </trkpt>
      <trkpt lat="47.96613" lon="7.04079">
        <ele>1210.1</ele>
        <time>2021-03-31T13:43:55.000Z</time>
      </trkpt>
      <trkpt lat="47.96622" lon="7.04085">
        <ele>1208.7</ele>
        <time>2021-03-31T13:44:02.000Z</time>
      </trkpt>
      <trkpt lat="47.9663" lon="7.0409">
        <ele>1207.8</ele>
        <time>2021-03-31T13:44:09.000Z</time>
      </trkpt>
      <trkpt lat="47.96637" lon="7.041">
        <ele>1207</ele>
        <time>2021-03-31T13:44:17.000Z</time>
      </trkpt>
      <trkpt lat="47.96644" lon="7.04108">
        <ele>1206.1</ele>
        <time>2021-03-31T13:44:25.000Z</time>
      </trkpt>
      <trkpt lat="47.96651" lon="7.04117">
        <ele>1205.3</ele>
        <time>2021-03-31T13:44:36.000Z</time>
      </trkpt>
      <trkpt lat="47.9666" lon="7.04123">
        <ele>1204.5</ele>
        <time>2021-03-31T13:44:45.000Z</time>
      </trkpt>
      <trkpt lat="47.96669" lon="7.04129">
        <ele>1203.6</ele>
        <time>2021-03-31T13:44:51.000Z</time>
      </trkpt>
      <trkpt lat="47.96678" lon="7.04133">
        <ele>1202.4</ele>
        <time>2021-03-31T13:44:57.000Z</time>
      </trkpt>
      <trkpt lat="47.96687" lon="7.04137">
        <ele>1201.3</ele>
        <time>2021-03-31T13:45:04.000Z</time>
      </trkpt>
      <trkpt lat="47.96696" lon="7.04142">
        <ele>1200.1</ele>
        <time>2021-03-31T13:45:16.000Z</time>
      </trkpt>
      <trkpt lat="47.96704" lon="7.0415">
        <ele>1199</ele>
        <time>2021-03-31T13:45:25.000Z</time>
      </trkpt>
      <trkpt lat="47.96713" lon="7.04154">
        <ele>1197.7</ele>
        <time>2021-03-31T13:46:04.000Z</time>
      </trkpt>
      <trkpt lat="47.96722" lon="7.04158">
        <ele>1196.6</ele>
        <time>2021-03-31T13:46:10.000Z</time>
      </trkpt>
      <trkpt lat="47.9673" lon="7.04166">
        <ele>1195.4</ele>
        <time>2021-03-31T13:46:19.000Z</time>
      </trkpt>
      <trkpt lat="47.96738" lon="7.04174">
        <ele>1193.9</ele>
        <time>2021-03-31T13:46:27.000Z</time>
      </trkpt>
      <trkpt lat="47.96746" lon="7.0418">
        <ele>1192.6</ele>
        <time>2021-03-31T13:46:33.000Z</time>
      </trkpt>
      <trkpt lat="47.96755" lon="7.04186">
        <ele>1191.9</ele>
        <time>2021-03-31T13:46:40.000Z</time>
      </trkpt>
      <trkpt lat="47.96763" lon="7.04191">
        <ele>1191.8</ele>
        <time>2021-03-31T13:46:51.000Z</time>
      </trkpt>
      <trkpt lat="47.96772" lon="7.04189">
        <ele>1192</ele>
        <time>2021-03-31T13:47:22.000Z</time>
      </trkpt>
      <trkpt lat="47.96781" lon="7.04195">
        <ele>1192.1</ele>
        <time>2021-03-31T13:47:42.000Z</time>
      </trkpt>
      <trkpt lat="47.9679" lon="7.042">
        <ele>1192.3</ele>
        <time>2021-03-31T13:47:56.000Z</time>
      </trkpt>
      <trkpt lat="47.968" lon="7.04206">
        <ele>1192.6</ele>
        <time>2021-03-31T13:48:05.000Z</time>
      </trkpt>
      <trkpt lat="47.96809" lon="7.04206">
        <ele>1192.9</ele>
        <time>2021-03-31T13:48:12.000Z</time>
      </trkpt>
      <trkpt lat="47.96819" lon="7.04205">
        <ele>1193.3</ele>
        <time>2021-03-31T13:48:19.000Z</time>
      </trkpt>
      <trkpt lat="47.96828" lon="7.04211">
        <ele>1193.9</ele>
        <time>2021-03-31T13:48:29.000Z</time>
      </trkpt>
      <trkpt lat="47.96836" lon="7.04217">
        <ele>1194.3</ele>
        <time>2021-03-31T13:48:37.000Z</time>
      </trkpt>
      <trkpt lat="47.96835" lon="7.04231">
        <ele>1195</ele>
        <time>2021-03-31T13:48:49.000Z</time>
      </trkpt>
      <trkpt lat="47.96827" lon="7.04238">
        <ele>1194.9</ele>
        <time>2021-03-31T13:49:02.000Z</time>
      </trkpt>
      <trkpt lat="47.9682" lon="7.04247">
        <ele>1194.6</ele>
        <time>2021-03-31T13:49:14.000Z</time>
      </trkpt>
      <trkpt lat="47.96814" lon="7.04258">
        <ele>1193.5</ele>
        <time>2021-03-31T13:49:23.000Z</time>
      </trkpt>
      <trkpt lat="47.96812" lon="7.04273">
        <ele>1192</ele>
        <time>2021-03-31T13:49:34.000Z</time>
      </trkpt>
      <trkpt lat="47.96819" lon="7.04284">
        <ele>1192</ele>
        <time>2021-03-31T13:49:41.000Z</time>
      </trkpt>
      <trkpt lat="47.96825" lon="7.04294">
        <ele>1192.4</ele>
        <time>2021-03-31T13:49:47.000Z</time>
      </trkpt>
      <trkpt lat="47.96833" lon="7.04303">
        <ele>1193.3</ele>
        <time>2021-03-31T13:49:55.000Z</time>
      </trkpt>
      <trkpt lat="47.96839" lon="7.04315">
        <ele>1192.7</ele>
        <time>2021-03-31T13:50:05.000Z</time>
      </trkpt>
      <trkpt lat="47.96847" lon="7.04322">
        <ele>1192.2</ele>
        <time>2021-03-31T13:50:13.000Z</time>
      </trkpt>
      <trkpt lat="47.96854" lon="7.04331">
        <ele>1191.6</ele>
        <time>2021-03-31T13:50:24.000Z</time>
      </trkpt>
      <trkpt lat="47.96857" lon="7.04344">
        <ele>1188.6</ele>
        <time>2021-03-31T13:50:35.000Z</time>
      </trkpt>
      <trkpt lat="47.96861" lon="7.04356">
        <ele>1185</ele>
        <time>2021-03-31T13:50:47.000Z</time>
      </trkpt>
      <trkpt lat="47.96869" lon="7.04364">
        <ele>1183</ele>
        <time>2021-03-31T13:50:53.000Z</time>
      </trkpt>
      <trkpt lat="47.96877" lon="7.04372">
        <ele>1181.5</ele>
        <time>2021-03-31T13:50:59.000Z</time>
      </trkpt>
      <trkpt lat="47.96887" lon="7.04375">
        <ele>1181.1</ele>
        <time>2021-03-31T13:51:05.000Z</time>
      </trkpt>
      <trkpt lat="47.96896" lon="7.04377">
        <ele>1181.1</ele>
        <time>2021-03-31T13:51:11.000Z</time>
      </trkpt>
      <trkpt lat="47.96905" lon="7.0438">
        <ele>1181.1</ele>
        <time>2021-03-31T13:51:16.000Z</time>
      </trkpt>
      <trkpt lat="47.96914" lon="7.04384">
        <ele>1180.8</ele>
        <time>2021-03-31T13:51:22.000Z</time>
      </trkpt>
      <trkpt lat="47.96918" lon="7.04396">
        <ele>1178.8</ele>
        <time>2021-03-31T13:51:31.000Z</time>
      </trkpt>
      <trkpt lat="47.96926" lon="7.04405">
        <ele>1177.8</ele>
        <time>2021-03-31T13:51:39.000Z</time>
      </trkpt>
      <trkpt lat="47.96935" lon="7.0441">
        <ele>1177.5</ele>
        <time>2021-03-31T13:51:47.000Z</time>
      </trkpt>
      <trkpt lat="47.96944" lon="7.04415">
        <ele>1177.2</ele>
        <time>2021-03-31T13:51:55.000Z</time>
      </trkpt>
      <trkpt lat="47.96948" lon="7.04419">
        <ele>1176.5</ele>
        <time>2021-03-31T13:52:34.000Z</time>
      </trkpt>
    </trkseg>
  </trk>
</gpx>